Meramec River (Missouri), Eureka (07019000)

StateMissouriLatestUnknown (2880 cfs)
RiverMeramec RiverRatingObservedEstimated
Updated2020-08-06 10:30 (43 minutes ago)Flood - The river is flooding. Obstacles can be treacherous or deadly. The river should be avoided at this stage for casual trips and definitely for the inexperienced. Trips should be attempted only with protective gear and equipment.Flood(none)(none)
Discharge2880 cfs (median: 811 cfs)High - The river is high and potentially dangerous, especially for the young and / or inexperienced. Normal stream obstacles are sometimes difficult to navigate. Extended distances can be attempted, but canoe travel may not be advisable.High(none)(none)
Height4.98 feetGood - Conditions are ideal for a canoe or kayak. Boats typically will drag on fewer than one-quarter of riffles, if at all, and portages are unnecessary or rare. Normal float lengths can be attempted without a problem.Good(none)(none)
TrendSteady (falling over 24 hours)Low - River is low but can still be floated. Some riffles are okay but most come with significant dragging and might need a portage. Float lengths should be reduced to accommodate low flow, dragging, and portages.Low(none)(none)
USGSExternal icon USGS Site (External icon Google Maps)Poor - River is too low to float comfortably. Most or all riffles will drag or must be portaged and some obstacles (such as slick shelf rock) cause undue problems. Avoid the river at this stage for casual paddling trips.Poor(none)(none)

Trending Data

Plot Image

Trips for Meramec River (Missouri), Eureka (07019000)

DateStartEndDistanceConditionDischargeHeightFishingDetails

A total of 0 rows are displayed.

Condition Descriptions

Fishing Conditions

Fish Species

Notes

Classic Trip List

The classic River Trips application is still available for use. It is updated with the new system using a data retrofit. It is no longer maintained. The original River Trips application is no longer updated (as of 1 Dec 2016) but can be checked for errors or for the condition of the data before it was converted to the new system.

Gauge Data Table

ObservationHeightDischargeMaximum
Discharge
Minimum
Discharge
Mean
Discharge
P05P10P20P25P50
(Median)
P75P80P90P95
2020-08-06 10:30 4.98 2880 4250 (1958) 249 (1936) 1020 366 410 501 536 811 1150 1310 1920 2840
2020-08-06 10:00 4.98 2880 4250 (1958) 249 (1936) 1020 366 410 501 536 811 1150 1310 1920 2840
2020-08-06 09:30 4.99 2890 4250 (1958) 249 (1936) 1020 366 410 501 536 811 1150 1310 1920 2840
2020-08-06 09:00 5.01 2920 4250 (1958) 249 (1936) 1020 366 410 501 536 811 1150 1310 1920 2840
2020-08-06 08:30 5.00 2910 4250 (1958) 249 (1936) 1020 366 410 501 536 811 1150 1310 1920 2840
2020-08-06 08:00 5.02 2940 4250 (1958) 249 (1936) 1020 366 410 501 536 811 1150 1310 1920 2840
2020-08-06 07:30 5.03 2950 4250 (1958) 249 (1936) 1020 366 410 501 536 811 1150 1310 1920 2840
2020-08-06 07:00 5.03 2950 4250 (1958) 249 (1936) 1020 366 410 501 536 811 1150 1310 1920 2840
2020-08-06 06:30 5.04 2970 4250 (1958) 249 (1936) 1020 366 410 501 536 811 1150 1310 1920 2840
2020-08-06 06:00 5.04 2970 4250 (1958) 249 (1936) 1020 366 410 501 536 811 1150 1310 1920 2840
2020-08-06 05:30 5.06 3000 4250 (1958) 249 (1936) 1020 366 410 501 536 811 1150 1310 1920 2840
2020-08-06 05:00 5.08 3030 4250 (1958) 249 (1936) 1020 366 410 501 536 811 1150 1310 1920 2840
2020-08-06 04:30 5.07 3010 4250 (1958) 249 (1936) 1020 366 410 501 536 811 1150 1310 1920 2840
2020-08-06 04:00 5.08 3030 4250 (1958) 249 (1936) 1020 366 410 501 536 811 1150 1310 1920 2840
2020-08-06 03:30 5.09 3040 4250 (1958) 249 (1936) 1020 366 410 501 536 811 1150 1310 1920 2840
2020-08-06 03:00 5.10 3060 4250 (1958) 249 (1936) 1020 366 410 501 536 811 1150 1310 1920 2840
2020-08-06 02:30 5.10 3060 4250 (1958) 249 (1936) 1020 366 410 501 536 811 1150 1310 1920 2840
2020-08-06 02:00 5.13 3100 4250 (1958) 249 (1936) 1020 366 410 501 536 811 1150 1310 1920 2840
2020-08-06 01:30 5.13 3100 4250 (1958) 249 (1936) 1020 366 410 501 536 811 1150 1310 1920 2840
2020-08-06 01:00 5.14 3120 4250 (1958) 249 (1936) 1020 366 410 501 536 811 1150 1310 1920 2840
2020-08-06 00:30 5.15 3130 4250 (1958) 249 (1936) 1020 366 410 501 536 811 1150 1310 1920 2840
2020-08-06 00:00 5.15 3130 4250 (1958) 249 (1936) 1020 366 410 501 536 811 1150 1310 1920 2840
2020-08-05 23:30 5.15 3130 6240 (1958) 239 (1936) 1060 380 422 513 552 782 1200 1340 1990 3290
2020-08-05 23:00 5.16 3150 6240 (1958) 239 (1936) 1060 380 422 513 552 782 1200 1340 1990 3290
2020-08-05 22:30 5.18 3180 6240 (1958) 239 (1936) 1060 380 422 513 552 782 1200 1340 1990 3290
2020-08-05 22:00 5.19 3190 6240 (1958) 239 (1936) 1060 380 422 513 552 782 1200 1340 1990 3290
2020-08-05 21:30 5.20 3210 6240 (1958) 239 (1936) 1060 380 422 513 552 782 1200 1340 1990 3290
2020-08-05 21:00 5.20 3210 6240 (1958) 239 (1936) 1060 380 422 513 552 782 1200 1340 1990 3290
2020-08-05 20:30 5.20 3210 6240 (1958) 239 (1936) 1060 380 422 513 552 782 1200 1340 1990 3290
2020-08-05 20:00 5.23 3250 6240 (1958) 239 (1936) 1060 380 422 513 552 782 1200 1340 1990 3290
2020-08-05 19:30 5.25 3280 6240 (1958) 239 (1936) 1060 380 422 513 552 782 1200 1340 1990 3290
2020-08-05 19:00 5.24 3270 6240 (1958) 239 (1936) 1060 380 422 513 552 782 1200 1340 1990 3290
2020-08-05 18:30 5.27 3310 6240 (1958) 239 (1936) 1060 380 422 513 552 782 1200 1340 1990 3290
2020-08-05 18:00 5.28 3330 6240 (1958) 239 (1936) 1060 380 422 513 552 782 1200 1340 1990 3290
2020-08-05 17:30 5.28 3330 6240 (1958) 239 (1936) 1060 380 422 513 552 782 1200 1340 1990 3290
2020-08-05 17:00 5.27 3310 6240 (1958) 239 (1936) 1060 380 422 513 552 782 1200 1340 1990 3290
2020-08-05 16:30 5.29 3340 6240 (1958) 239 (1936) 1060 380 422 513 552 782 1200 1340 1990 3290
2020-08-05 16:00 5.31 3370 6240 (1958) 239 (1936) 1060 380 422 513 552 782 1200 1340 1990 3290
2020-08-05 15:30 5.32 3390 6240 (1958) 239 (1936) 1060 380 422 513 552 782 1200 1340 1990 3290
2020-08-05 15:00 5.33 3400 6240 (1958) 239 (1936) 1060 380 422 513 552 782 1200 1340 1990 3290
2020-08-05 14:30 5.36 3450 6240 (1958) 239 (1936) 1060 380 422 513 552 782 1200 1340 1990 3290
2020-08-05 14:00 5.36 3450 6240 (1958) 239 (1936) 1060 380 422 513 552 782 1200 1340 1990 3290
2020-08-05 13:30 5.36 3450 6240 (1958) 239 (1936) 1060 380 422 513 552 782 1200 1340 1990 3290
2020-08-05 13:00 5.40 3510 6240 (1958) 239 (1936) 1060 380 422 513 552 782 1200 1340 1990 3290
2020-08-05 12:30 5.39 3500 6240 (1958) 239 (1936) 1060 380 422 513 552 782 1200 1340 1990 3290
2020-08-05 12:00 5.40 3510 6240 (1958) 239 (1936) 1060 380 422 513 552 782 1200 1340 1990 3290
2020-08-05 11:30 5.43 3560 6240 (1958) 239 (1936) 1060 380 422 513 552 782 1200 1340 1990 3290
2020-08-05 11:00 5.43 3560 6240 (1958) 239 (1936) 1060 380 422 513 552 782 1200 1340 1990 3290
2020-08-05 10:30 5.43 3560 6240 (1958) 239 (1936) 1060 380 422 513 552 782 1200 1340 1990 3290
2020-08-05 10:00 5.46 3610 6240 (1958) 239 (1936) 1060 380 422 513 552 782 1200 1340 1990 3290
2020-08-05 09:30 5.45 3590 6240 (1958) 239 (1936) 1060 380 422 513 552 782 1200 1340 1990 3290
2020-08-05 09:00 5.48 3640 6240 (1958) 239 (1936) 1060 380 422 513 552 782 1200 1340 1990 3290
2020-08-05 08:30 5.48 3640 6240 (1958) 239 (1936) 1060 380 422 513 552 782 1200 1340 1990 3290
2020-08-05 08:00 5.48 3640 6240 (1958) 239 (1936) 1060 380 422 513 552 782 1200 1340 1990 3290
2020-08-05 07:30 5.51 3680 6240 (1958) 239 (1936) 1060 380 422 513 552 782 1200 1340 1990 3290
2020-08-05 07:00 5.52 3700 6240 (1958) 239 (1936) 1060 380 422 513 552 782 1200 1340 1990 3290
2020-08-05 06:30 5.53 3720 6240 (1958) 239 (1936) 1060 380 422 513 552 782 1200 1340 1990 3290
2020-08-05 06:00 5.55 3750 6240 (1958) 239 (1936) 1060 380 422 513 552 782 1200 1340 1990 3290
2020-08-05 05:30 5.56 3760 6240 (1958) 239 (1936) 1060 380 422 513 552 782 1200 1340 1990 3290
2020-08-05 05:00 5.58 3790 6240 (1958) 239 (1936) 1060 380 422 513 552 782 1200 1340 1990 3290
2020-08-05 04:30 5.60 3830 6240 (1958) 239 (1936) 1060 380 422 513 552 782 1200 1340 1990 3290
2020-08-05 04:00 5.59 3810 6240 (1958) 239 (1936) 1060 380 422 513 552 782 1200 1340 1990 3290
2020-08-05 03:30 5.63 3870 6240 (1958) 239 (1936) 1060 380 422 513 552 782 1200 1340 1990 3290
2020-08-05 03:00 5.65 3900 6240 (1958) 239 (1936) 1060 380 422 513 552 782 1200 1340 1990 3290
2020-08-05 02:30 5.63 3870 6240 (1958) 239 (1936) 1060 380 422 513 552 782 1200 1340 1990 3290
2020-08-05 02:00 5.66 3920 6240 (1958) 239 (1936) 1060 380 422 513 552 782 1200 1340 1990 3290
2020-08-05 01:30 5.69 3970 6240 (1958) 239 (1936) 1060 380 422 513 552 782 1200 1340 1990 3290
2020-08-05 01:00 5.71 4000 6240 (1958) 239 (1936) 1060 380 422 513 552 782 1200 1340 1990 3290
2020-08-05 00:30 5.73 4030 6240 (1958) 239 (1936) 1060 380 422 513 552 782 1200 1340 1990 3290
2020-08-05 00:00 5.73 4030 6240 (1958) 239 (1936) 1060 380 422 513 552 782 1200 1340 1990 3290
2020-08-04 23:30 5.76 4080 12200 (1958) 239 (1936) 1140 355 398 501 536 774 1210 1380 1880 3430
2020-08-04 23:00 5.79 4130 12200 (1958) 239 (1936) 1140 355 398 501 536 774 1210 1380 1880 3430
2020-08-04 22:30 5.80 4150 12200 (1958) 239 (1936) 1140 355 398 501 536 774 1210 1380 1880 3430
2020-08-04 22:00 5.82 4180 12200 (1958) 239 (1936) 1140 355 398 501 536 774 1210 1380 1880 3430
2020-08-04 21:30 5.86 4240 12200 (1958) 239 (1936) 1140 355 398 501 536 774 1210 1380 1880 3430
2020-08-04 21:00 5.88 4280 12200 (1958) 239 (1936) 1140 355 398 501 536 774 1210 1380 1880 3430
2020-08-04 20:30 5.89 4290 12200 (1958) 239 (1936) 1140 355 398 501 536 774 1210 1380 1880 3430
2020-08-04 20:00 5.92 4340 12200 (1958) 239 (1936) 1140 355 398 501 536 774 1210 1380 1880 3430
2020-08-04 19:30 5.94 4370 12200 (1958) 239 (1936) 1140 355 398 501 536 774 1210 1380 1880 3430
2020-08-04 19:00 5.97 4420 12200 (1958) 239 (1936) 1140 355 398 501 536 774 1210 1380 1880 3430
2020-08-04 18:30 5.99 4460 12200 (1958) 239 (1936) 1140 355 398 501 536 774 1210 1380 1880 3430
2020-08-04 18:00 6.04 4540 12200 (1958) 239 (1936) 1140 355 398 501 536 774 1210 1380 1880 3430
2020-08-04 17:30 6.03 4520 12200 (1958) 239 (1936) 1140 355 398 501 536 774 1210 1380 1880 3430
2020-08-04 17:00 6.07 4590 12200 (1958) 239 (1936) 1140 355 398 501 536 774 1210 1380 1880 3430
2020-08-04 16:30 6.12 4670 12200 (1958) 239 (1936) 1140 355 398 501 536 774 1210 1380 1880 3430
2020-08-04 16:00 6.14 4700 12200 (1958) 239 (1936) 1140 355 398 501 536 774 1210 1380 1880 3430
2020-08-04 15:30 6.16 4740 12200 (1958) 239 (1936) 1140 355 398 501 536 774 1210 1380 1880 3430
2020-08-04 15:00 6.19 4790 12200 (1958) 239 (1936) 1140 355 398 501 536 774 1210 1380 1880 3430
2020-08-04 14:30 6.19 4790 12200 (1958) 239 (1936) 1140 355 398 501 536 774 1210 1380 1880 3430
2020-08-04 14:00 6.23 4850 12200 (1958) 239 (1936) 1140 355 398 501 536 774 1210 1380 1880 3430
2020-08-04 13:30 6.27 4920 12200 (1958) 239 (1936) 1140 355 398 501 536 774 1210 1380 1880 3430
2020-08-04 13:00 6.28 4940 12200 (1958) 239 (1936) 1140 355 398 501 536 774 1210 1380 1880 3430
2020-08-04 12:30 6.30 4970 12200 (1958) 239 (1936) 1140 355 398 501 536 774 1210 1380 1880 3430
2020-08-04 12:00 6.34 5040 12200 (1958) 239 (1936) 1140 355 398 501 536 774 1210 1380 1880 3430
2020-08-04 11:30 6.36 5070 12200 (1958) 239 (1936) 1140 355 398 501 536 774 1210 1380 1880 3430
2020-08-04 11:00 6.39 5130 12200 (1958) 239 (1936) 1140 355 398 501 536 774 1210 1380 1880 3430
2020-08-04 10:30 6.40 5140 12200 (1958) 239 (1936) 1140 355 398 501 536 774 1210 1380 1880 3430
2020-08-04 10:00 6.39 5130 12200 (1958) 239 (1936) 1140 355 398 501 536 774 1210 1380 1880 3430
2020-08-04 09:30 6.43 5190 12200 (1958) 239 (1936) 1140 355 398 501 536 774 1210 1380 1880 3430
2020-08-04 09:00 6.46 5250 12200 (1958) 239 (1936) 1140 355 398 501 536 774 1210 1380 1880 3430
2020-08-04 08:30 6.48 5280 12200 (1958) 239 (1936) 1140 355 398 501 536 774 1210 1380 1880 3430
2020-08-04 08:00 6.47 5260 12200 (1958) 239 (1936) 1140 355 398 501 536 774 1210 1380 1880 3430
2020-08-04 07:30 6.48 5280 12200 (1958) 239 (1936) 1140 355 398 501 536 774 1210 1380 1880 3430
2020-08-04 07:00 6.51 5330 12200 (1958) 239 (1936) 1140 355 398 501 536 774 1210 1380 1880 3430
2020-08-04 06:30 6.52 5350 12200 (1958) 239 (1936) 1140 355 398 501 536 774 1210 1380 1880 3430
2020-08-04 06:00 6.53 5370 12200 (1958) 239 (1936) 1140 355 398 501 536 774 1210 1380 1880 3430
2020-08-04 05:30 6.52 5350 12200 (1958) 239 (1936) 1140 355 398 501 536 774 1210 1380 1880 3430
2020-08-04 05:00 6.55 5400 12200 (1958) 239 (1936) 1140 355 398 501 536 774 1210 1380 1880 3430
2020-08-04 04:30 6.57 5440 12200 (1958) 239 (1936) 1140 355 398 501 536 774 1210 1380 1880 3430
2020-08-04 04:00 6.58 5450 12200 (1958) 239 (1936) 1140 355 398 501 536 774 1210 1380 1880 3430
2020-08-04 03:30 6.58 5450 12200 (1958) 239 (1936) 1140 355 398 501 536 774 1210 1380 1880 3430
2020-08-04 03:00 6.59 5470 12200 (1958) 239 (1936) 1140 355 398 501 536 774 1210 1380 1880 3430
2020-08-04 02:30 6.63 5540 12200 (1958) 239 (1936) 1140 355 398 501 536 774 1210 1380 1880 3430
2020-08-04 02:00 6.64 5560 12200 (1958) 239 (1936) 1140 355 398 501 536 774 1210 1380 1880 3430
2020-08-04 01:30 6.66 5590 12200 (1958) 239 (1936) 1140 355 398 501 536 774 1210 1380 1880 3430
2020-08-04 01:00 6.68 5630 12200 (1958) 239 (1936) 1140 355 398 501 536 774 1210 1380 1880 3430
2020-08-04 00:30 6.72 5700 12200 (1958) 239 (1936) 1140 355 398 501 536 774 1210 1380 1880 3430
2020-08-04 00:00 6.75 5750 12200 (1958) 239 (1936) 1140 355 398 501 536 774 1210 1380 1880 3430
2020-08-03 23:30 6.78 5800 13000 (1958) 249 (1936) 1250 373 418 523 569 778 1220 1440 2150 4750
2020-08-03 23:00 6.80 5840 13000 (1958) 249 (1936) 1250 373 418 523 569 778 1220 1440 2150 4750
2020-08-03 22:30 6.82 5870 13000 (1958) 249 (1936) 1250 373 418 523 569 778 1220 1440 2150 4750
2020-08-03 22:00 6.86 5940 13000 (1958) 249 (1936) 1250 373 418 523 569 778 1220 1440 2150 4750
2020-08-03 21:30 6.90 6020 13000 (1958) 249 (1936) 1250 373 418 523 569 778 1220 1440 2150 4750
2020-08-03 21:00 6.94 6090 13000 (1958) 249 (1936) 1250 373 418 523 569 778 1220 1440 2150 4750
2020-08-03 20:30 6.98 6160 13000 (1958) 249 (1936) 1250 373 418 523 569 778 1220 1440 2150 4750
2020-08-03 20:00 7.02 6230 13000 (1958) 249 (1936) 1250 373 418 523 569 778 1220 1440 2150 4750
2020-08-03 19:30 7.04 6260 13000 (1958) 249 (1936) 1250 373 418 523 569 778 1220 1440 2150 4750
2020-08-03 19:00 7.09 6350 13000 (1958) 249 (1936) 1250 373 418 523 569 778 1220 1440 2150 4750
2020-08-03 18:30 7.13 6420 13000 (1958) 249 (1936) 1250 373 418 523 569 778 1220 1440 2150 4750
2020-08-03 18:00 7.16 6470 13000 (1958) 249 (1936) 1250 373 418 523 569 778 1220 1440 2150 4750
2020-08-03 17:30 7.19 6530 13000 (1958) 249 (1936) 1250 373 418 523 569 778 1220 1440 2150 4750
2020-08-03 17:00 7.23 6600 13000 (1958) 249 (1936) 1250 373 418 523 569 778 1220 1440 2150 4750
2020-08-03 16:30 7.29 6700 13000 (1958) 249 (1936) 1250 373 418 523 569 778 1220 1440 2150 4750
2020-08-03 16:00 7.32 6760 13000 (1958) 249 (1936) 1250 373 418 523 569 778 1220 1440 2150 4750
2020-08-03 15:30 7.36 6830 13000 (1958) 249 (1936) 1250 373 418 523 569 778 1220 1440 2150 4750
2020-08-03 15:00 7.38 6870 13000 (1958) 249 (1936) 1250 373 418 523 569 778 1220 1440 2150 4750
2020-08-03 14:30 7.44 6970 13000 (1958) 249 (1936) 1250 373 418 523 569 778 1220 1440 2150 4750
2020-08-03 14:00 7.47 7030 13000 (1958) 249 (1936) 1250 373 418 523 569 778 1220 1440 2150 4750
2020-08-03 13:30 7.49 7060 13000 (1958) 249 (1936) 1250 373 418 523 569 778 1220 1440 2150 4750
2020-08-03 13:00 7.54 7150 13000 (1958) 249 (1936) 1250 373 418 523 569 778 1220 1440 2150 4750
2020-08-03 12:30 7.57 7210 13000 (1958) 249 (1936) 1250 373 418 523 569 778 1220 1440 2150 4750
2020-08-03 12:00 7.60 7260 13000 (1958) 249 (1936) 1250 373 418 523 569 778 1220 1440 2150 4750
2020-08-03 11:30 7.64 7340 13000 (1958) 249 (1936) 1250 373 418 523 569 778 1220 1440 2150 4750
2020-08-03 11:00 7.66 7370 13000 (1958) 249 (1936) 1250 373 418 523 569 778 1220 1440 2150 4750
2020-08-03 10:30 7.70 7440 13000 (1958) 249 (1936) 1250 373 418 523 569 778 1220 1440 2150 4750
2020-08-03 10:00 7.73 7500 13000 (1958) 249 (1936) 1250 373 418 523 569 778 1220 1440 2150 4750
2020-08-03 09:30 7.75 7540 13000 (1958) 249 (1936) 1250 373 418 523 569 778 1220 1440 2150 4750
2020-08-03 09:00 7.75 7540 13000 (1958) 249 (1936) 1250 373 418 523 569 778 1220 1440 2150 4750
2020-08-03 08:30 7.77 7570 13000 (1958) 249 (1936) 1250 373 418 523 569 778 1220 1440 2150 4750
2020-08-03 08:00 7.80 7630 13000 (1958) 249 (1936) 1250 373 418 523 569 778 1220 1440 2150 4750
2020-08-03 07:30 7.83 7680 13000 (1958) 249 (1936) 1250 373 418 523 569 778 1220 1440 2150 4750
2020-08-03 07:00 7.88 7780 13000 (1958) 249 (1936) 1250 373 418 523 569 778 1220 1440 2150 4750
2020-08-03 06:30 7.89 7790 13000 (1958) 249 (1936) 1250 373 418 523 569 778 1220 1440 2150 4750
2020-08-03 06:00 7.91 7830 13000 (1958) 249 (1936) 1250 373 418 523 569 778 1220 1440 2150 4750
2020-08-03 05:30 7.92 7850 13000 (1958) 249 (1936) 1250 373 418 523 569 778 1220 1440 2150 4750
2020-08-03 05:00 7.93 7870 13000 (1958) 249 (1936) 1250 373 418 523 569 778 1220 1440 2150 4750
2020-08-03 04:30 7.96 7920 13000 (1958) 249 (1936) 1250 373 418 523 569 778 1220 1440 2150 4750
2020-08-03 04:00 7.97 7940 13000 (1958) 249 (1936) 1250 373 418 523 569 778 1220 1440 2150 4750
2020-08-03 03:30 7.97 7940 13000 (1958) 249 (1936) 1250 373 418 523 569 778 1220 1440 2150 4750
2020-08-03 03:00 8.00 8000 13000 (1958) 249 (1936) 1250 373 418 523 569 778 1220 1440 2150 4750
2020-08-03 02:30 8.01 8020 13000 (1958) 249 (1936) 1250 373 418 523 569 778 1220 1440 2150 4750
2020-08-03 02:00 8.01 8020 13000 (1958) 249 (1936) 1250 373 418 523 569 778 1220 1440 2150 4750
2020-08-03 01:30 8.05 8090 13000 (1958) 249 (1936) 1250 373 418 523 569 778 1220 1440 2150 4750
2020-08-03 01:00 8.06 8110 13000 (1958) 249 (1936) 1250 373 418 523 569 778 1220 1440 2150 4750
2020-08-03 00:30 8.05 8090 13000 (1958) 249 (1936) 1250 373 418 523 569 778 1220 1440 2150 4750
2020-08-03 00:00 8.09 8170 13000 (1958) 249 (1936) 1250 373 418 523 569 778 1220 1440 2150 4750
2020-08-02 23:30 8.09 8170 13300 (2004) 230 (1936) 1310 376 435 536 573 797 1290 1540 2250 3670
2020-08-02 23:00 8.10 8190 13300 (2004) 230 (1936) 1310 376 435 536 573 797 1290 1540 2250 3670
2020-08-02 22:30 8.11 8200 13300 (2004) 230 (1936) 1310 376 435 536 573 797 1290 1540 2250 3670
2020-08-02 22:00 8.12 8220 13300 (2004) 230 (1936) 1310 376 435 536 573 797 1290 1540 2250 3670
2020-08-02 21:30 8.10 8190 13300 (2004) 230 (1936) 1310 376 435 536 573 797 1290 1540 2250 3670
2020-08-02 21:00 8.14 8260 13300 (2004) 230 (1936) 1310 376 435 536 573 797 1290 1540 2250 3670
2020-08-02 20:30 8.14 8260 13300 (2004) 230 (1936) 1310 376 435 536 573 797 1290 1540 2250 3670
2020-08-02 20:00 8.17 8320 13300 (2004) 230 (1936) 1310 376 435 536 573 797 1290 1540 2250 3670
2020-08-02 19:30 8.15 8280 13300 (2004) 230 (1936) 1310 376 435 536 573 797 1290 1540 2250 3670
2020-08-02 19:00 8.16 8300 13300 (2004) 230 (1936) 1310 376 435 536 573 797 1290 1540 2250 3670
2020-08-02 18:30 8.16 8300 13300 (2004) 230 (1936) 1310 376 435 536 573 797 1290 1540 2250 3670
2020-08-02 18:00 8.19 8350 13300 (2004) 230 (1936) 1310 376 435 536 573 797 1290 1540 2250 3670
2020-08-02 17:30 8.17 8320 13300 (2004) 230 (1936) 1310 376 435 536 573 797 1290 1540 2250 3670
2020-08-02 17:00 8.16 8300 13300 (2004) 230 (1936) 1310 376 435 536 573 797 1290 1540 2250 3670
2020-08-02 16:30 8.16 8300 13300 (2004) 230 (1936) 1310 376 435 536 573 797 1290 1540 2250 3670
2020-08-02 16:00 8.16 8300 13300 (2004) 230 (1936) 1310 376 435 536 573 797 1290 1540 2250 3670
2020-08-02 15:30 8.16 8300 13300 (2004) 230 (1936) 1310 376 435 536 573 797 1290 1540 2250 3670
2020-08-02 15:00 8.16 8300 13300 (2004) 230 (1936) 1310 376 435 536 573 797 1290 1540 2250 3670
2020-08-02 14:30 8.13 8240 13300 (2004) 230 (1936) 1310 376 435 536 573 797 1290 1540 2250 3670
2020-08-02 14:00 8.13 8240 13300 (2004) 230 (1936) 1310 376 435 536 573 797 1290 1540 2250 3670
2020-08-02 13:30 8.12 8220 13300 (2004) 230 (1936) 1310 376 435 536 573 797 1290 1540 2250 3670
2020-08-02 13:00 8.10 8190 13300 (2004) 230 (1936) 1310 376 435 536 573 797 1290 1540 2250 3670
2020-08-02 12:30 8.09 8170 13300 (2004) 230 (1936) 1310 376 435 536 573 797 1290 1540 2250 3670
2020-08-02 12:00 8.07 8130 13300 (2004) 230 (1936) 1310 376 435 536 573 797 1290 1540 2250 3670
2020-08-02 11:30 8.04 8070 13300 (2004) 230 (1936) 1310 376 435 536 573 797 1290 1540 2250 3670
2020-08-02 11:00 8.04 8070 13300 (2004) 230 (1936) 1310 376 435 536 573 797 1290 1540 2250 3670
2020-08-02 10:30 8.01 8020 13300 (2004) 230 (1936) 1310 376 435 536 573 797 1290 1540 2250 3670
2020-08-02 10:00 7.98 7960 13300 (2004) 230 (1936) 1310 376 435 536 573 797 1290 1540 2250 3670
2020-08-02 09:30 7.96 7920 13300 (2004) 230 (1936) 1310 376 435 536 573 797 1290 1540 2250 3670
2020-08-02 09:00 7.94 7890 13300 (2004) 230 (1936) 1310 376 435 536 573 797 1290 1540 2250 3670
2020-08-02 08:30 7.96 7920 13300 (2004) 230 (1936) 1310 376 435 536 573 797 1290 1540 2250 3670
2020-08-02 08:00 7.92 7850 13300 (2004) 230 (1936) 1310 376 435 536 573 797 1290 1540 2250 3670
2020-08-02 07:30 7.92 7850 13300 (2004) 230 (1936) 1310 376 435 536 573 797 1290 1540 2250 3670
2020-08-02 07:00 7.95 7910 13300 (2004) 230 (1936) 1310 376 435 536 573 797 1290 1540 2250 3670
2020-08-02 06:30 7.96 7920 13300 (2004) 230 (1936) 1310 376 435 536 573 797 1290 1540 2250 3670
2020-08-02 06:00 7.95 7910 13300 (2004) 230 (1936) 1310 376 435 536 573 797 1290 1540 2250 3670
2020-08-02 05:30 7.97 7940 13300 (2004) 230 (1936) 1310 376 435 536 573 797 1290 1540 2250 3670
2020-08-02 05:00 8.01 8020 13300 (2004) 230 (1936) 1310 376 435 536 573 797 1290 1540 2250 3670
2020-08-02 04:30 8.00 8000 13300 (2004) 230 (1936) 1310 376 435 536 573 797 1290 1540 2250 3670
2020-08-02 04:00 8.01 8020 13300 (2004) 230 (1936) 1310 376 435 536 573 797 1290 1540 2250 3670
2020-08-02 03:30 8.03 8050 13300 (2004) 230 (1936) 1310 376 435 536 573 797 1290 1540 2250 3670
2020-08-02 03:00 8.07 8130 13300 (2004) 230 (1936) 1310 376 435 536 573 797 1290 1540 2250 3670
2020-08-02 02:30 8.12 8220 13300 (2004) 230 (1936) 1310 376 435 536 573 797 1290 1540 2250 3670
2020-08-02 02:00 8.13 8240 13300 (2004) 230 (1936) 1310 376 435 536 573 797 1290 1540 2250 3670
2020-08-02 01:30 8.18 8340 13300 (2004) 230 (1936) 1310 376 435 536 573 797 1290 1540 2250 3670
2020-08-02 01:00 8.19 8350 13300 (2004) 230 (1936) 1310 376 435 536 573 797 1290 1540 2250 3670
2020-08-02 00:30 8.22 8410 13300 (2004) 230 (1936) 1310 376 435 536 573 797 1290 1540 2250 3670
2020-08-02 00:00 8.27 8510 13300 (2004) 230 (1936) 1310 376 435 536 573 797 1290 1540 2250 3670
2020-08-01 23:30 8.30 8560 25000 (1998) 235 (1936) 1430 385 424 535 573 807 1210 1430 2440 4800
2020-08-01 23:00 8.34 8640 25000 (1998) 235 (1936) 1430 385 424 535 573 807 1210 1430 2440 4800
2020-08-01 22:30 8.36 8680 25000 (1998) 235 (1936) 1430 385 424 535 573 807 1210 1430 2440 4800
2020-08-01 22:00 8.39 8730 25000 (1998) 235 (1936) 1430 385 424 535 573 807 1210 1430 2440 4800
2020-08-01 21:30 8.42 8790 25000 (1998) 235 (1936) 1430 385 424 535 573 807 1210 1430 2440 4800
2020-08-01 21:00 8.44 8830 25000 (1998) 235 (1936) 1430 385 424 535 573 807 1210 1430 2440 4800
2020-08-01 20:30 8.48 8910 25000 (1998) 235 (1936) 1430 385 424 535 573 807 1210 1430 2440 4800
2020-08-01 20:00 8.51 8960 25000 (1998) 235 (1936) 1430 385 424 535 573 807 1210 1430 2440 4800
2020-08-01 19:30 8.53 9000 25000 (1998) 235 (1936) 1430 385 424 535 573 807 1210 1430 2440 4800
2020-08-01 19:00 8.57 9080 25000 (1998) 235 (1936) 1430 385 424 535 573 807 1210 1430 2440 4800
2020-08-01 18:30 8.57 9080 25000 (1998) 235 (1936) 1430 385 424 535 573 807 1210 1430 2440 4800
2020-08-01 18:00 8.61 9160 25000 (1998) 235 (1936) 1430 385 424 535 573 807 1210 1430 2440 4800
2020-08-01 17:30 8.63 9190 25000 (1998) 235 (1936) 1430 385 424 535 573 807 1210 1430 2440 4800
2020-08-01 17:00 8.69 9310 25000 (1998) 235 (1936) 1430 385 424 535 573 807 1210 1430 2440 4800
2020-08-01 16:30 8.66 9250 25000 (1998) 235 (1936) 1430 385 424 535 573 807 1210 1430 2440 4800
2020-08-01 16:00 8.70 9330 25000 (1998) 235 (1936) 1430 385 424 535 573 807 1210 1430 2440 4800
2020-08-01 15:30 8.69 9310 25000 (1998) 235 (1936) 1430 385 424 535 573 807 1210 1430 2440 4800
2020-08-01 15:00 8.71 9350 25000 (1998) 235 (1936) 1430 385 424 535 573 807 1210 1430 2440 4800
2020-08-01 14:30 8.70 9330 25000 (1998) 235 (1936) 1430 385 424 535 573 807 1210 1430 2440 4800
2020-08-01 14:00 8.71 9350 25000 (1998) 235 (1936) 1430 385 424 535 573 807 1210 1430 2440 4800
2020-08-01 13:30 8.69 9310 25000 (1998) 235 (1936) 1430 385 424 535 573 807 1210 1430 2440 4800
2020-08-01 13:00 8.69 9310 25000 (1998) 235 (1936) 1430 385 424 535 573 807 1210 1430 2440 4800
2020-08-01 12:30 8.69 9310 25000 (1998) 235 (1936) 1430 385 424 535 573 807 1210 1430 2440 4800
2020-08-01 12:00 8.66 9250 25000 (1998) 235 (1936) 1430 385 424 535 573 807 1210 1430 2440 4800
2020-08-01 11:30 8.62 9180 25000 (1998) 235 (1936) 1430 385 424 535 573 807 1210 1430 2440 4800
2020-08-01 11:00 8.59 9120 25000 (1998) 235 (1936) 1430 385 424 535 573 807 1210 1430 2440 4800
2020-08-01 10:30 8.55 9040 25000 (1998) 235 (1936) 1430 385 424 535 573 807 1210 1430 2440 4800
2020-08-01 10:00 8.51 8960 25000 (1998) 235 (1936) 1430 385 424 535 573 807 1210 1430 2440 4800
2020-08-01 09:30 8.45 8850 25000 (1998) 235 (1936) 1430 385 424 535 573 807 1210 1430 2440 4800
2020-08-01 09:00 8.44 8830 25000 (1998) 235 (1936) 1430 385 424 535 573 807 1210 1430 2440 4800
2020-08-01 08:30 8.37 8700 25000 (1998) 235 (1936) 1430 385 424 535 573 807 1210 1430 2440 4800
2020-08-01 08:00 8.34 8640 25000 (1998) 235 (1936) 1430 385 424 535 573 807 1210 1430 2440 4800
2020-08-01 07:30 8.29 8540 25000 (1998) 235 (1936) 1430 385 424 535 573 807 1210 1430 2440 4800
2020-08-01 07:00 8.21 8390 25000 (1998) 235 (1936) 1430 385 424 535 573 807 1210 1430 2440 4800
2020-08-01 06:30 8.15 8280 25000 (1998) 235 (1936) 1430 385 424 535 573 807 1210 1430 2440 4800
2020-08-01 06:00 8.07 8130 25000 (1998) 235 (1936) 1430 385 424 535 573 807 1210 1430 2440 4800
2020-08-01 05:30 7.99 7980 25000 (1998) 235 (1936) 1430 385 424 535 573 807 1210 1430 2440 4800
2020-08-01 05:00 7.90 7810 25000 (1998) 235 (1936) 1430 385 424 535 573 807 1210 1430 2440 4800
2020-08-01 04:30 7.82 7670 25000 (1998) 235 (1936) 1430 385 424 535 573 807 1210 1430 2440 4800
2020-08-01 04:00 7.71 7460 25000 (1998) 235 (1936) 1430 385 424 535 573 807 1210 1430 2440 4800
2020-08-01 03:30 7.62 7300 25000 (1998) 235 (1936) 1430 385 424 535 573 807 1210 1430 2440 4800
2020-08-01 03:00 7.53 7140 25000 (1998) 235 (1936) 1430 385 424 535 573 807 1210 1430 2440 4800
2020-08-01 02:30 7.43 6960 25000 (1998) 235 (1936) 1430 385 424 535 573 807 1210 1430 2440 4800
2020-08-01 02:00 7.33 6780 25000 (1998) 235 (1936) 1430 385 424 535 573 807 1210 1430 2440 4800
2020-08-01 01:30 7.25 6630 25000 (1998) 235 (1936) 1430 385 424 535 573 807 1210 1430 2440 4800
2020-08-01 01:00 7.19 6530 25000 (1998) 235 (1936) 1430 385 424 535 573 807 1210 1430 2440 4800
2020-08-01 00:30 7.11 6390 25000 (1998) 235 (1936) 1430 385 424 535 573 807 1210 1430 2440 4800
2020-08-01 00:00 7.07 6320 25000 (1998) 235 (1936) 1430 385 424 535 573 807 1210 1430 2440 4800
2020-07-31 23:30 7.00 6190 47500 (1998) 239 (1936) 1840 384 436 541 570 836 1340 1460 2510 8120
2020-07-31 23:00 6.95 6100 47500 (1998) 239 (1936) 1840 384 436 541 570 836 1340 1460 2510 8120
2020-07-31 22:30 6.91 6030 47500 (1998) 239 (1936) 1840 384 436 541 570 836 1340 1460 2510 8120
2020-07-31 22:00 6.90 6020 47500 (1998) 239 (1936) 1840 384 436 541 570 836 1340 1460 2510 8120
2020-07-31 21:30 6.88 5980 47500 (1998) 239 (1936) 1840 384 436 541 570 836 1340 1460 2510 8120
2020-07-31 21:00 6.87 5960 47500 (1998) 239 (1936) 1840 384 436 541 570 836 1340 1460 2510 8120
2020-07-31 20:30 6.91 6030 47500 (1998) 239 (1936) 1840 384 436 541 570 836 1340 1460 2510 8120
2020-07-31 20:00 6.91 6030 47500 (1998) 239 (1936) 1840 384 436 541 570 836 1340 1460 2510 8120
2020-07-31 19:30 6.92 6050 47500 (1998) 239 (1936) 1840 384 436 541 570 836 1340 1460 2510 8120
2020-07-31 19:00 6.98 6160 47500 (1998) 239 (1936) 1840 384 436 541 570 836 1340 1460 2510 8120
2020-07-31 18:30 7.00 6190 47500 (1998) 239 (1936) 1840 384 436 541 570 836 1340 1460 2510 8120
2020-07-31 18:00 7.02 6230 47500 (1998) 239 (1936) 1840 384 436 541 570 836 1340 1460 2510 8120
2020-07-31 17:30 7.08 6330 47500 (1998) 239 (1936) 1840 384 436 541 570 836 1340 1460 2510 8120
2020-07-31 17:00 7.11 6390 47500 (1998) 239 (1936) 1840 384 436 541 570 836 1340 1460 2510 8120
2020-07-31 16:30 7.15 6460 47500 (1998) 239 (1936) 1840 384 436 541 570 836 1340 1460 2510 8120
2020-07-31 16:00 7.19 6530 47500 (1998) 239 (1936) 1840 384 436 541 570 836 1340 1460 2510 8120
2020-07-31 15:30 7.22 6580 47500 (1998) 239 (1936) 1840 384 436 541 570 836 1340 1460 2510 8120
2020-07-31 15:00 7.26 6650 47500 (1998) 239 (1936) 1840 384 436 541 570 836 1340 1460 2510 8120
2020-07-31 14:30 7.28 6690 47500 (1998) 239 (1936) 1840 384 436 541 570 836 1340 1460 2510 8120
2020-07-31 14:00 7.30 6720 47500 (1998) 239 (1936) 1840 384 436 541 570 836 1340 1460 2510 8120
2020-07-31 13:30 7.33 6780 47500 (1998) 239 (1936) 1840 384 436 541 570 836 1340 1460 2510 8120
2020-07-31 13:00 7.35 6810 47500 (1998) 239 (1936) 1840 384 436 541 570 836 1340 1460 2510 8120
2020-07-31 12:30 7.35 6810 47500 (1998) 239 (1936) 1840 384 436 541 570 836 1340 1460 2510 8120
2020-07-31 12:00 7.38 6870 47500 (1998) 239 (1936) 1840 384 436 541 570 836 1340 1460 2510 8120
2020-07-31 11:30 7.38 6870 47500 (1998) 239 (1936) 1840 384 436 541 570 836 1340 1460 2510 8120
2020-07-31 11:00 7.39 6880 47500 (1998) 239 (1936) 1840 384 436 541 570 836 1340 1460 2510 8120
2020-07-31 10:30 7.39 6880 47500 (1998) 239 (1936) 1840 384 436 541 570 836 1340 1460 2510 8120
2020-07-31 10:00 7.38 6870 47500 (1998) 239 (1936) 1840 384 436 541 570 836 1340 1460 2510 8120
2020-07-31 09:30 7.37 6850 47500 (1998) 239 (1936) 1840 384 436 541 570 836 1340 1460 2510 8120
2020-07-31 09:00 7.38 6870 47500 (1998) 239 (1936) 1840 384 436 541 570 836 1340 1460 2510 8120
2020-07-31 08:30 7.37 6850 47500 (1998) 239 (1936) 1840 384 436 541 570 836 1340 1460 2510 8120
2020-07-31 08:00 7.36 6830 47500 (1998) 239 (1936) 1840 384 436 541 570 836 1340 1460 2510 8120
2020-07-31 07:30 7.36 6830 47500 (1998) 239 (1936) 1840 384 436 541 570 836 1340 1460 2510 8120
2020-07-31 07:00 7.33 6780 47500 (1998) 239 (1936) 1840 384 436 541 570 836 1340 1460 2510 8120
2020-07-31 06:30 7.32 6760 47500 (1998) 239 (1936) 1840 384 436 541 570 836 1340 1460 2510 8120
2020-07-31 06:00 7.33 6780 47500 (1998) 239 (1936) 1840 384 436 541 570 836 1340 1460 2510 8120
2020-07-31 05:30 7.31 6740 47500 (1998) 239 (1936) 1840 384 436 541 570 836 1340 1460 2510 8120
2020-07-31 05:00 7.29 6700 47500 (1998) 239 (1936) 1840 384 436 541 570 836 1340 1460 2510 8120
2020-07-31 04:30 7.26 6650 47500 (1998) 239 (1936) 1840 384 436 541 570 836 1340 1460 2510 8120
2020-07-31 04:00 7.23 6600 47500 (1998) 239 (1936) 1840 384 436 541 570 836 1340 1460 2510 8120
2020-07-31 03:30 7.21 6560 47500 (1998) 239 (1936) 1840 384 436 541 570 836 1340 1460 2510 8120
2020-07-31 03:00 7.18 6510 47500 (1998) 239 (1936) 1840 384 436 541 570 836 1340 1460 2510 8120
2020-07-31 02:30 7.14 6440 47500 (1998) 239 (1936) 1840 384 436 541 570 836 1340 1460 2510 8120
2020-07-31 02:00 7.11 6390 47500 (1998) 239 (1936) 1840 384 436 541 570 836 1340 1460 2510 8120
2020-07-31 01:30 7.01 6210 47500 (1998) 239 (1936) 1840 384 436 541 570 836 1340 1460 2510 8120
2020-07-31 01:00 6.94 6090 47500 (1998) 239 (1936) 1840 384 436 541 570 836 1340 1460 2510 8120
2020-07-31 00:30 6.85 5930 47500 (1998) 239 (1936) 1840 384 436 541 570 836 1340 1460 2510 8120
2020-07-31 00:00 6.75 5750 47500 (1998) 239 (1936) 1840 384 436 541 570 836 1340 1460 2510 8120
2020-07-30 23:30 6.65 5570 45600 (1998) 244 (1936) 1890 387 448 551 590 838 1390 1490 2610 7040
2020-07-30 23:00 6.54 5380 45600 (1998) 244 (1936) 1890 387 448 551 590 838 1390 1490 2610 7040
2020-07-30 22:30 6.41 5160 45600 (1998) 244 (1936) 1890 387 448 551 590 838 1390 1490 2610 7040
2020-07-30 22:00 6.35 5060 45600 (1998) 244 (1936) 1890 387 448 551 590 838 1390 1490 2610 7040
2020-07-30 21:30 6.23 4850 45600 (1998) 244 (1936) 1890 387 448 551 590 838 1390 1490 2610 7040
2020-07-30 21:00 6.15 4720 45600 (1998) 244 (1936) 1890 387 448 551 590 838 1390 1490 2610 7040
2020-07-30 20:30 6.08 4600 45600 (1998) 244 (1936) 1890 387 448 551 590 838 1390 1490 2610 7040
2020-07-30 20:00 6.01 4490 45600 (1998) 244 (1936) 1890 387 448 551 590 838 1390 1490 2610 7040
2020-07-30 19:30 5.89 4290 45600 (1998) 244 (1936) 1890 387 448 551 590 838 1390 1490 2610 7040
2020-07-30 19:00 5.85 4230 45600 (1998) 244 (1936) 1890 387 448 551 590 838 1390 1490 2610 7040
2020-07-30 18:30 5.81 4160 45600 (1998) 244 (1936) 1890 387 448 551 590 838 1390 1490 2610 7040
2020-07-30 18:00 5.74 4050 45600 (1998) 244 (1936) 1890 387 448 551 590 838 1390 1490 2610 7040
2020-07-30 17:30 5.67 3940 45600 (1998) 244 (1936) 1890 387 448 551 590 838 1390 1490 2610 7040
2020-07-30 17:00 5.63 3870 45600 (1998) 244 (1936) 1890 387 448 551 590 838 1390 1490 2610 7040
2020-07-30 16:30 5.59 3810 45600 (1998) 244 (1936) 1890 387 448 551 590 838 1390 1490 2610 7040
2020-07-30 16:00 5.56 3760 45600 (1998) 244 (1936) 1890 387 448 551 590 838 1390 1490 2610 7040
2020-07-30 15:30 5.52 3700 45600 (1998) 244 (1936) 1890 387 448 551 590 838 1390 1490 2610 7040
2020-07-30 15:00 5.49 3650 45600 (1998) 244 (1936) 1890 387 448 551 590 838 1390 1490 2610 7040
2020-07-30 14:30 5.45 3590 45600 (1998) 244 (1936) 1890 387 448 551 590 838 1390 1490 2610 7040
2020-07-30 14:00 5.43 3560 45600 (1998) 244 (1936) 1890 387 448 551 590 838 1390 1490 2610 7040
2020-07-30 13:30 5.40 3510 45600 (1998) 244 (1936) 1890 387 448 551 590 838 1390 1490 2610 7040
2020-07-30 13:00 5.37 3470 45600 (1998) 244 (1936) 1890 387 448 551 590 838 1390 1490 2610 7040
2020-07-30 12:30 5.33 3400 45600 (1998) 244 (1936) 1890 387 448 551 590 838 1390 1490 2610 7040
2020-07-30 12:00 5.31 3370 45600 (1998) 244 (1936) 1890 387 448 551 590 838 1390 1490 2610 7040
2020-07-30 11:30 5.29 3340 45600 (1998) 244 (1936) 1890 387 448 551 590 838 1390 1490 2610 7040
2020-07-30 11:00 5.26 3300 45600 (1998) 244 (1936) 1890 387 448 551 590 838 1390 1490 2610 7040
2020-07-30 10:30 5.21 3220 45600 (1998) 244 (1936) 1890 387 448 551 590 838 1390 1490 2610 7040
2020-07-30 10:00 5.17 3160 45600 (1998) 244 (1936) 1890 387 448 551 590 838 1390 1490 2610 7040
2020-07-30 09:30 5.14 3120 45600 (1998) 244 (1936) 1890 387 448 551 590 838 1390 1490 2610 7040
2020-07-30 09:00 5.07 3010 45600 (1998) 244 (1936) 1890 387 448 551 590 838 1390 1490 2610 7040
2020-07-30 08:30 5.03 2950 45600 (1998) 244 (1936) 1890 387 448 551 590 838 1390 1490 2610 7040
2020-07-30 08:00 4.95 2830 45600 (1998) 244 (1936) 1890 387 448 551 590 838 1390 1490 2610 7040
2020-07-30 07:30 4.84 2670 45600 (1998) 244 (1936) 1890 387 448 551 590 838 1390 1490 2610 7040
2020-07-30 07:00 4.79 2600 45600 (1998) 244 (1936) 1890 387 448 551 590 838 1390 1490 2610 7040
2020-07-30 06:30 4.70 2470 45600 (1998) 244 (1936) 1890 387 448 551 590 838 1390 1490 2610 7040
2020-07-30 06:00 4.65 2400 45600 (1998) 244 (1936) 1890 387 448 551 590 838 1390 1490 2610 7040
2020-07-30 05:30 4.61 2350 45600 (1998) 244 (1936) 1890 387 448 551 590 838 1390 1490 2610 7040
2020-07-30 05:00 4.58 2310 45600 (1998) 244 (1936) 1890 387 448 551 590 838 1390 1490 2610 7040
2020-07-30 04:30 4.55 2270 45600 (1998) 244 (1936) 1890 387 448 551 590 838 1390 1490 2610 7040
2020-07-30 04:00 4.53 2240 45600 (1998) 244 (1936) 1890 387 448 551 590 838 1390 1490 2610 7040
2020-07-30 03:30 4.49 2180 45600 (1998) 244 (1936) 1890 387 448 551 590 838 1390 1490 2610 7040
2020-07-30 03:00 4.47 2160 45600 (1998) 244 (1936) 1890 387 448 551 590 838 1390 1490 2610 7040
2020-07-30 02:30 4.43 2100 45600 (1998) 244 (1936) 1890 387 448 551 590 838 1390 1490 2610 7040
2020-07-30 02:00 4.42 2090 45600 (1998) 244 (1936) 1890 387 448 551 590 838 1390 1490 2610 7040
2020-07-30 01:30 4.36 2010 45600 (1998) 244 (1936) 1890 387 448 551 590 838 1390 1490 2610 7040
2020-07-30 01:00 4.34 1980 45600 (1998) 244 (1936) 1890 387 448 551 590 838 1390 1490 2610 7040
2020-07-30 00:30 4.33 1970 45600 (1998) 244 (1936) 1890 387 448 551 590 838 1390 1490 2610 7040
2020-07-30 00:00 4.34 1980 45600 (1998) 244 (1936) 1890 387 448 551 590 838 1390 1490 2610 7040
2020-07-29 23:30 4.33 1970 24600 (1998) 258 (1936) 1630 389 464 563 591 873 1430 1710 2820 5800
2020-07-29 23:00 4.33 1970 24600 (1998) 258 (1936) 1630 389 464 563 591 873 1430 1710 2820 5800
2020-07-29 22:30 4.33 1970 24600 (1998) 258 (1936) 1630 389 464 563 591 873 1430 1710 2820 5800
2020-07-29 22:00 4.34 1980 24600 (1998) 258 (1936) 1630 389 464 563 591 873 1430 1710 2820 5800
2020-07-29 21:30 4.34 1980 24600 (1998) 258 (1936) 1630 389 464 563 591 873 1430 1710 2820 5800
2020-07-29 21:00 4.34 1980 24600 (1998) 258 (1936) 1630 389 464 563 591 873 1430 1710 2820 5800
2020-07-29 20:30 4.35 1990 24600 (1998) 258 (1936) 1630 389 464 563 591 873 1430 1710 2820 5800
2020-07-29 20:00 4.35 1990 24600 (1998) 258 (1936) 1630 389 464 563 591 873 1430 1710 2820 5800
2020-07-29 19:30 4.34 1980 24600 (1998) 258 (1936) 1630 389 464 563 591 873 1430 1710 2820 5800
2020-07-29 19:00 4.35 1990 24600 (1998) 258 (1936) 1630 389 464 563 591 873 1430 1710 2820 5800
2020-07-29 18:30 4.35 1990 24600 (1998) 258 (1936) 1630 389 464 563 591 873 1430 1710 2820 5800
2020-07-29 18:00 4.36 2010 24600 (1998) 258 (1936) 1630 389 464 563 591 873 1430 1710 2820 5800
2020-07-29 17:30 4.35 1990 24600 (1998) 258 (1936) 1630 389 464 563 591 873 1430 1710 2820 5800
2020-07-29 17:00 4.35 1990 24600 (1998) 258 (1936) 1630 389 464 563 591 873 1430 1710 2820 5800
2020-07-29 16:30 4.34 1980 24600 (1998) 258 (1936) 1630 389 464 563 591 873 1430 1710 2820 5800
2020-07-29 16:00 4.35 1990 24600 (1998) 258 (1936) 1630 389 464 563 591 873 1430 1710 2820 5800
2020-07-29 15:30 4.34 1980 24600 (1998) 258 (1936) 1630 389 464 563 591 873 1430 1710 2820 5800
2020-07-29 15:00 4.33 1970 24600 (1998) 258 (1936) 1630 389 464 563 591 873 1430 1710 2820 5800
2020-07-29 14:30 4.31 1940 24600 (1998) 258 (1936) 1630 389 464 563 591 873 1430 1710 2820 5800
2020-07-29 14:00 4.30 1930 24600 (1998) 258 (1936) 1630 389 464 563 591 873 1430 1710 2820 5800
2020-07-29 13:30 4.27 1890 24600 (1998) 258 (1936) 1630 389 464 563 591 873 1430 1710 2820 5800
2020-07-29 13:00 4.25 1860 24600 (1998) 258 (1936) 1630 389 464 563 591 873 1430 1710 2820 5800
2020-07-29 12:30 4.20 1790 24600 (1998) 258 (1936) 1630 389 464 563 591 873 1430 1710 2820 5800
2020-07-29 12:00 4.15 1730 24600 (1998) 258 (1936) 1630 389 464 563 591 873 1430 1710 2820 5800
2020-07-29 11:30 4.10 1670 24600 (1998) 258 (1936) 1630 389 464 563 591 873 1430 1710 2820 5800
2020-07-29 11:00 4.05 1610 24600 (1998) 258 (1936) 1630 389 464 563 591 873 1430 1710 2820 5800
2020-07-29 10:30 4.00 1540 24600 (1998) 258 (1936) 1630 389 464 563 591 873 1430 1710 2820 5800
2020-07-29 10:00 3.96 1490 24600 (1998) 258 (1936) 1630 389 464 563 591 873 1430 1710 2820 5800
2020-07-29 09:30 3.91 1430 24600 (1998) 258 (1936) 1630 389 464 563 591 873 1430 1710 2820 5800
2020-07-29 09:00 3.88 1390 24600 (1998) 258 (1936) 1630 389 464 563 591 873 1430 1710 2820 5800
2020-07-29 08:30 3.87 1380 24600 (1998) 258 (1936) 1630 389 464 563 591 873 1430 1710 2820 5800
2020-07-29 08:00 3.85 1350 24600 (1998) 258 (1936) 1630 389 464 563 591 873 1430 1710 2820 5800
2020-07-29 07:30 3.83 1320 24600 (1998) 258 (1936) 1630 389 464 563 591 873 1430 1710 2820 5800
2020-07-29 07:00 3.83 1320 24600 (1998) 258 (1936) 1630 389 464 563 591 873 1430 1710 2820 5800
2020-07-29 06:30 3.83 1320 24600 (1998) 258 (1936) 1630 389 464 563 591 873 1430 1710 2820 5800
2020-07-29 06:00 3.82 1310 24600 (1998) 258 (1936) 1630 389 464 563 591 873 1430 1710 2820 5800
2020-07-29 05:30 3.83 1320 24600 (1998) 258 (1936) 1630 389 464 563 591 873 1430 1710 2820 5800
2020-07-29 05:00 3.82 1310 24600 (1998) 258 (1936) 1630 389 464 563 591 873 1430 1710 2820 5800
2020-07-29 04:30 3.81 1300 24600 (1998) 258 (1936) 1630 389 464 563 591 873 1430 1710 2820 5800
2020-07-29 04:00 3.82 1310 24600 (1998) 258 (1936) 1630 389 464 563 591 873 1430 1710 2820 5800
2020-07-29 03:30 3.81 1300 24600 (1998) 258 (1936) 1630 389 464 563 591 873 1430 1710 2820 5800
2020-07-29 03:00 3.82 1310 24600 (1998) 258 (1936) 1630 389 464 563 591 873 1430 1710 2820 5800
2020-07-29 02:30 3.82 1310 24600 (1998) 258 (1936) 1630 389 464 563 591 873 1430 1710 2820 5800
2020-07-29 02:00 3.82 1310 24600 (1998) 258 (1936) 1630 389 464 563 591 873 1430 1710 2820 5800
2020-07-29 01:30 3.82 1310 24600 (1998) 258 (1936) 1630 389 464 563 591 873 1430 1710 2820 5800
2020-07-29 01:00 3.83 1320 24600 (1998) 258 (1936) 1630 389 464 563 591 873 1430 1710 2820 5800
2020-07-29 00:30 3.83 1320 24600 (1998) 258 (1936) 1630 389 464 563 591 873 1430 1710 2820 5800
2020-07-29 00:00 3.84 1340 24600 (1998) 258 (1936) 1630 389 464 563 591 873 1430 1710 2820 5800
2020-07-28 23:30 3.84 1340 12400 (1998) 266 (2012) 1520 388 474 554 601 855 1510 1950 2860 5740
2020-07-28 23:00 3.85 1350 12400 (1998) 266 (2012) 1520 388 474 554 601 855 1510 1950 2860 5740
2020-07-28 22:30 3.85 1350 12400 (1998) 266 (2012) 1520 388 474 554 601 855 1510 1950 2860 5740
2020-07-28 22:00 3.86 1360 12400 (1998) 266 (2012) 1520 388 474 554 601 855 1510 1950 2860 5740
2020-07-28 21:30 3.85 1350 12400 (1998) 266 (2012) 1520 388 474 554 601 855 1510 1950 2860 5740
2020-07-28 21:00 3.86 1360 12400 (1998) 266 (2012) 1520 388 474 554 601 855 1510 1950 2860 5740
2020-07-28 20:30 3.87 1380 12400 (1998) 266 (2012) 1520 388 474 554 601 855 1510 1950 2860 5740
2020-07-28 20:00 3.86 1360 12400 (1998) 266 (2012) 1520 388 474 554 601 855 1510 1950 2860 5740
2020-07-28 19:30 3.86 1360 12400 (1998) 266 (2012) 1520 388 474 554 601 855 1510 1950 2860 5740
2020-07-28 19:00 3.87 1380 12400 (1998) 266 (2012) 1520 388 474 554 601 855 1510 1950 2860 5740
2020-07-28 18:30 3.87 1380 12400 (1998) 266 (2012) 1520 388 474 554 601 855 1510 1950 2860 5740
2020-07-28 18:00 3.87 1380 12400 (1998) 266 (2012) 1520 388 474 554 601 855 1510 1950 2860 5740
2020-07-28 17:30 3.87 1380 12400 (1998) 266 (2012) 1520 388 474 554 601 855 1510 1950 2860 5740
2020-07-28 17:00 3.86 1360 12400 (1998) 266 (2012) 1520 388 474 554 601 855 1510 1950 2860 5740
2020-07-28 16:30 3.87 1380 12400 (1998) 266 (2012) 1520 388 474 554 601 855 1510 1950 2860 5740
2020-07-28 16:00 3.86 1360 12400 (1998) 266 (2012) 1520 388 474 554 601 855 1510 1950 2860 5740
2020-07-28 15:30 3.87 1380 12400 (1998) 266 (2012) 1520 388 474 554 601 855 1510 1950 2860 5740
2020-07-28 15:00 3.87 1380 12400 (1998) 266 (2012) 1520 388 474 554 601 855 1510 1950 2860 5740
2020-07-28 14:30 3.87 1380 12400 (1998) 266 (2012) 1520 388 474 554 601 855 1510 1950 2860 5740
2020-07-28 14:00 3.88 1390 12400 (1998) 266 (2012) 1520 388 474 554 601 855 1510 1950 2860 5740
2020-07-28 13:30 3.89 1400 12400 (1998) 266 (2012) 1520 388 474 554 601 855 1510 1950 2860 5740
2020-07-28 13:00 3.89 1400 12400 (1998) 266 (2012) 1520 388 474 554 601 855 1510 1950 2860 5740
2020-07-28 12:30 3.89 1400 12400 (1998) 266 (2012) 1520 388 474 554 601 855 1510 1950 2860 5740
2020-07-28 12:00 3.90 1410 12400 (1998) 266 (2012) 1520 388 474 554 601 855 1510 1950 2860 5740
2020-07-28 11:30 3.91 1430 12400 (1998) 266 (2012) 1520 388 474 554 601 855 1510 1950 2860 5740
2020-07-28 11:00 3.91 1430 12400 (1998) 266 (2012) 1520 388 474 554 601 855 1510 1950 2860 5740
2020-07-28 10:30 3.92 1440 12400 (1998) 266 (2012) 1520 388 474 554 601 855 1510 1950 2860 5740
2020-07-28 10:00 3.93 1450 12400 (1998) 266 (2012) 1520 388 474 554 601 855 1510 1950 2860 5740
2020-07-28 09:30 3.94 1470 12400 (1998) 266 (2012) 1520 388 474 554 601 855 1510 1950 2860 5740
2020-07-28 09:00 3.95 1480 12400 (1998) 266 (2012) 1520 388 474 554 601 855 1510 1950 2860 5740
2020-07-28 08:30 3.94 1470 12400 (1998) 266 (2012) 1520 388 474 554 601 855 1510 1950 2860 5740
2020-07-28 08:00 3.95 1480 12400 (1998) 266 (2012) 1520 388 474 554 601 855 1510 1950 2860 5740
2020-07-28 07:30 3.96 1490 12400 (1998) 266 (2012) 1520 388 474 554 601 855 1510 1950 2860 5740
2020-07-28 07:00 3.97 1510 12400 (1998) 266 (2012) 1520 388 474 554 601 855 1510 1950 2860 5740
2020-07-28 06:30 3.97 1510 12400 (1998) 266 (2012) 1520 388 474 554 601 855 1510 1950 2860 5740
2020-07-28 06:00 3.97 1510 12400 (1998) 266 (2012) 1520 388 474 554 601 855 1510 1950 2860 5740
2020-07-28 05:30 3.98 1520 12400 (1998) 266 (2012) 1520 388 474 554 601 855 1510 1950 2860 5740
2020-07-28 05:00 3.97 1510 12400 (1998) 266 (2012) 1520 388 474 554 601 855 1510 1950 2860 5740
2020-07-28 04:30 3.98 1520 12400 (1998) 266 (2012) 1520 388 474 554 601 855 1510 1950 2860 5740
2020-07-28 04:00 3.97 1510 12400 (1998) 266 (2012) 1520 388 474 554 601 855 1510 1950 2860 5740
2020-07-28 03:30 3.96 1490 12400 (1998) 266 (2012) 1520 388 474 554 601 855 1510 1950 2860 5740
2020-07-28 03:00 3.93 1450 12400 (1998) 266 (2012) 1520 388 474 554 601 855 1510 1950 2860 5740
2020-07-28 02:30 3.92 1440 12400 (1998) 266 (2012) 1520 388 474 554 601 855 1510 1950 2860 5740
2020-07-28 02:00 3.88 1390 12400 (1998) 266 (2012) 1520 388 474 554 601 855 1510 1950 2860 5740
2020-07-28 01:30 3.86 1360 12400 (1998) 266 (2012) 1520 388 474 554 601 855 1510 1950 2860 5740
2020-07-28 01:00 3.83 1320 12400 (1998) 266 (2012) 1520 388 474 554 601 855 1510 1950 2860 5740
2020-07-28 00:30 3.82 1310 12400 (1998) 266 (2012) 1520 388 474 554 601 855 1510 1950 2860 5740
2020-07-28 00:00 3.79 1270 12400 (1998) 266 (2012) 1520 388 474 554 601 855 1510 1950 2860 5740
2020-07-27 23:30 3.79 1270 19300 (1981) 281 (2012) 1540 382 451 543 636 875 1410 1840 2450 3490
2020-07-27 23:00 3.79 1270 19300 (1981) 281 (2012) 1540 382 451 543 636 875 1410 1840 2450 3490
2020-07-27 22:30 3.80 1290 19300 (1981) 281 (2012) 1540 382 451 543 636 875 1410 1840 2450 3490
2020-07-27 22:00 3.79 1270 19300 (1981) 281 (2012) 1540 382 451 543 636 875 1410 1840 2450 3490
2020-07-27 21:30 3.80 1290 19300 (1981) 281 (2012) 1540 382 451 543 636 875 1410 1840 2450 3490
2020-07-27 21:00 3.81 1300 19300 (1981) 281 (2012) 1540 382 451 543 636 875 1410 1840 2450 3490
2020-07-27 20:30 3.80 1290 19300 (1981) 281 (2012) 1540 382 451 543 636 875 1410 1840 2450 3490
2020-07-27 20:00 3.81 1300 19300 (1981) 281 (2012) 1540 382 451 543 636 875 1410 1840 2450 3490
2020-07-27 19:30 3.81 1300 19300 (1981) 281 (2012) 1540 382 451 543 636 875 1410 1840 2450 3490
2020-07-27 19:00 3.81 1300 19300 (1981) 281 (2012) 1540 382 451 543 636 875 1410 1840 2450 3490
2020-07-27 18:30 3.82 1310 19300 (1981) 281 (2012) 1540 382 451 543 636 875 1410 1840 2450 3490
2020-07-27 18:00 3.82 1310 19300 (1981) 281 (2012) 1540 382 451 543 636 875 1410 1840 2450 3490
2020-07-27 17:30 3.82 1310 19300 (1981) 281 (2012) 1540 382 451 543 636 875 1410 1840 2450 3490
2020-07-27 17:00 3.82 1310 19300 (1981) 281 (2012) 1540 382 451 543 636 875 1410 1840 2450 3490
2020-07-27 16:30 3.83 1320 19300 (1981) 281 (2012) 1540 382 451 543 636 875 1410 1840 2450 3490
2020-07-27 16:00 3.83 1320 19300 (1981) 281 (2012) 1540 382 451 543 636 875 1410 1840 2450 3490
2020-07-27 15:30 3.84 1340 19300 (1981) 281 (2012) 1540 382 451 543 636 875 1410 1840 2450 3490
2020-07-27 15:00 3.83 1320 19300 (1981) 281 (2012) 1540 382 451 543 636 875 1410 1840 2450 3490
2020-07-27 14:30 3.84 1340 19300 (1981) 281 (2012) 1540 382 451 543 636 875 1410 1840 2450 3490
2020-07-27 14:00 3.85 1350 19300 (1981) 281 (2012) 1540 382 451 543 636 875 1410 1840 2450 3490
2020-07-27 13:30 3.84 1340 19300 (1981) 281 (2012) 1540 382 451 543 636 875 1410 1840 2450 3490
2020-07-27 13:00 3.85 1350 19300 (1981) 281 (2012) 1540 382 451 543 636 875 1410 1840 2450 3490
2020-07-27 12:30 3.86 1360 19300 (1981) 281 (2012) 1540 382 451 543 636 875 1410 1840 2450 3490
2020-07-27 12:00 3.86 1360 19300 (1981) 281 (2012) 1540 382 451 543 636 875 1410 1840 2450 3490
2020-07-27 11:30 3.86 1360 19300 (1981) 281 (2012) 1540 382 451 543 636 875 1410 1840 2450 3490
2020-07-27 11:00 3.86 1360 19300 (1981) 281 (2012) 1540 382 451 543 636 875 1410 1840 2450 3490
2020-07-27 10:30 3.86 1360 19300 (1981) 281 (2012) 1540 382 451 543 636 875 1410 1840 2450 3490
2020-07-27 10:00 3.87 1380 19300 (1981) 281 (2012) 1540 382 451 543 636 875 1410 1840 2450 3490
2020-07-27 09:30 3.86 1360 19300 (1981) 281 (2012) 1540 382 451 543 636 875 1410 1840 2450 3490
2020-07-27 09:00 3.87 1380 19300 (1981) 281 (2012) 1540 382 451 543 636 875 1410 1840 2450 3490
2020-07-27 08:30 3.87 1380 19300 (1981) 281 (2012) 1540 382 451 543 636 875 1410 1840 2450 3490
2020-07-27 08:00 3.88 1390 19300 (1981) 281 (2012) 1540 382 451 543 636 875 1410 1840 2450 3490
2020-07-27 07:30 3.88 1390 19300 (1981) 281 (2012) 1540 382 451 543 636 875 1410 1840 2450 3490
2020-07-27 07:00 3.88 1390 19300 (1981) 281 (2012) 1540 382 451 543 636 875 1410 1840 2450 3490
2020-07-27 06:30 3.89 1400 19300 (1981) 281 (2012) 1540 382 451 543 636 875 1410 1840 2450 3490
2020-07-27 06:00 3.88 1390 19300 (1981) 281 (2012) 1540 382 451 543 636 875 1410 1840 2450 3490
2020-07-27 05:30 3.89 1400 19300 (1981) 281 (2012) 1540 382 451 543 636 875 1410 1840 2450 3490
2020-07-27 05:00 3.90 1410 19300 (1981) 281 (2012) 1540 382 451 543 636 875 1410 1840 2450 3490
2020-07-27 04:30 3.89 1400 19300 (1981) 281 (2012) 1540 382 451 543 636 875 1410 1840 2450 3490
2020-07-27 04:00 3.90 1410 19300 (1981) 281 (2012) 1540 382 451 543 636 875 1410 1840 2450 3490
2020-07-27 03:30 3.90 1410 19300 (1981) 281 (2012) 1540 382 451 543 636 875 1410 1840 2450 3490
2020-07-27 03:00 3.90 1410 19300 (1981) 281 (2012) 1540 382 451 543 636 875 1410 1840 2450 3490
2020-07-27 02:30 3.91 1430 19300 (1981) 281 (2012) 1540 382 451 543 636 875 1410 1840 2450 3490
2020-07-27 02:00 3.91 1430 19300 (1981) 281 (2012) 1540 382 451 543 636 875 1410 1840 2450 3490
2020-07-27 01:30 3.91 1430 19300 (1981) 281 (2012) 1540 382 451 543 636 875 1410 1840 2450 3490
2020-07-27 01:00 3.92 1440 19300 (1981) 281 (2012) 1540 382 451 543 636 875 1410 1840 2450 3490
2020-07-27 00:30 3.92 1440 19300 (1981) 281 (2012) 1540 382 451 543 636 875 1410 1840 2450 3490
2020-07-27 00:00 3.93 1450 19300 (1981) 281 (2012) 1540 382 451 543 636 875 1410 1840 2450 3490
2020-07-26 23:30 3.94 1470 21400 (1981) 284 (1934) 1600 379 451 547 628 893 1350 1780 2810 3560
2020-07-26 23:00 3.93 1450 21400 (1981) 284 (1934) 1600 379 451 547 628 893 1350 1780 2810 3560
2020-07-26 22:30 3.94 1470 21400 (1981) 284 (1934) 1600 379 451 547 628 893 1350 1780 2810 3560
2020-07-26 22:00 3.95 1480 21400 (1981) 284 (1934) 1600 379 451 547 628 893 1350 1780 2810 3560
2020-07-26 21:30 3.95 1480 21400 (1981) 284 (1934) 1600 379 451 547 628 893 1350 1780 2810 3560
2020-07-26 21:00 3.96 1490 21400 (1981) 284 (1934) 1600 379 451 547 628 893 1350 1780 2810 3560
2020-07-26 20:30 3.97 1510 21400 (1981) 284 (1934) 1600 379 451 547 628 893 1350 1780 2810 3560
2020-07-26 20:00 3.97 1510 21400 (1981) 284 (1934) 1600 379 451 547 628 893 1350 1780 2810 3560
2020-07-26 19:30 3.97 1510 21400 (1981) 284 (1934) 1600 379 451 547 628 893 1350 1780 2810 3560
2020-07-26 19:00 3.98 1520 21400 (1981) 284 (1934) 1600 379 451 547 628 893 1350 1780 2810 3560
2020-07-26 18:30 3.98 1520 21400 (1981) 284 (1934) 1600 379 451 547 628 893 1350 1780 2810 3560
2020-07-26 18:00 3.98 1520 21400 (1981) 284 (1934) 1600 379 451 547 628 893 1350 1780 2810 3560
2020-07-26 17:30 3.98 1520 21400 (1981) 284 (1934) 1600 379 451 547 628 893 1350 1780 2810 3560
2020-07-26 17:00 4.00 1540 21400 (1981) 284 (1934) 1600 379 451 547 628 893 1350 1780 2810 3560
2020-07-26 16:30 4.01 1560 21400 (1981) 284 (1934) 1600 379 451 547 628 893 1350 1780 2810 3560
2020-07-26 16:00 4.01 1560 21400 (1981) 284 (1934) 1600 379 451 547 628 893 1350 1780 2810 3560
2020-07-26 15:30 4.01 1560 21400 (1981) 284 (1934) 1600 379 451 547 628 893 1350 1780 2810 3560
2020-07-26 15:00 4.02 1570 21400 (1981) 284 (1934) 1600 379 451 547 628 893 1350 1780 2810 3560
2020-07-26 14:30 4.02 1570 21400 (1981) 284 (1934) 1600 379 451 547 628 893 1350 1780 2810 3560
2020-07-26 14:00 4.03 1580 21400 (1981) 284 (1934) 1600 379 451 547 628 893 1350 1780 2810 3560
2020-07-26 13:30 4.04 1590 21400 (1981) 284 (1934) 1600 379 451 547 628 893 1350 1780 2810 3560
2020-07-26 13:00 4.04 1590 21400 (1981) 284 (1934) 1600 379 451 547 628 893 1350 1780 2810 3560
2020-07-26 12:30 4.06 1620 21400 (1981) 284 (1934) 1600 379 451 547 628 893 1350 1780 2810 3560
2020-07-26 12:00 4.06 1620 21400 (1981) 284 (1934) 1600 379 451 547 628 893 1350 1780 2810 3560
2020-07-26 11:30 4.06 1620 21400 (1981) 284 (1934) 1600 379 451 547 628 893 1350 1780 2810 3560
2020-07-26 11:00 4.06 1620 21400 (1981) 284 (1934) 1600 379 451 547 628 893 1350 1780 2810 3560
2020-07-26 10:30 4.07 1630 21400 (1981) 284 (1934) 1600 379 451 547 628 893 1350 1780 2810 3560
2020-07-26 10:00 4.07 1630 21400 (1981) 284 (1934) 1600 379 451 547 628 893 1350 1780 2810 3560
2020-07-26 09:30 4.08 1640 21400 (1981) 284 (1934) 1600 379 451 547 628 893 1350 1780 2810 3560
2020-07-26 09:00 4.09 1660 21400 (1981) 284 (1934) 1600 379 451 547 628 893 1350 1780 2810 3560
2020-07-26 08:30 4.10 1670 21400 (1981) 284 (1934) 1600 379 451 547 628 893 1350 1780 2810 3560
2020-07-26 08:00 4.11 1680 21400 (1981) 284 (1934) 1600 379 451 547 628 893 1350 1780 2810 3560
2020-07-26 07:30 4.11 1680 21400 (1981) 284 (1934) 1600 379 451 547 628 893 1350 1780 2810 3560
2020-07-26 07:00 4.11 1680 21400 (1981) 284 (1934) 1600 379 451 547 628 893 1350 1780 2810 3560
2020-07-26 06:30 4.11 1680 21400 (1981) 284 (1934) 1600 379 451 547 628 893 1350 1780 2810 3560
2020-07-26 06:00 4.12 1690 21400 (1981) 284 (1934) 1600 379 451 547 628 893 1350 1780 2810 3560
2020-07-26 05:30 4.13 1710 21400 (1981) 284 (1934) 1600 379 451 547 628 893 1350 1780 2810 3560
2020-07-26 05:00 4.13 1710 21400 (1981) 284 (1934) 1600 379 451 547 628 893 1350 1780 2810 3560
2020-07-26 04:30 4.14 1720 21400 (1981) 284 (1934) 1600 379 451 547 628 893 1350 1780 2810 3560
2020-07-26 04:00 4.15 1730 21400 (1981) 284 (1934) 1600 379 451 547 628 893 1350 1780 2810 3560
2020-07-26 03:30 4.16 1740 21400 (1981) 284 (1934) 1600 379 451 547 628 893 1350 1780 2810 3560
2020-07-26 03:00 4.16 1740 21400 (1981) 284 (1934) 1600 379 451 547 628 893 1350 1780 2810 3560
2020-07-26 02:30 4.17 1760 21400 (1981) 284 (1934) 1600 379 451 547 628 893 1350 1780 2810 3560
2020-07-26 02:00 4.17 1760 21400 (1981) 284 (1934) 1600 379 451 547 628 893 1350 1780 2810 3560
2020-07-26 01:30 4.17 1760 21400 (1981) 284 (1934) 1600 379 451 547 628 893 1350 1780 2810 3560
2020-07-26 01:00 4.18 1770 21400 (1981) 284 (1934) 1600 379 451 547 628 893 1350 1780 2810 3560
2020-07-26 00:30 4.21 1810 21400 (1981) 284 (1934) 1600 379 451 547 628 893 1350 1780 2810 3560
2020-07-26 00:00 4.19 1780 21400 (1981) 284 (1934) 1600 379 451 547 628 893 1350 1780 2810 3560
2020-07-25 23:30 4.19 1780 18800 (1981) 284 (1934) 1500 389 451 543 622 957 1370 1680 3330 4410
2020-07-25 23:00 4.21 1810 18800 (1981) 284 (1934) 1500 389 451 543 622 957 1370 1680 3330 4410
2020-07-25 22:30 4.21 1810 18800 (1981) 284 (1934) 1500 389 451 543 622 957 1370 1680 3330 4410
2020-07-25 22:00 4.21 1810 18800 (1981) 284 (1934) 1500 389 451 543 622 957 1370 1680 3330 4410
2020-07-25 21:30 4.21 1810 18800 (1981) 284 (1934) 1500 389 451 543 622 957 1370 1680 3330 4410
2020-07-25 21:00 4.22 1820 18800 (1981) 284 (1934) 1500 389 451 543 622 957 1370 1680 3330 4410
2020-07-25 20:30 4.23 1830 18800 (1981) 284 (1934) 1500 389 451 543 622 957 1370 1680 3330 4410
2020-07-25 20:00 4.23 1830 18800 (1981) 284 (1934) 1500 389 451 543 622 957 1370 1680 3330 4410
2020-07-25 19:30 4.25 1860 18800 (1981) 284 (1934) 1500 389 451 543 622 957 1370 1680 3330 4410
2020-07-25 19:00 4.24 1850 18800 (1981) 284 (1934) 1500 389 451 543 622 957 1370 1680 3330 4410
2020-07-25 18:30 4.25 1860 18800 (1981) 284 (1934) 1500 389 451 543 622 957 1370 1680 3330 4410
2020-07-25 18:00 4.25 1860 18800 (1981) 284 (1934) 1500 389 451 543 622 957 1370 1680 3330 4410
2020-07-25 17:30 4.25 1860 18800 (1981) 284 (1934) 1500 389 451 543 622 957 1370 1680 3330 4410
2020-07-25 17:00 4.28 1900 18800 (1981) 284 (1934) 1500 389 451 543 622 957 1370 1680 3330 4410
2020-07-25 16:30 4.28 1900 18800 (1981) 284 (1934) 1500 389 451 543 622 957 1370 1680 3330 4410
2020-07-25 16:00 4.28 1900 18800 (1981) 284 (1934) 1500 389 451 543 622 957 1370 1680 3330 4410
2020-07-25 15:30 4.29 1910 18800 (1981) 284 (1934) 1500 389 451 543 622 957 1370 1680 3330 4410
2020-07-25 15:00 4.28 1900 18800 (1981) 284 (1934) 1500 389 451 543 622 957 1370 1680 3330 4410
2020-07-25 14:30 4.30 1930 18800 (1981) 284 (1934) 1500 389 451 543 622 957 1370 1680 3330 4410
2020-07-25 14:00 4.30 1930 18800 (1981) 284 (1934) 1500 389 451 543 622 957 1370 1680 3330 4410
2020-07-25 13:30 4.31 1940 18800 (1981) 284 (1934) 1500 389 451 543 622 957 1370 1680 3330 4410
2020-07-25 13:00 4.32 1950 18800 (1981) 284 (1934) 1500 389 451 543 622 957 1370 1680 3330 4410
2020-07-25 12:30 4.31 1940 18800 (1981) 284 (1934) 1500 389 451 543 622 957 1370 1680 3330 4410
2020-07-25 12:00 4.31 1940 18800 (1981) 284 (1934) 1500 389 451 543 622 957 1370 1680 3330 4410
2020-07-25 11:30 4.31 1940 18800 (1981) 284 (1934) 1500 389 451 543 622 957 1370 1680 3330 4410
2020-07-25 11:00 4.31 1940 18800 (1981) 284 (1934) 1500 389 451 543 622 957 1370 1680 3330 4410
2020-07-25 10:30 4.31 1940 18800 (1981) 284 (1934) 1500 389 451 543 622 957 1370 1680 3330 4410
2020-07-25 10:00 4.31 1940 18800 (1981) 284 (1934) 1500 389 451 543 622 957 1370 1680 3330 4410
2020-07-25 09:30 4.32 1950 18800 (1981) 284 (1934) 1500 389 451 543 622 957 1370 1680 3330 4410
2020-07-25 09:00 4.31 1940 18800 (1981) 284 (1934) 1500 389 451 543 622 957 1370 1680 3330 4410
2020-07-25 08:30 4.32 1950 18800 (1981) 284 (1934) 1500 389 451 543 622 957 1370 1680 3330 4410
2020-07-25 08:00 4.33 1970 18800 (1981) 284 (1934) 1500 389 451 543 622 957 1370 1680 3330 4410
2020-07-25 07:30 4.33 1970 18800 (1981) 284 (1934) 1500 389 451 543 622 957 1370 1680 3330 4410
2020-07-25 07:00 4.32 1950 18800 (1981) 284 (1934) 1500 389 451 543 622 957 1370 1680 3330 4410
2020-07-25 06:30 4.34 1980 18800 (1981) 284 (1934) 1500 389 451 543 622 957 1370 1680 3330 4410
2020-07-25 06:00 4.33 1970 18800 (1981) 284 (1934) 1500 389 451 543 622 957 1370 1680 3330 4410
2020-07-25 05:30 4.34 1980 18800 (1981) 284 (1934) 1500 389 451 543 622 957 1370 1680 3330 4410
2020-07-25 05:00 4.34 1980 18800 (1981) 284 (1934) 1500 389 451 543 622 957 1370 1680 3330 4410
2020-07-25 04:30 4.35 1990 18800 (1981) 284 (1934) 1500 389 451 543 622 957 1370 1680 3330 4410
2020-07-25 04:00 4.35 1990 18800 (1981) 284 (1934) 1500 389 451 543 622 957 1370 1680 3330 4410
2020-07-25 03:30 4.35 1990 18800 (1981) 284 (1934) 1500 389 451 543 622 957 1370 1680 3330 4410
2020-07-25 03:00 4.36 2010 18800 (1981) 284 (1934) 1500 389 451 543 622 957 1370 1680 3330 4410
2020-07-25 02:30 4.36 2010 18800 (1981) 284 (1934) 1500 389 451 543 622 957 1370 1680 3330 4410
2020-07-25 02:00 4.37 2020 18800 (1981) 284 (1934) 1500 389 451 543 622 957 1370 1680 3330 4410
2020-07-25 01:30 4.39 2050 18800 (1981) 284 (1934) 1500 389 451 543 622 957 1370 1680 3330 4410
2020-07-25 01:00 4.38 2030 18800 (1981) 284 (1934) 1500 389 451 543 622 957 1370 1680 3330 4410
2020-07-25 00:30 4.39 2050 18800 (1981) 284 (1934) 1500 389 451 543 622 957 1370 1680 3330 4410
2020-07-25 00:00 4.39 2050 18800 (1981) 284 (1934) 1500 389 451 543 622 957 1370 1680 3330 4410
2020-07-24 23:30 4.40 2060 12100 (1981) 283 (1954) 1640 375 436 565 614 969 1410 1580 4000 8420
2020-07-24 23:00 4.42 2090 12100 (1981) 283 (1954) 1640 375 436 565 614 969 1410 1580 4000 8420
2020-07-24 22:30 4.41 2070 12100 (1981) 283 (1954) 1640 375 436 565 614 969 1410 1580 4000 8420
2020-07-24 22:00 4.42 2090 12100 (1981) 283 (1954) 1640 375 436 565 614 969 1410 1580 4000 8420
2020-07-24 21:30 4.44 2110 12100 (1981) 283 (1954) 1640 375 436 565 614 969 1410 1580 4000 8420
2020-07-24 21:00 4.43 2100 12100 (1981) 283 (1954) 1640 375 436 565 614 969 1410 1580 4000 8420
2020-07-24 20:30 4.44 2110 12100 (1981) 283 (1954) 1640 375 436 565 614 969 1410 1580 4000 8420
2020-07-24 20:00 4.45 2130 12100 (1981) 283 (1954) 1640 375 436 565 614 969 1410 1580 4000 8420
2020-07-24 19:30 4.46 2140 12100 (1981) 283 (1954) 1640 375 436 565 614 969 1410 1580 4000 8420
2020-07-24 19:00 4.46 2140 12100 (1981) 283 (1954) 1640 375 436 565 614 969 1410 1580 4000 8420
2020-07-24 18:30 4.48 2170 12100 (1981) 283 (1954) 1640 375 436 565 614 969 1410 1580 4000 8420
2020-07-24 18:00 4.48 2170 12100 (1981) 283 (1954) 1640 375 436 565 614 969 1410 1580 4000 8420
2020-07-24 17:30 4.49 2180 12100 (1981) 283 (1954) 1640 375 436 565 614 969 1410 1580 4000 8420
2020-07-24 17:00 4.50 2200 12100 (1981) 283 (1954) 1640 375 436 565 614 969 1410 1580 4000 8420
2020-07-24 16:30 4.50 2200 12100 (1981) 283 (1954) 1640 375 436 565 614 969 1410 1580 4000 8420
2020-07-24 16:00 4.51 2210 12100 (1981) 283 (1954) 1640 375 436 565 614 969 1410 1580 4000 8420
2020-07-24 15:30 4.50 2200 12100 (1981) 283 (1954) 1640 375 436 565 614 969 1410 1580 4000 8420
2020-07-24 15:00 4.50 2200 12100 (1981) 283 (1954) 1640 375 436 565 614 969 1410 1580 4000 8420
2020-07-24 14:30 4.51 2210 12100 (1981) 283 (1954) 1640 375 436 565 614 969 1410 1580 4000 8420
2020-07-24 14:00 4.51 2210 12100 (1981) 283 (1954) 1640 375 436 565 614 969 1410 1580 4000 8420
2020-07-24 13:30 4.51 2210 12100 (1981) 283 (1954) 1640 375 436 565 614 969 1410 1580 4000 8420
2020-07-24 13:00 4.52 2220 12100 (1981) 283 (1954) 1640 375 436 565 614 969 1410 1580 4000 8420
2020-07-24 12:30 4.54 2250 12100 (1981) 283 (1954) 1640 375 436 565 614 969 1410 1580 4000 8420
2020-07-24 12:00 4.54 2250 12100 (1981) 283 (1954) 1640 375 436 565 614 969 1410 1580 4000 8420
2020-07-24 11:30 4.54 2250 12100 (1981) 283 (1954) 1640 375 436 565 614 969 1410 1580 4000 8420
2020-07-24 11:00 4.55 2270 12100 (1981) 283 (1954) 1640 375 436 565 614 969 1410 1580 4000 8420
2020-07-24 10:30 4.55 2270 12100 (1981) 283 (1954) 1640 375 436 565 614 969 1410 1580 4000 8420
2020-07-24 10:00 4.53 2240 12100 (1981) 283 (1954) 1640 375 436 565 614 969 1410 1580 4000 8420
2020-07-24 09:30 4.54 2250 12100 (1981) 283 (1954) 1640 375 436 565 614 969 1410 1580 4000 8420
2020-07-24 09:00 4.54 2250 12100 (1981) 283 (1954) 1640 375 436 565 614 969 1410 1580 4000 8420
2020-07-24 08:30 4.55 2270 12100 (1981) 283 (1954) 1640 375 436 565 614 969 1410 1580 4000 8420
2020-07-24 08:00 4.54 2250 12100 (1981) 283 (1954) 1640 375 436 565 614 969 1410 1580 4000 8420
2020-07-24 07:30 4.53 2240 12100 (1981) 283 (1954) 1640 375 436 565 614 969 1410 1580 4000 8420
2020-07-24 07:00 4.52 2220 12100 (1981) 283 (1954) 1640 375 436 565 614 969 1410 1580 4000 8420
2020-07-24 06:30 4.51 2210 12100 (1981) 283 (1954) 1640 375 436 565 614 969 1410 1580 4000 8420
2020-07-24 06:00 4.50 2200 12100 (1981) 283 (1954) 1640 375 436 565 614 969 1410 1580 4000 8420
2020-07-24 05:30 4.50 2200 12100 (1981) 283 (1954) 1640 375 436 565 614 969 1410 1580 4000 8420
2020-07-24 05:00 4.49 2180 12100 (1981) 283 (1954) 1640 375 436 565 614 969 1410 1580 4000 8420
2020-07-24 04:30 4.49 2180 12100 (1981) 283 (1954) 1640 375 436 565 614 969 1410 1580 4000 8420
2020-07-24 04:00 4.48 2170 12100 (1981) 283 (1954) 1640 375 436 565 614 969 1410 1580 4000 8420
2020-07-24 03:30 4.49 2180 12100 (1981) 283 (1954) 1640 375 436 565 614 969 1410 1580 4000 8420
2020-07-24 03:00 4.48 2170 12100 (1981) 283 (1954) 1640 375 436 565 614 969 1410 1580 4000 8420
2020-07-24 02:30 4.49 2180 12100 (1981) 283 (1954) 1640 375 436 565 614 969 1410 1580 4000 8420
2020-07-24 02:00 4.48 2170 12100 (1981) 283 (1954) 1640 375 436 565 614 969 1410 1580 4000 8420
2020-07-24 01:30 4.49 2180 12100 (1981) 283 (1954) 1640 375 436 565 614 969 1410 1580 4000 8420
2020-07-24 01:00 4.49 2180 12100 (1981) 283 (1954) 1640 375 436 565 614 969 1410 1580 4000 8420
2020-07-24 00:30 4.50 2200 12100 (1981) 283 (1954) 1640 375 436 565 614 969 1410 1580 4000 8420
2020-07-24 00:00 4.50 2200 12100 (1981) 283 (1954) 1640 375 436 565 614 969 1410 1580 4000 8420
2020-07-23 23:30 4.51 2210 13800 (1905) 278 (1954) 1610 346 431 576 621 942 1400 1580 3900 7380
2020-07-23 23:00 4.51 2210 13800 (1905) 278 (1954) 1610 346 431 576 621 942 1400 1580 3900 7380
2020-07-23 22:30 4.52 2220 13800 (1905) 278 (1954) 1610 346 431 576 621 942 1400 1580 3900 7380
2020-07-23 22:00 4.52 2220 13800 (1905) 278 (1954) 1610 346 431 576 621 942 1400 1580 3900 7380
2020-07-23 21:30 4.53 2240 13800 (1905) 278 (1954) 1610 346 431 576 621 942 1400 1580 3900 7380
2020-07-23 21:00 4.54 2250 13800 (1905) 278 (1954) 1610 346 431 576 621 942 1400 1580 3900 7380
2020-07-23 20:30 4.54 2250 13800 (1905) 278 (1954) 1610 346 431 576 621 942 1400 1580 3900 7380
2020-07-23 20:00 4.54 2250 13800 (1905) 278 (1954) 1610 346 431 576 621 942 1400 1580 3900 7380
2020-07-23 19:30 4.56 2280 13800 (1905) 278 (1954) 1610 346 431 576 621 942 1400 1580 3900 7380
2020-07-23 19:00 4.57 2290 13800 (1905) 278 (1954) 1610 346 431 576 621 942 1400 1580 3900 7380
2020-07-23 18:30 4.57 2290 13800 (1905) 278 (1954) 1610 346 431 576 621 942 1400 1580 3900 7380
2020-07-23 18:00 4.57 2290 13800 (1905) 278 (1954) 1610 346 431 576 621 942 1400 1580 3900 7380
2020-07-23 17:30 4.57 2290 13800 (1905) 278 (1954) 1610 346 431 576 621 942 1400 1580 3900 7380
2020-07-23 17:00 4.58 2310 13800 (1905) 278 (1954) 1610 346 431 576 621 942 1400 1580 3900 7380
2020-07-23 16:30 4.57 2290 13800 (1905) 278 (1954) 1610 346 431 576 621 942 1400 1580 3900 7380
2020-07-23 16:00 4.57 2290 13800 (1905) 278 (1954) 1610 346 431 576 621 942 1400 1580 3900 7380
2020-07-23 15:30 4.56 2280 13800 (1905) 278 (1954) 1610 346 431 576 621 942 1400 1580 3900 7380
2020-07-23 15:00 4.55 2270 13800 (1905) 278 (1954) 1610 346 431 576 621 942 1400 1580 3900 7380
2020-07-23 14:30 4.52 2220 13800 (1905) 278 (1954) 1610 346 431 576 621 942 1400 1580 3900 7380
2020-07-23 14:00 4.49 2180 13800 (1905) 278 (1954) 1610 346 431 576 621 942 1400 1580 3900 7380
2020-07-23 13:30 4.47 2160 13800 (1905) 278 (1954) 1610 346 431 576 621 942 1400 1580 3900 7380
2020-07-23 13:00 4.44 2110 13800 (1905) 278 (1954) 1610 346 431 576 621 942 1400 1580 3900 7380
2020-07-23 12:30 4.42 2090 13800 (1905) 278 (1954) 1610 346 431 576 621 942 1400 1580 3900 7380
2020-07-23 12:00 4.39 2050 13800 (1905) 278 (1954) 1610 346 431 576 621 942 1400 1580 3900 7380
2020-07-23 11:30 4.36 2010 13800 (1905) 278 (1954) 1610 346 431 576 621 942 1400 1580 3900 7380
2020-07-23 11:00 4.32 1950 13800 (1905) 278 (1954) 1610 346 431 576 621 942 1400 1580 3900 7380
2020-07-23 10:30 4.29 1910 13800 (1905) 278 (1954) 1610 346 431 576 621 942 1400 1580 3900 7380
2020-07-23 10:00 4.27 1890 13800 (1905) 278 (1954) 1610 346 431 576 621 942 1400 1580 3900 7380
2020-07-23 09:30 4.25 1860 13800 (1905) 278 (1954) 1610 346 431 576 621 942 1400 1580 3900 7380
2020-07-23 09:00 4.25 1860 13800 (1905) 278 (1954) 1610 346 431 576 621 942 1400 1580 3900 7380
2020-07-23 08:30 4.25 1860 13800 (1905) 278 (1954) 1610 346 431 576 621 942 1400 1580 3900 7380
2020-07-23 08:00 4.24 1850 13800 (1905) 278 (1954) 1610 346 431 576 621 942 1400 1580 3900 7380
2020-07-23 07:30 4.26 1870 13800 (1905) 278 (1954) 1610 346 431 576 621 942 1400 1580 3900 7380
2020-07-23 07:00 4.25 1860 13800 (1905) 278 (1954) 1610 346 431 576 621 942 1400 1580 3900 7380
2020-07-23 06:30 4.27 1890 13800 (1905) 278 (1954) 1610 346 431 576 621 942 1400 1580 3900 7380
2020-07-23 06:00 4.27 1890 13800 (1905) 278 (1954) 1610 346 431 576 621 942 1400 1580 3900 7380
2020-07-23 05:30 4.28 1900 13800 (1905) 278 (1954) 1610 346 431 576 621 942 1400 1580 3900 7380
2020-07-23 05:00 4.28 1900 13800 (1905) 278 (1954) 1610 346 431 576 621 942 1400 1580 3900 7380
2020-07-23 04:30 4.30 1930 13800 (1905) 278 (1954) 1610 346 431 576 621 942 1400 1580 3900 7380
2020-07-23 04:00 4.31 1940 13800 (1905) 278 (1954) 1610 346 431 576 621 942 1400 1580 3900 7380
2020-07-23 03:30 4.32 1950 13800 (1905) 278 (1954) 1610 346 431 576 621 942 1400 1580 3900 7380
2020-07-23 03:00 4.33 1970 13800 (1905) 278 (1954) 1610 346 431 576 621 942 1400 1580 3900 7380
2020-07-23 02:30 4.35 1990 13800 (1905) 278 (1954) 1610 346 431 576 621 942 1400 1580 3900 7380
2020-07-23 02:00 4.35 1990 13800 (1905) 278 (1954) 1610 346 431 576 621 942 1400 1580 3900 7380
2020-07-23 01:30 4.37 2020 13800 (1905) 278 (1954) 1610 346 431 576 621 942 1400 1580 3900 7380
2020-07-23 01:00 4.38 2030 13800 (1905) 278 (1954) 1610 346 431 576 621 942 1400 1580 3900 7380
2020-07-23 00:30 4.40 2060 13800 (1905) 278 (1954) 1610 346 431 576 621 942 1400 1580 3900 7380
2020-07-23 00:00 4.40 2060 13800 (1905) 278 (1954) 1610 346 431 576 621 942 1400 1580 3900 7380
2020-07-22 23:30 4.42 2090 10100 (1924) 278 (1954) 1550 360 440 577 666 877 1370 1540 3650 7070
2020-07-22 23:00 4.43 2100 10100 (1924) 278 (1954) 1550 360 440 577 666 877 1370 1540 3650 7070
2020-07-22 22:30 4.45 2130 10100 (1924) 278 (1954) 1550 360 440 577 666 877 1370 1540 3650 7070
2020-07-22 22:00 4.47 2160 10100 (1924) 278 (1954) 1550 360 440 577 666 877 1370 1540 3650 7070
2020-07-22 21:30 4.48 2170 10100 (1924) 278 (1954) 1550 360 440 577 666 877 1370 1540 3650 7070
2020-07-22 21:00 4.50 2200 10100 (1924) 278 (1954) 1550 360 440 577 666 877 1370 1540 3650 7070
2020-07-22 20:30 4.52 2220 10100 (1924) 278 (1954) 1550 360 440 577 666 877 1370 1540 3650 7070
2020-07-22 20:00 4.54 2250 10100 (1924) 278 (1954) 1550 360 440 577 666 877 1370 1540 3650 7070
2020-07-22 19:30 4.55 2270 10100 (1924) 278 (1954) 1550 360 440 577 666 877 1370 1540 3650 7070
2020-07-22 19:00 4.57 2290 10100 (1924) 278 (1954) 1550 360 440 577 666 877 1370 1540 3650 7070
2020-07-22 18:30 4.59 2320 10100 (1924) 278 (1954) 1550 360 440 577 666 877 1370 1540 3650 7070
2020-07-22 18:00 4.61 2350 10100 (1924) 278 (1954) 1550 360 440 577 666 877 1370 1540 3650 7070
2020-07-22 17:30 4.63 2380 10100 (1924) 278 (1954) 1550 360 440 577 666 877 1370 1540 3650 7070
2020-07-22 17:00 4.65 2400 10100 (1924) 278 (1954) 1550 360 440 577 666 877 1370 1540 3650 7070
2020-07-22 16:30 4.67 2430 10100 (1924) 278 (1954) 1550 360 440 577 666 877 1370 1540 3650 7070
2020-07-22 16:00 4.70 2470 10100 (1924) 278 (1954) 1550 360 440 577 666 877 1370 1540 3650 7070
2020-07-22 15:30 4.72 2500 10100 (1924) 278 (1954) 1550 360 440 577 666 877 1370 1540 3650 7070
2020-07-22 15:00 4.74 2530 10100 (1924) 278 (1954) 1550 360 440 577 666 877 1370 1540 3650 7070
2020-07-22 14:30 4.77 2570 10100 (1924) 278 (1954) 1550 360 440 577 666 877 1370 1540 3650 7070
2020-07-22 14:00 4.78 2590 10100 (1924) 278 (1954) 1550 360 440 577 666 877 1370 1540 3650 7070
2020-07-22 13:30 4.79 2600 10100 (1924) 278 (1954) 1550 360 440 577 666 877 1370 1540 3650 7070
2020-07-22 13:00 4.82 2650 10100 (1924) 278 (1954) 1550 360 440 577 666 877 1370 1540 3650 7070
2020-07-22 12:30 4.84 2670 10100 (1924) 278 (1954) 1550 360 440 577 666 877 1370 1540 3650 7070
2020-07-22 12:00 4.87 2720 10100 (1924) 278 (1954) 1550 360 440 577 666 877 1370 1540 3650 7070
2020-07-22 11:30 4.88 2730 10100 (1924) 278 (1954) 1550 360 440 577 666 877 1370 1540 3650 7070
2020-07-22 11:00 4.91 2780 10100 (1924) 278 (1954) 1550 360 440 577 666 877 1370 1540 3650 7070
2020-07-22 10:30 4.93 2810 10100 (1924) 278 (1954) 1550 360 440 577 666 877 1370 1540 3650 7070
2020-07-22 10:00 4.98 2880 10100 (1924) 278 (1954) 1550 360 440 577 666 877 1370 1540 3650 7070
2020-07-22 09:30 5.00 2910 10100 (1924) 278 (1954) 1550 360 440 577 666 877 1370 1540 3650 7070
2020-07-22 09:00 5.03 2950 10100 (1924) 278 (1954) 1550 360 440 577 666 877 1370 1540 3650 7070
2020-07-22 08:30 5.07 3010 10100 (1924) 278 (1954) 1550 360 440 577 666 877 1370 1540 3650 7070
2020-07-22 08:00 5.10 3060 10100 (1924) 278 (1954) 1550 360 440 577 666 877 1370 1540 3650 7070
2020-07-22 07:30 5.13 3100 10100 (1924) 278 (1954) 1550 360 440 577 666 877 1370 1540 3650 7070
2020-07-22 07:00 5.16 3150 10100 (1924) 278 (1954) 1550 360 440 577 666 877 1370 1540 3650 7070
2020-07-22 06:30 5.20 3210 10100 (1924) 278 (1954) 1550 360 440 577 666 877 1370 1540 3650 7070
2020-07-22 06:00 5.21 3220 10100 (1924) 278 (1954) 1550 360 440 577 666 877 1370 1540 3650 7070
2020-07-22 05:30 5.25 3280 10100 (1924) 278 (1954) 1550 360 440 577 666 877 1370 1540 3650 7070
2020-07-22 05:00 5.27 3310 10100 (1924) 278 (1954) 1550 360 440 577 666 877 1370 1540 3650 7070
2020-07-22 04:30 5.27 3310 10100 (1924) 278 (1954) 1550 360 440 577 666 877 1370 1540 3650 7070
2020-07-22 04:00 5.27 3310 10100 (1924) 278 (1954) 1550 360 440 577 666 877 1370 1540 3650 7070
2020-07-22 03:30 5.25 3280 10100 (1924) 278 (1954) 1550 360 440 577 666 877 1370 1540 3650 7070
2020-07-22 03:00 5.22 3240 10100 (1924) 278 (1954) 1550 360 440 577 666 877 1370 1540 3650 7070
2020-07-22 02:30 5.15 3130 10100 (1924) 278 (1954) 1550 360 440 577 666 877 1370 1540 3650 7070
2020-07-22 02:00 5.07 3010 10100 (1924) 278 (1954) 1550 360 440 577 666 877 1370 1540 3650 7070
2020-07-22 01:30 4.97 2860 10100 (1924) 278 (1954) 1550 360 440 577 666 877 1370 1540 3650 7070
2020-07-22 01:00 4.92 2790 10100 (1924) 278 (1954) 1550 360 440 577 666 877 1370 1540 3650 7070
2020-07-22 00:30 4.94 2820 10100 (1924) 278 (1954) 1550 360 440 577 666 877 1370 1540 3650 7070
2020-07-22 00:00 4.95 2830 10100 (1924) 278 (1954) 1550 360 440 577 666 877 1370 1540 3650 7070
2020-07-21 23:30 4.98 2880 14100 (1958) 289 (1954) 1560 366 451 603 661 916 1360 1510 3570 5670
2020-07-21 23:00 4.99 2890 14100 (1958) 289 (1954) 1560 366 451 603 661 916 1360 1510 3570 5670
2020-07-21 22:30 5.01 2920 14100 (1958) 289 (1954) 1560 366 451 603 661 916 1360 1510 3570 5670
2020-07-21 22:00 5.01 2920 14100 (1958) 289 (1954) 1560 366 451 603 661 916 1360 1510 3570 5670
2020-07-21 21:30 5.03 2950 14100 (1958) 289 (1954) 1560 366 451 603 661 916 1360 1510 3570 5670
2020-07-21 21:00 5.04 2970 14100 (1958) 289 (1954) 1560 366 451 603 661 916 1360 1510 3570 5670
2020-07-21 20:30 5.06 3000 14100 (1958) 289 (1954) 1560 366 451 603 661 916 1360 1510 3570 5670
2020-07-21 20:00 5.08 3030 14100 (1958) 289 (1954) 1560 366 451 603 661 916 1360 1510 3570 5670
2020-07-21 19:30 5.07 3010 14100 (1958) 289 (1954) 1560 366 451 603 661 916 1360 1510 3570 5670
2020-07-21 19:00 5.08 3030 14100 (1958) 289 (1954) 1560 366 451 603 661 916 1360 1510 3570 5670
2020-07-21 18:30 5.08 3030 14100 (1958) 289 (1954) 1560 366 451 603 661 916 1360 1510 3570 5670
2020-07-21 18:00 5.08 3030 14100 (1958) 289 (1954) 1560 366 451 603 661 916 1360 1510 3570 5670
2020-07-21 17:30 5.09 3040 14100 (1958) 289 (1954) 1560 366 451 603 661 916 1360 1510 3570 5670
2020-07-21 17:00 5.08 3030 14100 (1958) 289 (1954) 1560 366 451 603 661 916 1360 1510 3570 5670
2020-07-21 16:30 5.10 3060 14100 (1958) 289 (1954) 1560 366 451 603 661 916 1360 1510 3570 5670
2020-07-21 16:00 5.09 3040 14100 (1958) 289 (1954) 1560 366 451 603 661 916 1360 1510 3570 5670
2020-07-21 15:30 5.08 3030 14100 (1958) 289 (1954) 1560 366 451 603 661 916 1360 1510 3570 5670
2020-07-21 15:00 5.07 3010 14100 (1958) 289 (1954) 1560 366 451 603 661 916 1360 1510 3570 5670
2020-07-21 14:30 5.07 3010 14100 (1958) 289 (1954) 1560 366 451 603 661 916 1360 1510 3570 5670
2020-07-21 14:00 5.05 2980 14100 (1958) 289 (1954) 1560 366 451 603 661 916 1360 1510 3570 5670
2020-07-21 13:30 5.04 2970 14100 (1958) 289 (1954) 1560 366 451 603 661 916 1360 1510 3570 5670
2020-07-21 13:00 5.02 2940 14100 (1958) 289 (1954) 1560 366 451 603 661 916 1360 1510 3570 5670
2020-07-21 12:30 4.98 2880 14100 (1958) 289 (1954) 1560 366 451 603 661 916 1360 1510 3570 5670
2020-07-21 12:00 4.94 2820 14100 (1958) 289 (1954) 1560 366 451 603 661 916 1360 1510 3570 5670
2020-07-21 11:30 4.88 2730 14100 (1958) 289 (1954) 1560 366 451 603 661 916 1360 1510 3570 5670
2020-07-21 11:00 4.81 2630 14100 (1958) 289 (1954) 1560 366 451 603 661 916 1360 1510 3570 5670
2020-07-21 10:30 4.73 2520 14100 (1958) 289 (1954) 1560 366 451 603 661 916 1360 1510 3570 5670
2020-07-21 10:00 4.64 2390 14100 (1958) 289 (1954) 1560 366 451 603 661 916 1360 1510 3570 5670
2020-07-21 09:30 4.55 2270 14100 (1958) 289 (1954) 1560 366 451 603 661 916 1360 1510 3570 5670
2020-07-21 09:00 4.49 2180 14100 (1958) 289 (1954) 1560 366 451 603 661 916 1360 1510 3570 5670
2020-07-21 08:30 4.43 2100 14100 (1958) 289 (1954) 1560 366 451 603 661 916 1360 1510 3570 5670
2020-07-21 08:00 4.40 2060 14100 (1958) 289 (1954) 1560 366 451 603 661 916 1360 1510 3570 5670
2020-07-21 07:30 4.37 2020 14100 (1958) 289 (1954) 1560 366 451 603 661 916 1360 1510 3570 5670
2020-07-21 07:00 4.33 1970 14100 (1958) 289 (1954) 1560 366 451 603 661 916 1360 1510 3570 5670
2020-07-21 06:30 4.30 1930 14100 (1958) 289 (1954) 1560 366 451 603 661 916 1360 1510 3570 5670
2020-07-21 06:00 4.26 1870 14100 (1958) 289 (1954) 1560 366 451 603 661 916 1360 1510 3570 5670
2020-07-21 05:30 4.21 1810 14100 (1958) 289 (1954) 1560 366 451 603 661 916 1360 1510 3570 5670
2020-07-21 05:00 4.15 1730 14100 (1958) 289 (1954) 1560 366 451 603 661 916 1360 1510 3570 5670
2020-07-21 04:30 4.12 1690 14100 (1958) 289 (1954) 1560 366 451 603 661 916 1360 1510 3570 5670
2020-07-21 04:00 4.07 1630 14100 (1958) 289 (1954) 1560 366 451 603 661 916 1360 1510 3570 5670
2020-07-21 03:30 4.03 1580 14100 (1958) 289 (1954) 1560 366 451 603 661 916 1360 1510 3570 5670
2020-07-21 03:00 3.99 1530 14100 (1958) 289 (1954) 1560 366 451 603 661 916 1360 1510 3570 5670
2020-07-21 02:30 3.93 1450 14100 (1958) 289 (1954) 1560 366 451 603 661 916 1360 1510 3570 5670
2020-07-21 02:00 3.91 1430 14100 (1958) 289 (1954) 1560 366 451 603 661 916 1360 1510 3570 5670
2020-07-21 01:30 3.89 1400 14100 (1958) 289 (1954) 1560 366 451 603 661 916 1360 1510 3570 5670
2020-07-21 01:00 3.89 1400 14100 (1958) 289 (1954) 1560 366 451 603 661 916 1360 1510 3570 5670
2020-07-21 00:30 3.88 1390 14100 (1958) 289 (1954) 1560 366 451 603 661 916 1360 1510 3570 5670
2020-07-21 00:00 3.87 1380 14100 (1958) 289 (1954) 1560 366 451 603 661 916 1360 1510 3570 5670
2020-07-20 23:30 3.88 1390 29500 (1958) 296 (1954) 1620 369 455 553 634 896 1380 1480 2930 5430
2020-07-20 23:00 3.86 1360 29500 (1958) 296 (1954) 1620 369 455 553 634 896 1380 1480 2930 5430
2020-07-20 22:30 3.85 1350 29500 (1958) 296 (1954) 1620 369 455 553 634 896 1380 1480 2930 5430
2020-07-20 22:00 3.85 1350 29500 (1958) 296 (1954) 1620 369 455 553 634 896 1380 1480 2930 5430
2020-07-20 21:30 3.84 1340 29500 (1958) 296 (1954) 1620 369 455 553 634 896 1380 1480 2930 5430
2020-07-20 21:00 3.84 1340 29500 (1958) 296 (1954) 1620 369 455 553 634 896 1380 1480 2930 5430
2020-07-20 20:30 3.84 1340 29500 (1958) 296 (1954) 1620 369 455 553 634 896 1380 1480 2930 5430
2020-07-20 20:00 3.83 1320 29500 (1958) 296 (1954) 1620 369 455 553 634 896 1380 1480 2930 5430
2020-07-20 19:30 3.82 1310 29500 (1958) 296 (1954) 1620 369 455 553 634 896 1380 1480 2930 5430
2020-07-20 19:00 3.82 1310 29500 (1958) 296 (1954) 1620 369 455 553 634 896 1380 1480 2930 5430
2020-07-20 18:30 3.80 1290 29500 (1958) 296 (1954) 1620 369 455 553 634 896 1380 1480 2930 5430
2020-07-20 18:00 3.79 1270 29500 (1958) 296 (1954) 1620 369 455 553 634 896 1380 1480 2930 5430
2020-07-20 17:30 3.78 1260 29500 (1958) 296 (1954) 1620 369 455 553 634 896 1380 1480 2930 5430
2020-07-20 17:00 3.77 1250 29500 (1958) 296 (1954) 1620 369 455 553 634 896 1380 1480 2930 5430
2020-07-20 16:30 3.76 1240 29500 (1958) 296 (1954) 1620 369 455 553 634 896 1380 1480 2930 5430
2020-07-20 16:00 3.75 1220 29500 (1958) 296 (1954) 1620 369 455 553 634 896 1380 1480 2930 5430
2020-07-20 15:30 3.73 1200 29500 (1958) 296 (1954) 1620 369 455 553 634 896 1380 1480 2930 5430
2020-07-20 15:00 3.73 1200 29500 (1958) 296 (1954) 1620 369 455 553 634 896 1380 1480 2930 5430
2020-07-20 14:30 3.72 1190 29500 (1958) 296 (1954) 1620 369 455 553 634 896 1380 1480 2930 5430
2020-07-20 14:00 3.71 1170 29500 (1958) 296 (1954) 1620 369 455 553 634 896 1380 1480 2930 5430
2020-07-20 13:30 3.72 1190 29500 (1958) 296 (1954) 1620 369 455 553 634 896 1380 1480 2930 5430
2020-07-20 13:00 3.72 1190 29500 (1958) 296 (1954) 1620 369 455 553 634 896 1380 1480 2930 5430
2020-07-20 12:30 3.70 1160 29500 (1958) 296 (1954) 1620 369 455 553 634 896 1380 1480 2930 5430
2020-07-20 12:00 3.68 1140 29500 (1958) 296 (1954) 1620 369 455 553 634 896 1380 1480 2930 5430
2020-07-20 11:30 3.68 1140 29500 (1958) 296 (1954) 1620 369 455 553 634 896 1380 1480 2930 5430
2020-07-20 11:00 3.69 1150 29500 (1958) 296 (1954) 1620 369 455 553 634 896 1380 1480 2930 5430
2020-07-20 10:30 3.68 1140 29500 (1958) 296 (1954) 1620 369 455 553 634 896 1380 1480 2930 5430
2020-07-20 10:00 3.69 1150 29500 (1958) 296 (1954) 1620 369 455 553 634 896 1380 1480 2930 5430
2020-07-20 09:30 3.69 1150 29500 (1958) 296 (1954) 1620 369 455 553 634 896 1380 1480 2930 5430
2020-07-20 09:00 3.70 1160 29500 (1958) 296 (1954) 1620 369 455 553 634 896 1380 1480 2930 5430
2020-07-20 08:30 3.69 1150 29500 (1958) 296 (1954) 1620 369 455 553 634 896 1380 1480 2930 5430
2020-07-20 08:00 3.70 1160 29500 (1958) 296 (1954) 1620 369 455 553 634 896 1380 1480 2930 5430
2020-07-20 07:30 3.71 1170 29500 (1958) 296 (1954) 1620 369 455 553 634 896 1380 1480 2930 5430
2020-07-20 07:00 3.70 1160 29500 (1958) 296 (1954) 1620 369 455 553 634 896 1380 1480 2930 5430
2020-07-20 06:30 3.70 1160 29500 (1958) 296 (1954) 1620 369 455 553 634 896 1380 1480 2930 5430
2020-07-20 06:00 3.72 1190 29500 (1958) 296 (1954) 1620 369 455 553 634 896 1380 1480 2930 5430
2020-07-20 05:30 3.71 1170 29500 (1958) 296 (1954) 1620 369 455 553 634 896 1380 1480 2930 5430
2020-07-20 05:00 3.72 1190 29500 (1958) 296 (1954) 1620 369 455 553 634 896 1380 1480 2930 5430
2020-07-20 04:30 3.73 1200 29500 (1958) 296 (1954) 1620 369 455 553 634 896 1380 1480 2930 5430
2020-07-20 04:00 3.72 1190 29500 (1958) 296 (1954) 1620 369 455 553 634 896 1380 1480 2930 5430
2020-07-20 03:30 3.73 1200 29500 (1958) 296 (1954) 1620 369 455 553 634 896 1380 1480 2930 5430
2020-07-20 03:00 3.75 1220 29500 (1958) 296 (1954) 1620 369 455 553 634 896 1380 1480 2930 5430
2020-07-20 02:30 3.76 1240 29500 (1958) 296 (1954) 1620 369 455 553 634 896 1380 1480 2930 5430
2020-07-20 02:00 3.76 1240 29500 (1958) 296 (1954) 1620 369 455 553 634 896 1380 1480 2930 5430
2020-07-20 01:30 3.77 1250 29500 (1958) 296 (1954) 1620 369 455 553 634 896 1380 1480 2930 5430
2020-07-20 01:00 3.79 1270 29500 (1958) 296 (1954) 1620 369 455 553 634 896 1380 1480 2930 5430
2020-07-20 00:30 3.79 1270 29500 (1958) 296 (1954) 1620 369 455 553 634 896 1380 1480 2930 5430
2020-07-20 00:00 3.81 1300 29500 (1958) 296 (1954) 1620 369 455 553 634 896 1380 1480 2930 5430
2020-07-19 23:30 3.82 1310 28600 (1958) 306 (1936) 1570 390 441 557 638 948 1410 1510 2620 5070
2020-07-19 23:00 3.83 1320 28600 (1958) 306 (1936) 1570 390 441 557 638 948 1410 1510 2620 5070
2020-07-19 22:30 3.84 1340 28600 (1958) 306 (1936) 1570 390 441 557 638 948 1410 1510 2620 5070
2020-07-19 22:00 3.85 1350 28600 (1958) 306 (1936) 1570 390 441 557 638 948 1410 1510 2620 5070
2020-07-19 21:30 3.85 1350 28600 (1958) 306 (1936) 1570 390 441 557 638 948 1410 1510 2620 5070
2020-07-19 21:00 3.84 1340 28600 (1958) 306 (1936) 1570 390 441 557 638 948 1410 1510 2620 5070
2020-07-19 20:30 3.81 1300 28600 (1958) 306 (1936) 1570 390 441 557 638 948 1410 1510 2620 5070
2020-07-19 20:00 3.71 1170 28600 (1958) 306 (1936) 1570 390 441 557 638 948 1410 1510 2620 5070
2020-07-19 19:30 3.70 1160 28600 (1958) 306 (1936) 1570 390 441 557 638 948 1410 1510 2620 5070
2020-07-19 19:00 3.69 1150 28600 (1958) 306 (1936) 1570 390 441 557 638 948 1410 1510 2620 5070
2020-07-19 18:30 3.69 1150 28600 (1958) 306 (1936) 1570 390 441 557 638 948 1410 1510 2620 5070
2020-07-19 18:00 3.68 1140 28600 (1958) 306 (1936) 1570 390 441 557 638 948 1410 1510 2620 5070
2020-07-19 17:30 3.66 1110 28600 (1958) 306 (1936) 1570 390 441 557 638 948 1410 1510 2620 5070
2020-07-19 17:00 3.66 1110 28600 (1958) 306 (1936) 1570 390 441 557 638 948 1410 1510 2620 5070
2020-07-19 16:30 3.65 1100 28600 (1958) 306 (1936) 1570 390 441 557 638 948 1410 1510 2620 5070
2020-07-19 16:00 3.64 1090 28600 (1958) 306 (1936) 1570 390 441 557 638 948 1410 1510 2620 5070
2020-07-19 15:30 3.62 1070 28600 (1958) 306 (1936) 1570 390 441 557 638 948 1410 1510 2620 5070
2020-07-19 15:00 3.62 1070 28600 (1958) 306 (1936) 1570 390 441 557 638 948 1410 1510 2620 5070
2020-07-19 14:30 3.60 1040 28600 (1958) 306 (1936) 1570 390 441 557 638 948 1410 1510 2620 5070
2020-07-19 14:00 3.59 1030 28600 (1958) 306 (1936) 1570 390 441 557 638 948 1410 1510 2620 5070
2020-07-19 13:30 3.58 1020 28600 (1958) 306 (1936) 1570 390 441 557 638 948 1410 1510 2620 5070
2020-07-19 13:00 3.57 1010 28600 (1958) 306 (1936) 1570 390 441 557 638 948 1410 1510 2620 5070
2020-07-19 12:30 3.58 1020 28600 (1958) 306 (1936) 1570 390 441 557 638 948 1410 1510 2620 5070
2020-07-19 12:00 3.56 995 28600 (1958) 306 (1936) 1570 390 441 557 638 948 1410 1510 2620 5070
2020-07-19 11:30 3.56 995 28600 (1958) 306 (1936) 1570 390 441 557 638 948 1410 1510 2620 5070
2020-07-19 11:00 3.54 971 28600 (1958) 306 (1936) 1570 390 441 557 638 948 1410 1510 2620 5070
2020-07-19 10:30 3.54 971 28600 (1958) 306 (1936) 1570 390 441 557 638 948 1410 1510 2620 5070
2020-07-19 10:00 3.53 960 28600 (1958) 306 (1936) 1570 390 441 557 638 948 1410 1510 2620 5070
2020-07-19 09:30 3.53 960 28600 (1958) 306 (1936) 1570 390 441 557 638 948 1410 1510 2620 5070
2020-07-19 09:00 3.55 983 28600 (1958) 306 (1936) 1570 390 441 557 638 948 1410 1510 2620 5070
2020-07-19 08:30 3.54 971 28600 (1958) 306 (1936) 1570 390 441 557 638 948 1410 1510 2620 5070
2020-07-19 08:00 3.53 960 28600 (1958) 306 (1936) 1570 390 441 557 638 948 1410 1510 2620 5070
2020-07-19 07:30 3.53 960 28600 (1958) 306 (1936) 1570 390 441 557 638 948 1410 1510 2620 5070
2020-07-19 07:00 3.54 971 28600 (1958) 306 (1936) 1570 390 441 557 638 948 1410 1510 2620 5070
2020-07-19 06:30 3.55 983 28600 (1958) 306 (1936) 1570 390 441 557 638 948 1410 1510 2620 5070
2020-07-19 06:00 3.55 983 28600 (1958) 306 (1936) 1570 390 441 557 638 948 1410 1510 2620 5070
2020-07-19 05:30 3.54 971 28600 (1958) 306 (1936) 1570 390 441 557 638 948 1410 1510 2620 5070
2020-07-19 05:00 3.54 971 28600 (1958) 306 (1936) 1570 390 441 557 638 948 1410 1510 2620 5070
2020-07-19 04:30 3.55 983 28600 (1958) 306 (1936) 1570 390 441 557 638 948 1410 1510 2620 5070
2020-07-19 04:00 3.56 995 28600 (1958) 306 (1936) 1570 390 441 557 638 948 1410 1510 2620 5070
2020-07-19 03:30 3.56 995 28600 (1958) 306 (1936) 1570 390 441 557 638 948 1410 1510 2620 5070
2020-07-19 03:00 3.56 995 28600 (1958) 306 (1936) 1570 390 441 557 638 948 1410 1510 2620 5070
2020-07-19 02:30 3.56 995 28600 (1958) 306 (1936) 1570 390 441 557 638 948 1410 1510 2620 5070
2020-07-19 02:00 3.57 1010 28600 (1958) 306 (1936) 1570 390 441 557 638 948 1410 1510 2620 5070
2020-07-19 01:30 3.58 1020 28600 (1958) 306 (1936) 1570 390 441 557 638 948 1410 1510 2620 5070
2020-07-19 01:00 3.59 1030 28600 (1958) 306 (1936) 1570 390 441 557 638 948 1410 1510 2620 5070
2020-07-19 00:30 3.59 1030 28600 (1958) 306 (1936) 1570 390 441 557 638 948 1410 1510 2620 5070
2020-07-19 00:00 3.60 1040 28600 (1958) 306 (1936) 1570 390 441 557 638 948 1410 1510 2620 5070
2020-07-18 23:30 3.60 1040 15900 (1958) 303 (1934) 1500 404 455 546 640 987 1530 1720 2350 4600
2020-07-18 23:00 3.60 1040 15900 (1958) 303 (1934) 1500 404 455 546 640 987 1530 1720 2350 4600
2020-07-18 22:30 3.61 1050 15900 (1958) 303 (1934) 1500 404 455 546 640 987 1530 1720 2350 4600
2020-07-18 22:00 3.61 1050 15900 (1958) 303 (1934) 1500 404 455 546 640 987 1530 1720 2350 4600
2020-07-18 21:30 3.61 1050 15900 (1958) 303 (1934) 1500 404 455 546 640 987 1530 1720 2350 4600
2020-07-18 21:00 3.61 1050 15900 (1958) 303 (1934) 1500 404 455 546 640 987 1530 1720 2350 4600
2020-07-18 20:30 3.61 1050 15900 (1958) 303 (1934) 1500 404 455 546 640 987 1530 1720 2350 4600
2020-07-18 20:00 3.61 1050 15900 (1958) 303 (1934) 1500 404 455 546 640 987 1530 1720 2350 4600
2020-07-18 19:30 3.60 1040 15900 (1958) 303 (1934) 1500 404 455 546 640 987 1530 1720 2350 4600
2020-07-18 19:00 3.60 1040 15900 (1958) 303 (1934) 1500 404 455 546 640 987 1530 1720 2350 4600
2020-07-18 18:30 3.59 1030 15900 (1958) 303 (1934) 1500 404 455 546 640 987 1530 1720 2350 4600
2020-07-18 18:00 3.59 1030 15900 (1958) 303 (1934) 1500 404 455 546 640 987 1530 1720 2350 4600
2020-07-18 17:30 3.59 1030 15900 (1958) 303 (1934) 1500 404 455 546 640 987 1530 1720 2350 4600
2020-07-18 17:00 3.57 1010 15900 (1958) 303 (1934) 1500 404 455 546 640 987 1530 1720 2350 4600
2020-07-18 16:30 3.55 983 15900 (1958) 303 (1934) 1500 404 455 546 640 987 1530 1720 2350 4600
2020-07-18 16:00 3.56 995 15900 (1958) 303 (1934) 1500 404 455 546 640 987 1530 1720 2350 4600
2020-07-18 15:30 3.55 983 15900 (1958) 303 (1934) 1500 404 455 546 640 987 1530 1720 2350 4600
2020-07-18 15:00 3.54 971 15900 (1958) 303 (1934) 1500 404 455 546 640 987 1530 1720 2350 4600
2020-07-18 14:30 3.52 948 15900 (1958) 303 (1934) 1500 404 455 546 640 987 1530 1720 2350 4600
2020-07-18 14:00 3.52 948 15900 (1958) 303 (1934) 1500 404 455 546 640 987 1530 1720 2350 4600
2020-07-18 13:30 3.52 948 15900 (1958) 303 (1934) 1500 404 455 546 640 987 1530 1720 2350 4600
2020-07-18 13:00 3.52 948 15900 (1958) 303 (1934) 1500 404 455 546 640 987 1530 1720 2350 4600
2020-07-18 12:30 3.51 937 15900 (1958) 303 (1934) 1500 404 455 546 640 987 1530 1720 2350 4600
2020-07-18 12:00 3.52 948 15900 (1958) 303 (1934) 1500 404 455 546 640 987 1530 1720 2350 4600
2020-07-18 11:30 3.51 937 15900 (1958) 303 (1934) 1500 404 455 546 640 987 1530 1720 2350 4600
2020-07-18 11:00 3.50 926 15900 (1958) 303 (1934) 1500 404 455 546 640 987 1530 1720 2350 4600
2020-07-18 10:30 3.50 926 15900 (1958) 303 (1934) 1500 404 455 546 640 987 1530 1720 2350 4600
2020-07-18 10:00 3.51 937 15900 (1958) 303 (1934) 1500 404 455 546 640 987 1530 1720 2350 4600
2020-07-18 09:30 3.51 937 15900 (1958) 303 (1934) 1500 404 455 546 640 987 1530 1720 2350 4600
2020-07-18 09:00 3.51 937 15900 (1958) 303 (1934) 1500 404 455 546 640 987 1530 1720 2350 4600
2020-07-18 08:30 3.51 937 15900 (1958) 303 (1934) 1500 404 455 546 640 987 1530 1720 2350 4600
2020-07-18 08:00 3.50 926 15900 (1958) 303 (1934) 1500 404 455 546 640 987 1530 1720 2350 4600
2020-07-18 07:30 3.51 937 15900 (1958) 303 (1934) 1500 404 455 546 640 987 1530 1720 2350 4600
2020-07-18 07:00 3.50 926 15900 (1958) 303 (1934) 1500 404 455 546 640 987 1530 1720 2350 4600
2020-07-18 06:30 3.50 926 15900 (1958) 303 (1934) 1500 404 455 546 640 987 1530 1720 2350 4600
2020-07-18 06:00 3.50 926 15900 (1958) 303 (1934) 1500 404 455 546 640 987 1530 1720 2350 4600
2020-07-18 05:30 3.51 937 15900 (1958) 303 (1934) 1500 404 455 546 640 987 1530 1720 2350 4600
2020-07-18 05:00 3.51 937 15900 (1958) 303 (1934) 1500 404 455 546 640 987 1530 1720 2350 4600
2020-07-18 04:30 3.51 937 15900 (1958) 303 (1934) 1500 404 455 546 640 987 1530 1720 2350 4600
2020-07-18 04:00 3.51 937 15900 (1958) 303 (1934) 1500 404 455 546 640 987 1530 1720 2350 4600
2020-07-18 03:30 3.50 926 15900 (1958) 303 (1934) 1500 404 455 546 640 987 1530 1720 2350 4600
2020-07-18 03:00 3.50 926 15900 (1958) 303 (1934) 1500 404 455 546 640 987 1530 1720 2350 4600
2020-07-18 02:30 3.50 926 15900 (1958) 303 (1934) 1500 404 455 546 640 987 1530 1720 2350 4600
2020-07-18 02:00 3.51 937 15900 (1958) 303 (1934) 1500 404 455 546 640 987 1530 1720 2350 4600
2020-07-18 01:30 3.51 937 15900 (1958) 303 (1934) 1500 404 455 546 640 987 1530 1720 2350 4600
2020-07-18 01:00 3.51 937 15900 (1958) 303 (1934) 1500 404 455 546 640 987 1530 1720 2350 4600
2020-07-18 00:30 3.52 948 15900 (1958) 303 (1934) 1500 404 455 546 640 987 1530 1720 2350 4600
2020-07-18 00:00 3.51 937 15900 (1958) 303 (1934) 1500 404 455 546 640 987 1530 1720 2350 4600
2020-07-17 23:30 3.50 926 39000 (1951) 287 (1936) 1730 413 467 585 650 1030 1630 1780 3030 3970
2020-07-17 23:00 3.51 937 39000 (1951) 287 (1936) 1730 413 467 585 650 1030 1630 1780 3030 3970
2020-07-17 22:30 3.51 937 39000 (1951) 287 (1936) 1730 413 467 585 650 1030 1630 1780 3030 3970
2020-07-17 22:00 3.51 937 39000 (1951) 287 (1936) 1730 413 467 585 650 1030 1630 1780 3030 3970
2020-07-17 21:30 3.51 937 39000 (1951) 287 (1936) 1730 413 467 585 650 1030 1630 1780 3030 3970
2020-07-17 21:00 3.51 937 39000 (1951) 287 (1936) 1730 413 467 585 650 1030 1630 1780 3030 3970
2020-07-17 20:30 3.51 937 39000 (1951) 287 (1936) 1730 413 467 585 650 1030 1630 1780 3030 3970
2020-07-17 20:00 3.51 937 39000 (1951) 287 (1936) 1730 413 467 585 650 1030 1630 1780 3030 3970
2020-07-17 19:30 3.51 937 39000 (1951) 287 (1936) 1730 413 467 585 650 1030 1630 1780 3030 3970
2020-07-17 19:00 3.51 937 39000 (1951) 287 (1936) 1730 413 467 585 650 1030 1630 1780 3030 3970
2020-07-17 18:30 3.51 937 39000 (1951) 287 (1936) 1730 413 467 585 650 1030 1630 1780 3030 3970
2020-07-17 18:00 3.51 937 39000 (1951) 287 (1936) 1730 413 467 585 650 1030 1630 1780 3030 3970
2020-07-17 17:30 3.51 937 39000 (1951) 287 (1936) 1730 413 467 585 650 1030 1630 1780 3030 3970
2020-07-17 17:00 3.52 948 39000 (1951) 287 (1936) 1730 413 467 585 650 1030 1630 1780 3030 3970
2020-07-17 16:30 3.53 960 39000 (1951) 287 (1936) 1730 413 467 585 650 1030 1630 1780 3030 3970
2020-07-17 16:00 3.51 937 39000 (1951) 287 (1936) 1730 413 467 585 650 1030 1630 1780 3030 3970
2020-07-17 15:30 3.52 948 39000 (1951) 287 (1936) 1730 413 467 585 650 1030 1630 1780 3030 3970
2020-07-17 15:00 3.52 948 39000 (1951) 287 (1936) 1730 413 467 585 650 1030 1630 1780 3030 3970
2020-07-17 14:30 3.52 948 39000 (1951) 287 (1936) 1730 413 467 585 650 1030 1630 1780 3030 3970
2020-07-17 14:00 3.52 948 39000 (1951) 287 (1936) 1730 413 467 585 650 1030 1630 1780 3030 3970
2020-07-17 13:30 3.52 948 39000 (1951) 287 (1936) 1730 413 467 585 650 1030 1630 1780 3030 3970
2020-07-17 13:00 3.52 948 39000 (1951) 287 (1936) 1730 413 467 585 650 1030 1630 1780 3030 3970
2020-07-17 12:30 3.52 948 39000 (1951) 287 (1936) 1730 413 467 585 650 1030 1630 1780 3030 3970
2020-07-17 12:00 3.53 960 39000 (1951) 287 (1936) 1730 413 467 585 650 1030 1630 1780 3030 3970
2020-07-17 11:30 3.53 960 39000 (1951) 287 (1936) 1730 413 467 585 650 1030 1630 1780 3030 3970
2020-07-17 11:00 3.52 948 39000 (1951) 287 (1936) 1730 413 467 585 650 1030 1630 1780 3030 3970
2020-07-17 10:30 3.52 948 39000 (1951) 287 (1936) 1730 413 467 585 650 1030 1630 1780 3030 3970
2020-07-17 10:00 3.53 960 39000 (1951) 287 (1936) 1730 413 467 585 650 1030 1630 1780 3030 3970
2020-07-17 09:30 3.53 960 39000 (1951) 287 (1936) 1730 413 467 585 650 1030 1630 1780 3030 3970
2020-07-17 09:00 3.53 960 39000 (1951) 287 (1936) 1730 413 467 585 650 1030 1630 1780 3030 3970
2020-07-17 08:30 3.53 960 39000 (1951) 287 (1936) 1730 413 467 585 650 1030 1630 1780 3030 3970
2020-07-17 08:00 3.53 960 39000 (1951) 287 (1936) 1730 413 467 585 650 1030 1630 1780 3030 3970
2020-07-17 07:30 3.53 960 39000 (1951) 287 (1936) 1730 413 467 585 650 1030 1630 1780 3030 3970
2020-07-17 07:00 3.52 948 39000 (1951) 287 (1936) 1730 413 467 585 650 1030 1630 1780 3030 3970
2020-07-17 06:30 3.53 960 39000 (1951) 287 (1936) 1730 413 467 585 650 1030 1630 1780 3030 3970
2020-07-17 06:00 3.53 960 39000 (1951) 287 (1936) 1730 413 467 585 650 1030 1630 1780 3030 3970
2020-07-17 05:30 3.54 971 39000 (1951) 287 (1936) 1730 413 467 585 650 1030 1630 1780 3030 3970
2020-07-17 05:00 3.54 971 39000 (1951) 287 (1936) 1730 413 467 585 650 1030 1630 1780 3030 3970
2020-07-17 04:30 3.53 960 39000 (1951) 287 (1936) 1730 413 467 585 650 1030 1630 1780 3030 3970
2020-07-17 04:00 3.53 960 39000 (1951) 287 (1936) 1730 413 467 585 650 1030 1630 1780 3030 3970
2020-07-17 03:30 3.53 960 39000 (1951) 287 (1936) 1730 413 467 585 650 1030 1630 1780 3030 3970
2020-07-17 03:00 3.54 971 39000 (1951) 287 (1936) 1730 413 467 585 650 1030 1630 1780 3030 3970
2020-07-17 02:30 3.54 971 39000 (1951) 287 (1936) 1730 413 467 585 650 1030 1630 1780 3030 3970
2020-07-17 02:00 3.54 971 39000 (1951) 287 (1936) 1730 413 467 585 650 1030 1630 1780 3030 3970
2020-07-17 01:30 3.54 971 39000 (1951) 287 (1936) 1730 413 467 585 650 1030 1630 1780 3030 3970
2020-07-17 01:00 3.54 971 39000 (1951) 287 (1936) 1730 413 467 585 650 1030 1630 1780 3030 3970
2020-07-17 00:30 3.55 983 39000 (1951) 287 (1936) 1730 413 467 585 650 1030 1630 1780 3030 3970
2020-07-17 00:00 3.55 983 39000 (1951) 287 (1936) 1730 413 467 585 650 1030 1630 1780 3030 3970
2020-07-16 23:30 3.54 971 47900 (1951) 296 (1936) 1890 413 485 604 663 1110 1780 1990 2800 4400
2020-07-16 23:00 3.54 971 47900 (1951) 296 (1936) 1890 413 485 604 663 1110 1780 1990 2800 4400
2020-07-16 22:30 3.54 971 47900 (1951) 296 (1936) 1890 413 485 604 663 1110 1780 1990 2800 4400
2020-07-16 22:00 3.55 983 47900 (1951) 296 (1936) 1890 413 485 604 663 1110 1780 1990 2800 4400
2020-07-16 21:30 3.55 983 47900 (1951) 296 (1936) 1890 413 485 604 663 1110 1780 1990 2800 4400
2020-07-16 21:00 3.55 983 47900 (1951) 296 (1936) 1890 413 485 604 663 1110 1780 1990 2800 4400
2020-07-16 20:30 3.55 983 47900 (1951) 296 (1936) 1890 413 485 604 663 1110 1780 1990 2800 4400
2020-07-16 20:00 3.55 983 47900 (1951) 296 (1936) 1890 413 485 604 663 1110 1780 1990 2800 4400
2020-07-16 19:30 3.56 995 47900 (1951) 296 (1936) 1890 413 485 604 663 1110 1780 1990 2800 4400
2020-07-16 19:00 3.55 983 47900 (1951) 296 (1936) 1890 413 485 604 663 1110 1780 1990 2800 4400
2020-07-16 18:30 3.56 995 47900 (1951) 296 (1936) 1890 413 485 604 663 1110 1780 1990 2800 4400
2020-07-16 18:00 3.56 995 47900 (1951) 296 (1936) 1890 413 485 604 663 1110 1780 1990 2800 4400
2020-07-16 17:30 3.56 995 47900 (1951) 296 (1936) 1890 413 485 604 663 1110 1780 1990 2800 4400
2020-07-16 17:00 3.56 995 47900 (1951) 296 (1936) 1890 413 485 604 663 1110 1780 1990 2800 4400
2020-07-16 16:30 3.56 995 47900 (1951) 296 (1936) 1890 413 485 604 663 1110 1780 1990 2800 4400
2020-07-16 16:00 3.56 995 47900 (1951) 296 (1936) 1890 413 485 604 663 1110 1780 1990 2800 4400
2020-07-16 15:30 3.57 1010 47900 (1951) 296 (1936) 1890 413 485 604 663 1110 1780 1990 2800 4400
2020-07-16 15:00 3.57 1010 47900 (1951) 296 (1936) 1890 413 485 604 663 1110 1780 1990 2800 4400
2020-07-16 14:30 3.57 1010 47900 (1951) 296 (1936) 1890 413 485 604 663 1110 1780 1990 2800 4400
2020-07-16 14:00 3.57 1010 47900 (1951) 296 (1936) 1890 413 485 604 663 1110 1780 1990 2800 4400
2020-07-16 13:30 3.57 1010 47900 (1951) 296 (1936) 1890 413 485 604 663 1110 1780 1990 2800 4400
2020-07-16 13:00 3.57 1010 47900 (1951) 296 (1936) 1890 413 485 604 663 1110 1780 1990 2800 4400
2020-07-16 12:30 3.56 995 47900 (1951) 296 (1936) 1890 413 485 604 663 1110 1780 1990 2800 4400
2020-07-16 12:00 3.58 1020 47900 (1951) 296 (1936) 1890 413 485 604 663 1110 1780 1990 2800 4400
2020-07-16 11:30 3.57 1010 47900 (1951) 296 (1936) 1890 413 485 604 663 1110 1780 1990 2800 4400
2020-07-16 11:00 3.58 1020 47900 (1951) 296 (1936) 1890 413 485 604 663 1110 1780 1990 2800 4400
2020-07-16 10:30 3.58 1020 47900 (1951) 296 (1936) 1890 413 485 604 663 1110 1780 1990 2800 4400
2020-07-16 10:00 3.58 1020 47900 (1951) 296 (1936) 1890 413 485 604 663 1110 1780 1990 2800 4400
2020-07-16 09:30 3.58 1020 47900 (1951) 296 (1936) 1890 413 485 604 663 1110 1780 1990 2800 4400
2020-07-16 09:00 3.58 1020 47900 (1951) 296 (1936) 1890 413 485 604 663 1110 1780 1990 2800 4400
2020-07-16 07:30 3.58 1020 47900 (1951) 296 (1936) 1890 413 485 604 663 1110 1780 1990 2800 4400
2020-07-16 06:30 3.59 1030 47900 (1951) 296 (1936) 1890 413 485 604 663 1110 1780 1990 2800 4400
2020-07-16 06:00 3.59 1030 47900 (1951) 296 (1936) 1890 413 485 604 663 1110 1780 1990 2800 4400
2020-07-16 05:30 3.59 1030 47900 (1951) 296 (1936) 1890 413 485 604 663 1110 1780 1990 2800 4400
2020-07-16 04:30 3.59 1030 47900 (1951) 296 (1936) 1890 413 485 604 663 1110 1780 1990 2800 4400
2020-07-16 04:00 3.60 1040 47900 (1951) 296 (1936) 1890 413 485 604 663 1110 1780 1990 2800 4400
2020-07-16 03:30 3.60 1040 47900 (1951) 296 (1936) 1890 413 485 604 663 1110 1780 1990 2800 4400
2020-07-16 02:30 3.61 1050 47900 (1951) 296 (1936) 1890 413 485 604 663 1110 1780 1990 2800 4400
2020-07-16 02:00 3.62 1070 47900 (1951) 296 (1936) 1890 413 485 604 663 1110 1780 1990 2800 4400
2020-07-16 01:30 3.61 1050 47900 (1951) 296 (1936) 1890 413 485 604 663 1110 1780 1990 2800 4400
2020-07-16 01:00 3.62 1070 47900 (1951) 296 (1936) 1890 413 485 604 663 1110 1780 1990 2800 4400
2020-07-16 00:00 3.63 1080 47900 (1951) 296 (1936) 1890 413 485 604 663 1110 1780 1990 2800 4400
2020-07-15 23:30 3.63 1080 49100 (1951) 306 (1936) 1930 404 487 609 694 1020 1730 2200 3330 4620
2020-07-15 23:00 3.64 1090 49100 (1951) 306 (1936) 1930 404 487 609 694 1020 1730 2200 3330 4620
2020-07-15 22:30 3.66 1110 49100 (1951) 306 (1936) 1930 404 487 609 694 1020 1730 2200 3330 4620
2020-07-15 22:00 3.66 1110 49100 (1951) 306 (1936) 1930 404 487 609 694 1020 1730 2200 3330 4620
2020-07-15 21:30 3.67 1120 49100 (1951) 306 (1936) 1930 404 487 609 694 1020 1730 2200 3330 4620
2020-07-15 21:00 1120 49100 (1951) 306 (1936) 1930 404 487 609 694 1020 1730 2200 3330 4620
2020-07-15 20:30 3.69 1150 49100 (1951) 306 (1936) 1930 404 487 609 694 1020 1730 2200 3330 4620
2020-07-15 19:30 3.70 1160 49100 (1951) 306 (1936) 1930 404 487 609 694 1020 1730 2200 3330 4620
2020-07-15 19:00 3.71 1170 49100 (1951) 306 (1936) 1930 404 487 609 694 1020 1730 2200 3330 4620
2020-07-15 18:30 3.71 1170 49100 (1951) 306 (1936) 1930 404 487 609 694 1020 1730 2200 3330 4620
2020-07-15 18:00 3.70 1160 49100 (1951) 306 (1936) 1930 404 487 609 694 1020 1730 2200 3330 4620
2020-07-15 17:00 3.69 1150 49100 (1951) 306 (1936) 1930 404 487 609 694 1020 1730 2200 3330 4620
2020-07-15 16:30 3.68 1140 49100 (1951) 306 (1936) 1930 404 487 609 694 1020 1730 2200 3330 4620
2020-07-15 16:00 3.58 1020 49100 (1951) 306 (1936) 1930 404 487 609 694 1020 1730 2200 3330 4620
2020-07-15 15:30 3.59 1030 49100 (1951) 306 (1936) 1930 404 487 609 694 1020 1730 2200 3330 4620
2020-07-15 15:00 3.59 1030 49100 (1951) 306 (1936) 1930 404 487 609 694 1020 1730 2200 3330 4620
2020-07-15 14:30 3.59 1030 49100 (1951) 306 (1936) 1930 404 487 609 694 1020 1730 2200 3330 4620
2020-07-15 14:00 3.59 1030 49100 (1951) 306 (1936) 1930 404 487 609 694 1020 1730 2200 3330 4620
2020-07-15 13:30 3.58 1020 49100 (1951) 306 (1936) 1930 404 487 609 694 1020 1730 2200 3330 4620
2020-07-15 13:00 3.58 1020 49100 (1951) 306 (1936) 1930 404 487 609 694 1020 1730 2200 3330 4620
2020-07-15 12:30 3.58 1020 49100 (1951) 306 (1936) 1930 404 487 609 694 1020 1730 2200 3330 4620
2020-07-15 12:00 3.58 1020 49100 (1951) 306 (1936) 1930 404 487 609 694 1020 1730 2200 3330 4620
2020-07-15 11:30 3.59 1030 49100 (1951) 306 (1936) 1930 404 487 609 694 1020 1730 2200 3330 4620
2020-07-15 11:00 3.59 1030 49100 (1951) 306 (1936) 1930 404 487 609 694 1020 1730 2200 3330 4620
2020-07-15 10:30 3.59 1030 49100 (1951) 306 (1936) 1930 404 487 609 694 1020 1730 2200 3330 4620
2020-07-15 10:00 3.59 1030 49100 (1951) 306 (1936) 1930 404 487 609 694 1020 1730 2200 3330 4620
2020-07-15 09:30 3.60 1040 49100 (1951) 306 (1936) 1930 404 487 609 694 1020 1730 2200 3330 4620
2020-07-15 09:00 3.59 1030 49100 (1951) 306 (1936) 1930 404 487 609 694 1020 1730 2200 3330 4620
2020-07-15 08:30 3.60 1040 49100 (1951) 306 (1936) 1930 404 487 609 694 1020 1730 2200 3330 4620
2020-07-15 08:00 3.60 1040 49100 (1951) 306 (1936) 1930 404 487 609 694 1020 1730 2200 3330 4620
2020-07-15 07:30 3.59 1030 49100 (1951) 306 (1936) 1930 404 487 609 694 1020 1730 2200 3330 4620
2020-07-15 07:00 3.60 1040 49100 (1951) 306 (1936) 1930 404 487 609 694 1020 1730 2200 3330 4620
2020-07-15 06:30 3.61 1050 49100 (1951) 306 (1936) 1930 404 487 609 694 1020 1730 2200 3330 4620
2020-07-15 06:00 3.60 1040 49100 (1951) 306 (1936) 1930 404 487 609 694 1020 1730 2200 3330 4620
2020-07-15 05:30 3.60 1040 49100 (1951) 306 (1936) 1930 404 487 609 694 1020 1730 2200 3330 4620
2020-07-15 05:00 3.61 1050 49100 (1951) 306 (1936) 1930 404 487 609 694 1020 1730 2200 3330 4620
2020-07-15 04:30 3.60 1040 49100 (1951) 306 (1936) 1930 404 487 609 694 1020 1730 2200 3330 4620
2020-07-15 04:00 3.61 1050 49100 (1951) 306 (1936) 1930 404 487 609 694 1020 1730 2200 3330 4620
2020-07-15 03:30 3.61 1050 49100 (1951) 306 (1936) 1930 404 487 609 694 1020 1730 2200 3330 4620
2020-07-15 03:00 3.61 1050 49100 (1951) 306 (1936) 1930 404 487 609 694 1020 1730 2200 3330 4620
2020-07-15 02:30 3.61 1050 49100 (1951) 306 (1936) 1930 404 487 609 694 1020 1730 2200 3330 4620
2020-07-15 02:00 3.62 1070 49100 (1951) 306 (1936) 1930 404 487 609 694 1020 1730 2200 3330 4620
2020-07-15 01:30 3.61 1050 49100 (1951) 306 (1936) 1930 404 487 609 694 1020 1730 2200 3330 4620
2020-07-15 01:00 3.61 1050 49100 (1951) 306 (1936) 1930 404 487 609 694 1020 1730 2200 3330 4620
2020-07-15 00:30 3.62 1070 49100 (1951) 306 (1936) 1930 404 487 609 694 1020 1730 2200 3330 4620
2020-07-15 00:00 3.62 1070 49100 (1951) 306 (1936) 1930 404 487 609 694 1020 1730 2200 3330 4620
2020-07-14 23:30 3.61 1050 34600 (1951) 316 (1936) 1760 413 521 629 683 994 1710 2020 2870 5100
2020-07-14 23:00 3.62 1070 34600 (1951) 316 (1936) 1760 413 521 629 683 994 1710 2020 2870 5100
2020-07-14 22:30 3.62 1070 34600 (1951) 316 (1936) 1760 413 521 629 683 994 1710 2020 2870 5100
2020-07-14 22:00 3.62 1070 34600 (1951) 316 (1936) 1760 413 521 629 683 994 1710 2020 2870 5100
2020-07-14 21:30 3.63 1080 34600 (1951) 316 (1936) 1760 413 521 629 683 994 1710 2020 2870 5100
2020-07-14 21:00 3.63 1080 34600 (1951) 316 (1936) 1760 413 521 629 683 994 1710 2020 2870 5100
2020-07-14 20:30 3.63 1080 34600 (1951) 316 (1936) 1760 413 521 629 683 994 1710 2020 2870 5100
2020-07-14 20:00 3.63 1080 34600 (1951) 316 (1936) 1760 413 521 629 683 994 1710 2020 2870 5100
2020-07-14 19:30 3.62 1070 34600 (1951) 316 (1936) 1760 413 521 629 683 994 1710 2020 2870 5100
2020-07-14 19:00 3.62 1070 34600 (1951) 316 (1936) 1760 413 521 629 683 994 1710 2020 2870 5100
2020-07-14 18:30 3.64 1090 34600 (1951) 316 (1936) 1760 413 521 629 683 994 1710 2020 2870 5100
2020-07-14 18:00 3.64 1090 34600 (1951) 316 (1936) 1760 413 521 629 683 994 1710 2020 2870 5100
2020-07-14 17:30 3.63 1080 34600 (1951) 316 (1936) 1760 413 521 629 683 994 1710 2020 2870 5100
2020-07-14 17:00 3.63 1080 34600 (1951) 316 (1936) 1760 413 521 629 683 994 1710 2020 2870 5100
2020-07-14 16:30 3.64 1090 34600 (1951) 316 (1936) 1760 413 521 629 683 994 1710 2020 2870 5100
2020-07-14 16:00 3.64 1090 34600 (1951) 316 (1936) 1760 413 521 629 683 994 1710 2020 2870 5100
2020-07-14 15:30 3.64 1090 34600 (1951) 316 (1936) 1760 413 521 629 683 994 1710 2020 2870 5100
2020-07-14 15:00 3.64 1090 34600 (1951) 316 (1936) 1760 413 521 629 683 994 1710 2020 2870 5100
2020-07-14 14:30 3.64 1090 34600 (1951) 316 (1936) 1760 413 521 629 683 994 1710 2020 2870 5100
2020-07-14 14:00 3.64 1090 34600 (1951) 316 (1936) 1760 413 521 629 683 994 1710 2020 2870 5100
2020-07-14 13:30 3.65 1100 34600 (1951) 316 (1936) 1760 413 521 629 683 994 1710 2020 2870 5100
2020-07-14 13:00 3.65 1100 34600 (1951) 316 (1936) 1760 413 521 629 683 994 1710 2020 2870 5100
2020-07-14 12:30 3.64 1090 34600 (1951) 316 (1936) 1760 413 521 629 683 994 1710 2020 2870 5100
2020-07-14 12:00 3.65 1100 34600 (1951) 316 (1936) 1760 413 521 629 683 994 1710 2020 2870 5100
2020-07-14 11:30 3.66 1110 34600 (1951) 316 (1936) 1760 413 521 629 683 994 1710 2020 2870 5100
2020-07-14 11:00 3.66 1110 34600 (1951) 316 (1936) 1760 413 521 629 683 994 1710 2020 2870 5100
2020-07-14 10:30 3.66 1110 34600 (1951) 316 (1936) 1760 413 521 629 683 994 1710 2020 2870 5100
2020-07-14 10:00 3.65 1100 34600 (1951) 316 (1936) 1760 413 521 629 683 994 1710 2020 2870 5100
2020-07-14 09:30 3.65 1100 34600 (1951) 316 (1936) 1760 413 521 629 683 994 1710 2020 2870 5100
2020-07-14 09:00 3.66 1110 34600 (1951) 316 (1936) 1760 413 521 629 683 994 1710 2020 2870 5100
2020-07-14 08:30 3.67 1120 34600 (1951) 316 (1936) 1760 413 521 629 683 994 1710 2020 2870 5100
2020-07-14 08:00 3.66 1110 34600 (1951) 316 (1936) 1760 413 521 629 683 994 1710 2020 2870 5100
2020-07-14 07:30 3.67 1120 34600 (1951) 316 (1936) 1760 413 521 629 683 994 1710 2020 2870 5100
2020-07-14 07:00 3.66 1110 34600 (1951) 316 (1936) 1760 413 521 629 683 994 1710 2020 2870 5100
2020-07-14 06:30 3.66 1110 34600 (1951) 316 (1936) 1760 413 521 629 683 994 1710 2020 2870 5100
2020-07-14 06:00 3.67 1120 34600 (1951) 316 (1936) 1760 413 521 629 683 994 1710 2020 2870 5100
2020-07-14 05:30 3.67 1120 34600 (1951) 316 (1936) 1760 413 521 629 683 994 1710 2020 2870 5100
2020-07-14 05:00 3.67 1120 34600 (1951) 316 (1936) 1760 413 521 629 683 994 1710 2020 2870 5100
2020-07-14 04:30 3.68 1140 34600 (1951) 316 (1936) 1760 413 521 629 683 994 1710 2020 2870 5100
2020-07-14 04:00 3.67 1120 34600 (1951) 316 (1936) 1760 413 521 629 683 994 1710 2020 2870 5100
2020-07-14 03:30 3.67 1120 34600 (1951) 316 (1936) 1760 413 521 629 683 994 1710 2020 2870 5100
2020-07-14 03:00 3.68 1140 34600 (1951) 316 (1936) 1760 413 521 629 683 994 1710 2020 2870 5100
2020-07-14 02:30 3.68 1140 34600 (1951) 316 (1936) 1760 413 521 629 683 994 1710 2020 2870 5100
2020-07-14 02:00 3.68 1140 34600 (1951) 316 (1936) 1760 413 521 629 683 994 1710 2020 2870 5100
2020-07-14 01:30 3.68 1140 34600 (1951) 316 (1936) 1760 413 521 629 683 994 1710 2020 2870 5100
2020-07-14 01:00 3.69 1150 34600 (1951) 316 (1936) 1760 413 521 629 683 994 1710 2020 2870 5100
2020-07-14 00:30 3.68 1140 34600 (1951) 316 (1936) 1760 413 521 629 683 994 1710 2020 2870 5100
2020-07-14 00:00 3.69 1150 34600 (1951) 316 (1936) 1760 413 521 629 683 994 1710 2020 2870 5100
2020-07-13 23:30 3.68 1140 24600 (1951) 326 (1936) 1820 431 545 648 706 1020 1820 2050 3150 5060
2020-07-13 23:00 3.69 1150 24600 (1951) 326 (1936) 1820 431 545 648 706 1020 1820 2050 3150 5060
2020-07-13 22:30 3.68 1140 24600 (1951) 326 (1936) 1820 431 545 648 706 1020 1820 2050 3150 5060
2020-07-13 22:00 3.69 1150 24600 (1951) 326 (1936) 1820 431 545 648 706 1020 1820 2050 3150 5060
2020-07-13 21:30 3.70 1160 24600 (1951) 326 (1936) 1820 431 545 648 706 1020 1820 2050 3150 5060
2020-07-13 21:00 3.68 1140 24600 (1951) 326 (1936) 1820 431 545 648 706 1020 1820 2050 3150 5060
2020-07-13 20:30 3.69 1150 24600 (1951) 326 (1936) 1820 431 545 648 706 1020 1820 2050 3150 5060
2020-07-13 20:00 3.69 1150 24600 (1951) 326 (1936) 1820 431 545 648 706 1020 1820 2050 3150 5060
2020-07-13 19:30 3.70 1160 24600 (1951) 326 (1936) 1820 431 545 648 706 1020 1820 2050 3150 5060
2020-07-13 19:00 3.69 1150 24600 (1951) 326 (1936) 1820 431 545 648 706 1020 1820 2050 3150 5060
2020-07-13 18:30 3.70 1160 24600 (1951) 326 (1936) 1820 431 545 648 706 1020 1820 2050 3150 5060
2020-07-13 18:00 3.71 1170 24600 (1951) 326 (1936) 1820 431 545 648 706 1020 1820 2050 3150 5060
2020-07-13 17:30 3.71 1170 24600 (1951) 326 (1936) 1820 431 545 648 706 1020 1820 2050 3150 5060
2020-07-13 17:00 3.71 1170 24600 (1951) 326 (1936) 1820 431 545 648 706 1020 1820 2050 3150 5060
2020-07-13 16:30 3.71 1170 24600 (1951) 326 (1936) 1820 431 545 648 706 1020 1820 2050 3150 5060
2020-07-13 16:00 3.71 1170 24600 (1951) 326 (1936) 1820 431 545 648 706 1020 1820 2050 3150 5060
2020-07-13 15:30 3.72 1190 24600 (1951) 326 (1936) 1820 431 545 648 706 1020 1820 2050 3150 5060
2020-07-13 15:00 3.72 1190 24600 (1951) 326 (1936) 1820 431 545 648 706 1020 1820 2050 3150 5060
2020-07-13 14:30 3.72 1190 24600 (1951) 326 (1936) 1820 431 545 648 706 1020 1820 2050 3150 5060
2020-07-13 14:00 3.72 1190 24600 (1951) 326 (1936) 1820 431 545 648 706 1020 1820 2050 3150 5060
2020-07-13 13:30 3.72 1190 24600 (1951) 326 (1936) 1820 431 545 648 706 1020 1820 2050 3150 5060
2020-07-13 13:00 3.71 1170 24600 (1951) 326 (1936) 1820 431 545 648 706 1020 1820 2050 3150 5060
2020-07-13 12:30 3.71 1170 24600 (1951) 326 (1936) 1820 431 545 648 706 1020 1820 2050 3150 5060
2020-07-13 12:00 3.72 1190 24600 (1951) 326 (1936) 1820 431 545 648 706 1020 1820 2050 3150 5060
2020-07-13 11:30 3.72 1190 24600 (1951) 326 (1936) 1820 431 545 648 706 1020 1820 2050 3150 5060
2020-07-13 11:00 3.72 1190 24600 (1951) 326 (1936) 1820 431 545 648 706 1020 1820 2050 3150 5060
2020-07-13 10:30 3.73 1200 24600 (1951) 326 (1936) 1820 431 545 648 706 1020 1820 2050 3150 5060
2020-07-13 10:00 3.73 1200 24600 (1951) 326 (1936) 1820 431 545 648 706 1020 1820 2050 3150 5060
2020-07-13 09:30 3.73 1200 24600 (1951) 326 (1936) 1820 431 545 648 706 1020 1820 2050 3150 5060
2020-07-13 09:00 3.73 1200 24600 (1951) 326 (1936) 1820 431 545 648 706 1020 1820 2050 3150 5060
2020-07-13 08:30 3.74 1210 24600 (1951) 326 (1936) 1820 431 545 648 706 1020 1820 2050 3150 5060
2020-07-13 08:00 3.73 1200 24600 (1951) 326 (1936) 1820 431 545 648 706 1020 1820 2050 3150 5060
2020-07-13 07:30 3.73 1200 24600 (1951) 326 (1936) 1820 431 545 648 706 1020 1820 2050 3150 5060
2020-07-13 07:00 3.74 1210 24600 (1951) 326 (1936) 1820 431 545 648 706 1020 1820 2050 3150 5060
2020-07-13 06:30 3.74 1210 24600 (1951) 326 (1936) 1820 431 545 648 706 1020 1820 2050 3150 5060
2020-07-13 06:00 3.74 1210 24600 (1951) 326 (1936) 1820 431 545 648 706 1020 1820 2050 3150 5060
2020-07-13 05:30 3.74 1210 24600 (1951) 326 (1936) 1820 431 545 648 706 1020 1820 2050 3150 5060
2020-07-13 05:00 3.74 1210 24600 (1951) 326 (1936) 1820 431 545 648 706 1020 1820 2050 3150 5060
2020-07-13 04:30 3.74 1210 24600 (1951) 326 (1936) 1820 431 545 648 706 1020 1820 2050 3150 5060
2020-07-13 04:00 3.75 1220 24600 (1951) 326 (1936) 1820 431 545 648 706 1020 1820 2050 3150 5060
2020-07-13 03:30 3.75 1220 24600 (1951) 326 (1936) 1820 431 545 648 706 1020 1820 2050 3150 5060
2020-07-13 03:00 3.75 1220 24600 (1951) 326 (1936) 1820 431 545 648 706 1020 1820 2050 3150 5060
2020-07-13 02:30 3.75 1220 24600 (1951) 326 (1936) 1820 431 545 648 706 1020 1820 2050 3150 5060
2020-07-13 02:00 3.75 1220 24600 (1951) 326 (1936) 1820 431 545 648 706 1020 1820 2050 3150 5060
2020-07-13 01:30 3.76 1240 24600 (1951) 326 (1936) 1820 431 545 648 706 1020 1820 2050 3150 5060
2020-07-13 01:00 3.76 1240 24600 (1951) 326 (1936) 1820 431 545 648 706 1020 1820 2050 3150 5060
2020-07-13 00:30 3.76 1240 24600 (1951) 326 (1936) 1820 431 545 648 706 1020 1820 2050 3150 5060
2020-07-13 00:00 3.76 1240 24600 (1951) 326 (1936) 1820 431 545 648 706 1020 1820 2050 3150 5060
2020-07-12 23:30 3.76 1240 18700 (1951) 337 (1936) 1950 452 545 653 719 1010 1910 2430 3480 8730
2020-07-12 23:00 3.76 1240 18700 (1951) 337 (1936) 1950 452 545 653 719 1010 1910 2430 3480 8730
2020-07-12 22:30 3.77 1250 18700 (1951) 337 (1936) 1950 452 545 653 719 1010 1910 2430 3480 8730
2020-07-12 22:00 3.76 1240 18700 (1951) 337 (1936) 1950 452 545 653 719 1010 1910 2430 3480 8730
2020-07-12 21:30 3.77 1250 18700 (1951) 337 (1936) 1950 452 545 653 719 1010 1910 2430 3480 8730
2020-07-12 21:00 3.76 1240 18700 (1951) 337 (1936) 1950 452 545 653 719 1010 1910 2430 3480 8730
2020-07-12 20:30 3.77 1250 18700 (1951) 337 (1936) 1950 452 545 653 719 1010 1910 2430 3480 8730
2020-07-12 20:00 3.77 1250 18700 (1951) 337 (1936) 1950 452 545 653 719 1010 1910 2430 3480 8730
2020-07-12 19:30 3.77 1250 18700 (1951) 337 (1936) 1950 452 545 653 719 1010 1910 2430 3480 8730
2020-07-12 19:00 3.76 1240 18700 (1951) 337 (1936) 1950 452 545 653 719 1010 1910 2430 3480 8730
2020-07-12 18:30 3.77 1250 18700 (1951) 337 (1936) 1950 452 545 653 719 1010 1910 2430 3480 8730
2020-07-12 18:00 3.78 1260 18700 (1951) 337 (1936) 1950 452 545 653 719 1010 1910 2430 3480 8730
2020-07-12 17:30 3.78 1260 18700 (1951) 337 (1936) 1950 452 545 653 719 1010 1910 2430 3480 8730
2020-07-12 17:00 3.78 1260 18700 (1951) 337 (1936) 1950 452 545 653 719 1010 1910 2430 3480 8730
2020-07-12 16:30 3.78 1260 18700 (1951) 337 (1936) 1950 452 545 653 719 1010 1910 2430 3480 8730
2020-07-12 16:00 3.77 1250 18700 (1951) 337 (1936) 1950 452 545 653 719 1010 1910 2430 3480 8730
2020-07-12 15:30 3.78 1260 18700 (1951) 337 (1936) 1950 452 545 653 719 1010 1910 2430 3480 8730
2020-07-12 15:00 3.78 1260 18700 (1951) 337 (1936) 1950 452 545 653 719 1010 1910 2430 3480 8730
2020-07-12 14:30 3.78 1260 18700 (1951) 337 (1936) 1950 452 545 653 719 1010 1910 2430 3480 8730
2020-07-12 14:00 3.80 1290 18700 (1951) 337 (1936) 1950 452 545 653 719 1010 1910 2430 3480 8730
2020-07-12 13:30 3.80 1290 18700 (1951) 337 (1936) 1950 452 545 653 719 1010 1910 2430 3480 8730
2020-07-12 13:00 3.79 1270 18700 (1951) 337 (1936) 1950 452 545 653 719 1010 1910 2430 3480 8730
2020-07-12 12:30 3.80 1290 18700 (1951) 337 (1936) 1950 452 545 653 719 1010 1910 2430 3480 8730
2020-07-12 12:00 3.80 1290 18700 (1951) 337 (1936) 1950 452 545 653 719 1010 1910 2430 3480 8730
2020-07-12 11:30 3.81 1300 18700 (1951) 337 (1936) 1950 452 545 653 719 1010 1910 2430 3480 8730
2020-07-12 11:00 3.81 1300 18700 (1951) 337 (1936) 1950 452 545 653 719 1010 1910 2430 3480 8730
2020-07-12 10:30 3.81 1300 18700 (1951) 337 (1936) 1950 452 545 653 719 1010 1910 2430 3480 8730
2020-07-12 10:00 3.80 1290 18700 (1951) 337 (1936) 1950 452 545 653 719 1010 1910 2430 3480 8730
2020-07-12 09:30 3.81 1300 18700 (1951) 337 (1936) 1950 452 545 653 719 1010 1910 2430 3480 8730
2020-07-12 09:00 3.81 1300 18700 (1951) 337 (1936) 1950 452 545 653 719 1010 1910 2430 3480 8730
2020-07-12 08:30 3.81 1300 18700 (1951) 337 (1936) 1950 452 545 653 719 1010 1910 2430 3480 8730
2020-07-12 08:00 3.81 1300 18700 (1951) 337 (1936) 1950 452 545 653 719 1010 1910 2430 3480 8730
2020-07-12 07:30 3.81 1300 18700 (1951) 337 (1936) 1950 452 545 653 719 1010 1910 2430 3480 8730
2020-07-12 07:00 3.81 1300 18700 (1951) 337 (1936) 1950 452 545 653 719 1010 1910 2430 3480 8730
2020-07-12 06:30 3.82 1310 18700 (1951) 337 (1936) 1950 452 545 653 719 1010 1910 2430 3480 8730
2020-07-12 06:00 3.82 1310 18700 (1951) 337 (1936) 1950 452 545 653 719 1010 1910 2430 3480 8730
2020-07-12 05:30 3.81 1300 18700 (1951) 337 (1936) 1950 452 545 653 719 1010 1910 2430 3480 8730
2020-07-12 05:00 3.82 1310 18700 (1951) 337 (1936) 1950 452 545 653 719 1010 1910 2430 3480 8730
2020-07-12 04:30 3.82 1310 18700 (1951) 337 (1936) 1950 452 545 653 719 1010 1910 2430 3480 8730
2020-07-12 04:00 3.82 1310 18700 (1951) 337 (1936) 1950 452 545 653 719 1010 1910 2430 3480 8730
2020-07-12 03:30 3.83 1320 18700 (1951) 337 (1936) 1950 452 545 653 719 1010 1910 2430 3480 8730
2020-07-12 03:00 3.82 1310 18700 (1951) 337 (1936) 1950 452 545 653 719 1010 1910 2430 3480 8730
2020-07-12 02:30 3.83 1320 18700 (1951) 337 (1936) 1950 452 545 653 719 1010 1910 2430 3480 8730
2020-07-12 02:00 3.83 1320 18700 (1951) 337 (1936) 1950 452 545 653 719 1010 1910 2430 3480 8730
2020-07-12 01:30 3.83 1320 18700 (1951) 337 (1936) 1950 452 545 653 719 1010 1910 2430 3480 8730
2020-07-12 01:00 3.83 1320 18700 (1951) 337 (1936) 1950 452 545 653 719 1010 1910 2430 3480 8730
2020-07-12 00:30 3.82 1310 18700 (1951) 337 (1936) 1950 452 545 653 719 1010 1910 2430 3480 8730
2020-07-12 00:00 3.84 1340 18700 (1951) 337 (1936) 1950 452 545 653 719 1010 1910 2430 3480 8730
2020-07-11 23:30 3.84 1340 34700 (1993) 337 (1936) 2070 462 514 655 752 1040 1910 2280 3730 7450
2020-07-11 23:00 3.84 1340 34700 (1993) 337 (1936) 2070 462 514 655 752 1040 1910 2280 3730 7450
2020-07-11 22:30 3.84 1340 34700 (1993) 337 (1936) 2070 462 514 655 752 1040 1910 2280 3730 7450
2020-07-11 22:00 3.85 1350 34700 (1993) 337 (1936) 2070 462 514 655 752 1040 1910 2280 3730 7450
2020-07-11 21:30 3.85 1350 34700 (1993) 337 (1936) 2070 462 514 655 752 1040 1910 2280 3730 7450
2020-07-11 21:00 3.84 1340 34700 (1993) 337 (1936) 2070 462 514 655 752 1040 1910 2280 3730 7450
2020-07-11 20:30 3.84 1340 34700 (1993) 337 (1936) 2070 462 514 655 752 1040 1910 2280 3730 7450
2020-07-11 20:00 3.85 1350 34700 (1993) 337 (1936) 2070 462 514 655 752 1040 1910 2280 3730 7450
2020-07-11 19:30 3.85 1350 34700 (1993) 337 (1936) 2070 462 514 655 752 1040 1910 2280 3730 7450
2020-07-11 19:00 3.85 1350 34700 (1993) 337 (1936) 2070 462 514 655 752 1040 1910 2280 3730 7450
2020-07-11 18:30 3.86 1360 34700 (1993) 337 (1936) 2070 462 514 655 752 1040 1910 2280 3730 7450
2020-07-11 18:00 3.87 1380 34700 (1993) 337 (1936) 2070 462 514 655 752 1040 1910 2280 3730 7450
2020-07-11 17:30 3.87 1380 34700 (1993) 337 (1936) 2070 462 514 655 752 1040 1910 2280 3730 7450
2020-07-11 17:00 3.86 1360 34700 (1993) 337 (1936) 2070 462 514 655 752 1040 1910 2280 3730 7450
2020-07-11 16:30 3.86 1360 34700 (1993) 337 (1936) 2070 462 514 655 752 1040 1910 2280 3730 7450
2020-07-11 16:00 3.87 1380 34700 (1993) 337 (1936) 2070 462 514 655 752 1040 1910 2280 3730 7450
2020-07-11 15:30 3.87 1380 34700 (1993) 337 (1936) 2070 462 514 655 752 1040 1910 2280 3730 7450
2020-07-11 15:00 3.87 1380 34700 (1993) 337 (1936) 2070 462 514 655 752 1040 1910 2280 3730 7450
2020-07-11 14:30 3.88 1390 34700 (1993) 337 (1936) 2070 462 514 655 752 1040 1910 2280 3730 7450
2020-07-11 14:00 3.88 1390 34700 (1993) 337 (1936) 2070 462 514 655 752 1040 1910 2280 3730 7450
2020-07-11 13:30 3.88 1390 34700 (1993) 337 (1936) 2070 462 514 655 752 1040 1910 2280 3730 7450
2020-07-11 13:00 3.89 1400 34700 (1993) 337 (1936) 2070 462 514 655 752 1040 1910 2280 3730 7450
2020-07-11 12:30 3.88 1390 34700 (1993) 337 (1936) 2070 462 514 655 752 1040 1910 2280 3730 7450
2020-07-11 12:00 3.88 1390 34700 (1993) 337 (1936) 2070 462 514 655 752 1040 1910 2280 3730 7450
2020-07-11 11:30 3.88 1390 34700 (1993) 337 (1936) 2070 462 514 655 752 1040 1910 2280 3730 7450
2020-07-11 11:00 3.89 1400 34700 (1993) 337 (1936) 2070 462 514 655 752 1040 1910 2280 3730 7450
2020-07-11 10:30 3.89 1400 34700 (1993) 337 (1936) 2070 462 514 655 752 1040 1910 2280 3730 7450
2020-07-11 10:00 3.89 1400 34700 (1993) 337 (1936) 2070 462 514 655 752 1040 1910 2280 3730 7450
2020-07-11 09:30 3.90 1410 34700 (1993) 337 (1936) 2070 462 514 655 752 1040 1910 2280 3730 7450
2020-07-11 09:00 3.91 1430 34700 (1993) 337 (1936) 2070 462 514 655 752 1040 1910 2280 3730 7450
2020-07-11 08:30 3.90 1410 34700 (1993) 337 (1936) 2070 462 514 655 752 1040 1910 2280 3730 7450
2020-07-11 08:00 3.91 1430 34700 (1993) 337 (1936) 2070 462 514 655 752 1040 1910 2280 3730 7450
2020-07-11 07:30 3.91 1430 34700 (1993) 337 (1936) 2070 462 514 655 752 1040 1910 2280 3730 7450
2020-07-11 07:00 3.91 1430 34700 (1993) 337 (1936) 2070 462 514 655 752 1040 1910 2280 3730 7450
2020-07-11 06:00 3.92 1440 34700 (1993) 337 (1936) 2070 462 514 655 752 1040 1910 2280 3730 7450
2020-07-11 05:30 3.92 1440 34700 (1993) 337 (1936) 2070 462 514 655 752 1040 1910 2280 3730 7450
2020-07-11 05:00 3.91 1430 34700 (1993) 337 (1936) 2070 462 514 655 752 1040 1910 2280 3730 7450
2020-07-11 04:30 3.92 1440 34700 (1993) 337 (1936) 2070 462 514 655 752 1040 1910 2280 3730 7450
2020-07-11 04:00 3.92 1440 34700 (1993) 337 (1936) 2070 462 514 655 752 1040 1910 2280 3730 7450
2020-07-11 03:30 3.92 1440 34700 (1993) 337 (1936) 2070 462 514 655 752 1040 1910 2280 3730 7450
2020-07-11 03:00 3.92 1440 34700 (1993) 337 (1936) 2070 462 514 655 752 1040 1910 2280 3730 7450
2020-07-11 02:30 3.93 1450 34700 (1993) 337 (1936) 2070 462 514 655 752 1040 1910 2280 3730 7450
2020-07-11 02:00 3.93 1450 34700 (1993) 337 (1936) 2070 462 514 655 752 1040 1910 2280 3730 7450
2020-07-11 01:30 3.93 1450 34700 (1993) 337 (1936) 2070 462 514 655 752 1040 1910 2280 3730 7450
2020-07-11 01:00 3.94 1470 34700 (1993) 337 (1936) 2070 462 514 655 752 1040 1910 2280 3730 7450
2020-07-11 00:30 3.93 1450 34700 (1993) 337 (1936) 2070 462 514 655 752 1040 1910 2280 3730 7450
2020-07-11 00:00 3.95 1480 34700 (1993) 337 (1936) 2070 462 514 655 752 1040 1910 2280 3730 7450
2020-07-10 23:30 3.95 1480 34400 (1993) 345 (1934) 2040 491 542 667 715 1010 1700 2100 4390 6400
2020-07-10 23:00 3.94 1470 34400 (1993) 345 (1934) 2040 491 542 667 715 1010 1700 2100 4390 6400
2020-07-10 22:30 3.95 1480 34400 (1993) 345 (1934) 2040 491 542 667 715 1010 1700 2100 4390 6400
2020-07-10 22:00 3.95 1480 34400 (1993) 345 (1934) 2040 491 542 667 715 1010 1700 2100 4390 6400
2020-07-10 21:30 3.96 1490 34400 (1993) 345 (1934) 2040 491 542 667 715 1010 1700 2100 4390 6400
2020-07-10 21:00 3.95 1480 34400 (1993) 345 (1934) 2040 491 542 667 715 1010 1700 2100 4390 6400
2020-07-10 20:30 3.96 1490 34400 (1993) 345 (1934) 2040 491 542 667 715 1010 1700 2100 4390 6400
2020-07-10 20:00 3.96 1490 34400 (1993) 345 (1934) 2040 491 542 667 715 1010 1700 2100 4390 6400
2020-07-10 19:30 3.97 1510 34400 (1993) 345 (1934) 2040 491 542 667 715 1010 1700 2100 4390 6400
2020-07-10 19:00 3.97 1510 34400 (1993) 345 (1934) 2040 491 542 667 715 1010 1700 2100 4390 6400
2020-07-10 18:30 3.98 1520 34400 (1993) 345 (1934) 2040 491 542 667 715 1010 1700 2100 4390 6400
2020-07-10 18:00 3.97 1510 34400 (1993) 345 (1934) 2040 491 542 667 715 1010 1700 2100 4390 6400
2020-07-10 17:30 3.97 1510 34400 (1993) 345 (1934) 2040 491 542 667 715 1010 1700 2100 4390 6400
2020-07-10 17:00 3.98 1520 34400 (1993) 345 (1934) 2040 491 542 667 715 1010 1700 2100 4390 6400
2020-07-10 16:30 3.98 1520 34400 (1993) 345 (1934) 2040 491 542 667 715 1010 1700 2100 4390 6400
2020-07-10 16:00 3.99 1530 34400 (1993) 345 (1934) 2040 491 542 667 715 1010 1700 2100 4390 6400
2020-07-10 15:30 3.99 1530 34400 (1993) 345 (1934) 2040 491 542 667 715 1010 1700 2100 4390 6400
2020-07-10 15:00 4.00 1540 34400 (1993) 345 (1934) 2040 491 542 667 715 1010 1700 2100 4390 6400
2020-07-10 14:30 4.00 1540 34400 (1993) 345 (1934) 2040 491 542 667 715 1010 1700 2100 4390 6400
2020-07-10 14:00 3.99 1530 34400 (1993) 345 (1934) 2040 491 542 667 715 1010 1700 2100 4390 6400
2020-07-10 13:30 4.00 1540 34400 (1993) 345 (1934) 2040 491 542 667 715 1010 1700 2100 4390 6400
2020-07-10 13:00 4.01 1560 34400 (1993) 345 (1934) 2040 491 542 667 715 1010 1700 2100 4390 6400
2020-07-10 12:30 4.01 1560 34400 (1993) 345 (1934) 2040 491 542 667 715 1010 1700 2100 4390 6400
2020-07-10 12:00 4.03 1580 34400 (1993) 345 (1934) 2040 491 542 667 715 1010 1700 2100 4390 6400
2020-07-10 11:30 4.02 1570 34400 (1993) 345 (1934) 2040 491 542 667 715 1010 1700 2100 4390 6400
2020-07-10 11:00 4.02 1570 34400 (1993) 345 (1934) 2040 491 542 667 715 1010 1700 2100 4390 6400
2020-07-10 10:30 4.02 1570 34400 (1993) 345 (1934) 2040 491 542 667 715 1010 1700 2100 4390 6400
2020-07-10 10:00 4.03 1580 34400 (1993) 345 (1934) 2040 491 542 667 715 1010 1700 2100 4390 6400
2020-07-10 09:30 4.03 1580 34400 (1993) 345 (1934) 2040 491 542 667 715 1010 1700 2100 4390 6400
2020-07-10 09:00 4.04 1590 34400 (1993) 345 (1934) 2040 491 542 667 715 1010 1700 2100 4390 6400
2020-07-10 08:30 4.03 1580 34400 (1993) 345 (1934) 2040 491 542 667 715 1010 1700 2100 4390 6400
2020-07-10 08:00 4.03 1580 34400 (1993) 345 (1934) 2040 491 542 667 715 1010 1700 2100 4390 6400
2020-07-10 07:30 4.04 1590 34400 (1993) 345 (1934) 2040 491 542 667 715 1010 1700 2100 4390 6400
2020-07-10 07:00 4.04 1590 34400 (1993) 345 (1934) 2040 491 542 667 715 1010 1700 2100 4390 6400
2020-07-10 06:30 4.05 1610 34400 (1993) 345 (1934) 2040 491 542 667 715 1010 1700 2100 4390 6400
2020-07-10 06:00 4.05 1610 34400 (1993) 345 (1934) 2040 491 542 667 715 1010 1700 2100 4390 6400
2020-07-10 05:30 4.05 1610 34400 (1993) 345 (1934) 2040 491 542 667 715 1010 1700 2100 4390 6400
2020-07-10 05:00 4.05 1610 34400 (1993) 345 (1934) 2040 491 542 667 715 1010 1700 2100 4390 6400
2020-07-10 04:30 4.06 1620 34400 (1993) 345 (1934) 2040 491 542 667 715 1010 1700 2100 4390 6400
2020-07-10 04:00 4.06 1620 34400 (1993) 345 (1934) 2040 491 542 667 715 1010 1700 2100 4390 6400
2020-07-10 03:30 4.07 1630 34400 (1993) 345 (1934) 2040 491 542 667 715 1010 1700 2100 4390 6400
2020-07-10 03:00 4.07 1630 34400 (1993) 345 (1934) 2040 491 542 667 715 1010 1700 2100 4390 6400
2020-07-10 02:30 4.07 1630 34400 (1993) 345 (1934) 2040 491 542 667 715 1010 1700 2100 4390 6400
2020-07-10 02:00 4.07 1630 34400 (1993) 345 (1934) 2040 491 542 667 715 1010 1700 2100 4390 6400
2020-07-10 01:30 4.08 1640 34400 (1993) 345 (1934) 2040 491 542 667 715 1010 1700 2100 4390 6400
2020-07-10 01:00 4.08 1640 34400 (1993) 345 (1934) 2040 491 542 667 715 1010 1700 2100 4390 6400
2020-07-10 00:30 4.09 1660 34400 (1993) 345 (1934) 2040 491 542 667 715 1010 1700 2100 4390 6400
2020-07-10 00:00 4.08 1640 34400 (1993) 345 (1934) 2040 491 542 667 715 1010 1700 2100 4390 6400
2020-07-09 23:30 4.09 1660 32600 (1993) 342 (1936) 2090 498 555 654 718 1050 1930 2270 4720 8100
2020-07-09 23:00 4.10 1670 32600 (1993) 342 (1936) 2090 498 555 654 718 1050 1930 2270 4720 8100
2020-07-09 22:30 4.09 1660 32600 (1993) 342 (1936) 2090 498 555 654 718 1050 1930 2270 4720 8100
2020-07-09 22:00 4.09 1660 32600 (1993) 342 (1936) 2090 498 555 654 718 1050 1930 2270 4720 8100
2020-07-09 21:30 4.11 1680 32600 (1993) 342 (1936) 2090 498 555 654 718 1050 1930 2270 4720 8100
2020-07-09 21:00 4.11 1680 32600 (1993) 342 (1936) 2090 498 555 654 718 1050 1930 2270 4720 8100
2020-07-09 20:30 4.12 1690 32600 (1993) 342 (1936) 2090 498 555 654 718 1050 1930 2270 4720 8100
2020-07-09 20:00 4.11 1680 32600 (1993) 342 (1936) 2090 498 555 654 718 1050 1930 2270 4720 8100
2020-07-09 19:30 4.11 1680 32600 (1993) 342 (1936) 2090 498 555 654 718 1050 1930 2270 4720 8100
2020-07-09 19:00 4.13 1710 32600 (1993) 342 (1936) 2090 498 555 654 718 1050 1930 2270 4720 8100
2020-07-09 18:30 4.13 1710 32600 (1993) 342 (1936) 2090 498 555 654 718 1050 1930 2270 4720 8100
2020-07-09 18:00 4.14 1720 32600 (1993) 342 (1936) 2090 498 555 654 718 1050 1930 2270 4720 8100
2020-07-09 17:30 4.14 1720 32600 (1993) 342 (1936) 2090 498 555 654 718 1050 1930 2270 4720 8100
2020-07-09 17:00 4.13 1710 32600 (1993) 342 (1936) 2090 498 555 654 718 1050 1930 2270 4720 8100
2020-07-09 16:30 4.14 1720 32600 (1993) 342 (1936) 2090 498 555 654 718 1050 1930 2270 4720 8100
2020-07-09 16:00 4.14 1720 32600 (1993) 342 (1936) 2090 498 555 654 718 1050 1930 2270 4720 8100
2020-07-09 15:30 4.16 1740 32600 (1993) 342 (1936) 2090 498 555 654 718 1050 1930 2270 4720 8100
2020-07-09 15:00 4.16 1740 32600 (1993) 342 (1936) 2090 498 555 654 718 1050 1930 2270 4720 8100
2020-07-09 14:30 4.17 1760 32600 (1993) 342 (1936) 2090 498 555 654 718 1050 1930 2270 4720 8100
2020-07-09 14:00 4.17 1760 32600 (1993) 342 (1936) 2090 498 555 654 718 1050 1930 2270 4720 8100
2020-07-09 13:30 4.17 1760 32600 (1993) 342 (1936) 2090 498 555 654 718 1050 1930 2270 4720 8100
2020-07-09 12:30 4.19 1780 32600 (1993) 342 (1936) 2090 498 555 654 718 1050 1930 2270 4720 8100
2020-07-09 12:00 4.19 1780 32600 (1993) 342 (1936) 2090 498 555 654 718 1050 1930 2270 4720 8100
2020-07-09 11:30 4.19 1780 32600 (1993) 342 (1936) 2090 498 555 654 718 1050 1930 2270 4720 8100
2020-07-09 11:00 4.20 1790 32600 (1993) 342 (1936) 2090 498 555 654 718 1050 1930 2270 4720 8100
2020-07-09 10:30 4.22 1820 32600 (1993) 342 (1936) 2090 498 555 654 718 1050 1930 2270 4720 8100
2020-07-09 10:00 4.20 1790 32600 (1993) 342 (1936) 2090 498 555 654 718 1050 1930 2270 4720 8100
2020-07-09 09:30 4.22 1820 32600 (1993) 342 (1936) 2090 498 555 654 718 1050 1930 2270 4720 8100
2020-07-09 09:00 4.22 1820 32600 (1993) 342 (1936) 2090 498 555 654 718 1050 1930 2270 4720 8100
2020-07-09 08:30 4.24 1850 32600 (1993) 342 (1936) 2090 498 555 654 718 1050 1930 2270 4720 8100
2020-07-09 08:00 4.24 1850 32600 (1993) 342 (1936) 2090 498 555 654 718 1050 1930 2270 4720 8100
2020-07-09 07:30 4.24 1850 32600 (1993) 342 (1936) 2090 498 555 654 718 1050 1930 2270 4720 8100
2020-07-09 07:00 4.24 1850 32600 (1993) 342 (1936) 2090 498 555 654 718 1050 1930 2270 4720 8100
2020-07-09 06:30 4.24 1850 32600 (1993) 342 (1936) 2090 498 555 654 718 1050 1930 2270 4720 8100
2020-07-09 06:00 4.26 1870 32600 (1993) 342 (1936) 2090 498 555 654 718 1050 1930 2270 4720 8100
2020-07-09 05:30 4.27 1890 32600 (1993) 342 (1936) 2090 498 555 654 718 1050 1930 2270 4720 8100
2020-07-09 05:00 4.26 1870 32600 (1993) 342 (1936) 2090 498 555 654 718 1050 1930 2270 4720 8100
2020-07-09 04:30 4.28 1900 32600 (1993) 342 (1936) 2090 498 555 654 718 1050 1930 2270 4720 8100
2020-07-09 04:00 4.28 1900 32600 (1993) 342 (1936) 2090 498 555 654 718 1050 1930 2270 4720 8100
2020-07-09 03:30 4.28 1900 32600 (1993) 342 (1936) 2090 498 555 654 718 1050 1930 2270 4720 8100
2020-07-09 03:00 4.28 1900 32600 (1993) 342 (1936) 2090 498 555 654 718 1050 1930 2270 4720 8100
2020-07-09 02:30 4.29 1910 32600 (1993) 342 (1936) 2090 498 555 654 718 1050 1930 2270 4720 8100
2020-07-09 02:00 4.30 1930 32600 (1993) 342 (1936) 2090 498 555 654 718 1050 1930 2270 4720 8100
2020-07-09 01:30 4.31 1940 32600 (1993) 342 (1936) 2090 498 555 654 718 1050 1930 2270 4720 8100
2020-07-09 01:00 4.31 1940 32600 (1993) 342 (1936) 2090 498 555 654 718 1050 1930 2270 4720 8100
2020-07-09 00:30 4.31 1940 32600 (1993) 342 (1936) 2090 498 555 654 718 1050 1930 2270 4720 8100
2020-07-09 00:00 4.32 1950 32600 (1993) 342 (1936) 2090 498 555 654 718 1050 1930 2270 4720 8100
2020-07-08 23:30 4.32 1950 27300 (1993) 347 (1936) 2020 474 555 663 742 1120 1760 2230 3980 7480
2020-07-08 23:00 4.33 1970 27300 (1993) 347 (1936) 2020 474 555 663 742 1120 1760 2230 3980 7480
2020-07-08 22:30 4.34 1980 27300 (1993) 347 (1936) 2020 474 555 663 742 1120 1760 2230 3980 7480
2020-07-08 22:00 4.35 1990 27300 (1993) 347 (1936) 2020 474 555 663 742 1120 1760 2230 3980 7480
2020-07-08 21:30 4.34 1980 27300 (1993) 347 (1936) 2020 474 555 663 742 1120 1760 2230 3980 7480
2020-07-08 21:00 4.36 2010 27300 (1993) 347 (1936) 2020 474 555 663 742 1120 1760 2230 3980 7480
2020-07-08 20:30 4.36 2010 27300 (1993) 347 (1936) 2020 474 555 663 742 1120 1760 2230 3980 7480
2020-07-08 20:00 4.37 2020 27300 (1993) 347 (1936) 2020 474 555 663 742 1120 1760 2230 3980 7480
2020-07-08 19:30 4.37 2020 27300 (1993) 347 (1936) 2020 474 555 663 742 1120 1760 2230 3980 7480
2020-07-08 19:00 4.37 2020 27300 (1993) 347 (1936) 2020 474 555 663 742 1120 1760 2230 3980 7480
2020-07-08 18:30 4.38 2030 27300 (1993) 347 (1936) 2020 474 555 663 742 1120 1760 2230 3980 7480
2020-07-08 18:00 4.40 2060 27300 (1993) 347 (1936) 2020 474 555 663 742 1120 1760 2230 3980 7480
2020-07-08 17:30 4.40 2060 27300 (1993) 347 (1936) 2020 474 555 663 742 1120 1760 2230 3980 7480
2020-07-08 17:00 4.40 2060 27300 (1993) 347 (1936) 2020 474 555 663 742 1120 1760 2230 3980 7480
2020-07-08 16:30 4.41 2070 27300 (1993) 347 (1936) 2020 474 555 663 742 1120 1760 2230 3980 7480
2020-07-08 16:00 4.40 2060 27300 (1993) 347 (1936) 2020 474 555 663 742 1120 1760 2230 3980 7480
2020-07-08 15:30 4.42 2090 27300 (1993) 347 (1936) 2020 474 555 663 742 1120 1760 2230 3980 7480
2020-07-08 15:00 4.42 2090 27300 (1993) 347 (1936) 2020 474 555 663 742 1120 1760 2230 3980 7480
2020-07-08 14:30 4.43 2100 27300 (1993) 347 (1936) 2020 474 555 663 742 1120 1760 2230 3980 7480
2020-07-08 14:00 4.44 2110 27300 (1993) 347 (1936) 2020 474 555 663 742 1120 1760 2230 3980 7480
2020-07-08 13:30 4.45 2130 27300 (1993) 347 (1936) 2020 474 555 663 742 1120 1760 2230 3980 7480
2020-07-08 13:00 4.45 2130 27300 (1993) 347 (1936) 2020 474 555 663 742 1120 1760 2230 3980 7480
2020-07-08 12:30 4.46 2140 27300 (1993) 347 (1936) 2020 474 555 663 742 1120 1760 2230 3980 7480
2020-07-08 12:00 4.47 2160 27300 (1993) 347 (1936) 2020 474 555 663 742 1120 1760 2230 3980 7480
2020-07-08 11:30 4.48 2170 27300 (1993) 347 (1936) 2020 474 555 663 742 1120 1760 2230 3980 7480
2020-07-08 11:00 4.48 2170 27300 (1993) 347 (1936) 2020 474 555 663 742 1120 1760 2230 3980 7480
2020-07-08 10:30 4.50 2200 27300 (1993) 347 (1936) 2020 474 555 663 742 1120 1760 2230 3980 7480
2020-07-08 10:00 4.49 2180 27300 (1993) 347 (1936) 2020 474 555 663 742 1120 1760 2230 3980 7480
2020-07-08 09:30 4.51 2210 27300 (1993) 347 (1936) 2020 474 555 663 742 1120 1760 2230 3980 7480
2020-07-08 09:00 4.51 2210 27300 (1993) 347 (1936) 2020 474 555 663 742 1120 1760 2230 3980 7480
2020-07-08 08:30 4.53 2240 27300 (1993) 347 (1936) 2020 474 555 663 742 1120 1760 2230 3980 7480
2020-07-08 08:00 4.54 2250 27300 (1993) 347 (1936) 2020 474 555 663 742 1120 1760 2230 3980 7480
2020-07-08 07:30 4.54 2250 27300 (1993) 347 (1936) 2020 474 555 663 742 1120 1760 2230 3980 7480
2020-07-08 07:00 4.55 2270 27300 (1993) 347 (1936) 2020 474 555 663 742 1120 1760 2230 3980 7480
2020-07-08 06:30 4.55 2270 27300 (1993) 347 (1936) 2020 474 555 663 742 1120 1760 2230 3980 7480
2020-07-08 06:00 4.56 2280 27300 (1993) 347 (1936) 2020 474 555 663 742 1120 1760 2230 3980 7480
2020-07-08 05:30 4.58 2310 27300 (1993) 347 (1936) 2020 474 555 663 742 1120 1760 2230 3980 7480
2020-07-08 05:00 4.57 2290 27300 (1993) 347 (1936) 2020 474 555 663 742 1120 1760 2230 3980 7480
2020-07-08 04:30 4.58 2310 27300 (1993) 347 (1936) 2020 474 555 663 742 1120 1760 2230 3980 7480
2020-07-08 04:00 4.58 2310 27300 (1993) 347 (1936) 2020 474 555 663 742 1120 1760 2230 3980 7480
2020-07-08 03:30 4.59 2320 27300 (1993) 347 (1936) 2020 474 555 663 742 1120 1760 2230 3980 7480
2020-07-08 03:00 4.60 2330 27300 (1993) 347 (1936) 2020 474 555 663 742 1120 1760 2230 3980 7480
2020-07-08 02:30 4.62 2360 27300 (1993) 347 (1936) 2020 474 555 663 742 1120 1760 2230 3980 7480
2020-07-08 02:00 4.62 2360 27300 (1993) 347 (1936) 2020 474 555 663 742 1120 1760 2230 3980 7480
2020-07-08 01:30 4.63 2380 27300 (1993) 347 (1936) 2020 474 555 663 742 1120 1760 2230 3980 7480
2020-07-08 01:00 4.65 2400 27300 (1993) 347 (1936) 2020 474 555 663 742 1120 1760 2230 3980 7480
2020-07-08 00:30 4.66 2420 27300 (1993) 347 (1936) 2020 474 555 663 742 1120 1760 2230 3980 7480
2020-07-08 00:00 4.67 2430 27300 (1993) 347 (1936) 2020 474 555 663 742 1120 1760 2230 3980 7480
2020-07-07 23:30 4.67 2430 11900 (1993) 368 (1934) 1680 502 570 688 787 1170 1740 1970 3790 5280
2020-07-07 23:00 4.68 2450 11900 (1993) 368 (1934) 1680 502 570 688 787 1170 1740 1970 3790 5280
2020-07-07 22:30 4.68 2450 11900 (1993) 368 (1934) 1680 502 570 688 787 1170 1740 1970 3790 5280
2020-07-07 22:00 4.69 2460 11900 (1993) 368 (1934) 1680 502 570 688 787 1170 1740 1970 3790 5280
2020-07-07 21:30 4.71 2490 11900 (1993) 368 (1934) 1680 502 570 688 787 1170 1740 1970 3790 5280
2020-07-07 21:00 4.73 2520 11900 (1993) 368 (1934) 1680 502 570 688 787 1170 1740 1970 3790 5280
2020-07-07 20:30 4.73 2520 11900 (1993) 368 (1934) 1680 502 570 688 787 1170 1740 1970 3790 5280
2020-07-07 20:00 4.74 2530 11900 (1993) 368 (1934) 1680 502 570 688 787 1170 1740 1970 3790 5280
2020-07-07 19:30 4.74 2530 11900 (1993) 368 (1934) 1680 502 570 688 787 1170 1740 1970 3790 5280
2020-07-07 19:00 4.76 2560 11900 (1993) 368 (1934) 1680 502 570 688 787 1170 1740 1970 3790 5280
2020-07-07 18:30 4.76 2560 11900 (1993) 368 (1934) 1680 502 570 688 787 1170 1740 1970 3790 5280
2020-07-07 18:00 4.78 2590 11900 (1993) 368 (1934) 1680 502 570 688 787 1170 1740 1970 3790 5280
2020-07-07 17:30 4.79 2600 11900 (1993) 368 (1934) 1680 502 570 688 787 1170 1740 1970 3790 5280
2020-07-07 17:00 4.79 2600 11900 (1993) 368 (1934) 1680 502 570 688 787 1170 1740 1970 3790 5280
2020-07-07 16:30 4.81 2630 11900 (1993) 368 (1934) 1680 502 570 688 787 1170 1740 1970 3790 5280
2020-07-07 16:00 4.83 2660 11900 (1993) 368 (1934) 1680 502 570 688 787 1170 1740 1970 3790 5280
2020-07-07 15:30 4.84 2670 11900 (1993) 368 (1934) 1680 502 570 688 787 1170 1740 1970 3790 5280
2020-07-07 15:00 4.84 2670 11900 (1993) 368 (1934) 1680 502 570 688 787 1170 1740 1970 3790 5280
2020-07-07 14:30 4.87 2720 11900 (1993) 368 (1934) 1680 502 570 688 787 1170 1740 1970 3790 5280
2020-07-07 14:00 4.87 2720 11900 (1993) 368 (1934) 1680 502 570 688 787 1170 1740 1970 3790 5280
2020-07-07 13:30 4.88 2730 11900 (1993) 368 (1934) 1680 502 570 688 787 1170 1740 1970 3790 5280
2020-07-07 13:00 4.90 2760 11900 (1993) 368 (1934) 1680 502 570 688 787 1170 1740 1970 3790 5280
2020-07-07 12:30 4.90 2760 11900 (1993) 368 (1934) 1680 502 570 688 787 1170 1740 1970 3790 5280
2020-07-07 12:00 4.93 2810 11900 (1993) 368 (1934) 1680 502 570 688 787 1170 1740 1970 3790 5280
2020-07-07 11:30 4.93 2810 11900 (1993) 368 (1934) 1680 502 570 688 787 1170 1740 1970 3790 5280
2020-07-07 11:00 4.95 2830 11900 (1993) 368 (1934) 1680 502 570 688 787 1170 1740 1970 3790 5280
2020-07-07 10:30 4.96 2850 11900 (1993) 368 (1934) 1680 502 570 688 787 1170 1740 1970 3790 5280
2020-07-07 10:00 4.98 2880 11900 (1993) 368 (1934) 1680 502 570 688 787 1170 1740 1970 3790 5280
2020-07-07 09:30 4.99 2890 11900 (1993) 368 (1934) 1680 502 570 688 787 1170 1740 1970 3790 5280
2020-07-07 09:00 5.00 2910 11900 (1993) 368 (1934) 1680 502 570 688 787 1170 1740 1970 3790 5280
2020-07-07 08:30 5.03 2950 11900 (1993) 368 (1934) 1680 502 570 688 787 1170 1740 1970 3790 5280
2020-07-07 08:00 5.04 2970 11900 (1993) 368 (1934) 1680 502 570 688 787 1170 1740 1970 3790 5280
2020-07-07 07:30 5.04 2970 11900 (1993) 368 (1934) 1680 502 570 688 787 1170 1740 1970 3790 5280
2020-07-07 07:00 5.06 3000 11900 (1993) 368 (1934) 1680 502 570 688 787 1170 1740 1970 3790 5280
2020-07-07 06:30 5.07 3010 11900 (1993) 368 (1934) 1680 502 570 688 787 1170 1740 1970 3790 5280
2020-07-07 06:00 5.08 3030 11900 (1993) 368 (1934) 1680 502 570 688 787 1170 1740 1970 3790 5280
2020-07-07 05:30 5.10 3060 11900 (1993) 368 (1934) 1680 502 570 688 787 1170 1740 1970 3790 5280
2020-07-07 05:00 5.10 3060 11900 (1993) 368 (1934) 1680 502 570 688 787 1170 1740 1970 3790 5280
2020-07-07 04:30 5.12 3090 11900 (1993) 368 (1934) 1680 502 570 688 787 1170 1740 1970 3790 5280
2020-07-07 04:00 5.14 3120 11900 (1993) 368 (1934) 1680 502 570 688 787 1170 1740 1970 3790 5280
2020-07-07 03:30 5.14 3120 11900 (1993) 368 (1934) 1680 502 570 688 787 1170 1740 1970 3790 5280
2020-07-07 03:00 5.16 3150 11900 (1993) 368 (1934) 1680 502 570 688 787 1170 1740 1970 3790 5280
2020-07-07 02:30 5.17 3160 11900 (1993) 368 (1934) 1680 502 570 688 787 1170 1740 1970 3790 5280
2020-07-07 02:00 5.18 3180 11900 (1993) 368 (1934) 1680 502 570 688 787 1170 1740 1970 3790 5280
2020-07-07 01:30 5.21 3220 11900 (1993) 368 (1934) 1680 502 570 688 787 1170 1740 1970 3790 5280
2020-07-07 01:00 5.20 3210 11900 (1993) 368 (1934) 1680 502 570 688 787 1170 1740 1970 3790 5280
2020-07-07 00:30 5.23 3250 11900 (1993) 368 (1934) 1680 502 570 688 787 1170 1740 1970 3790 5280
2020-07-07 00:00 5.25 3280 11900 (1993) 368 (1934) 1680 502 570 688 787 1170 1740 1970 3790 5280

A total of 1452 rows are displayed for years 1904 through 2019.